<?xml version="1.0" encoding="UTF-8" standalone="no" ?>
<gpx xmlns="http://www.topografix.com/GPX/1/1" xmlns:xsi="http://www.w3.org/2001/XMLSchema-instance" xsi:schemaLocation="http://www.topografix.com/GPX/1/1 http://www.topografix.com/GPX/1/1/gpx.xsd" version="1.1" creator="VisuGPX - https://www.visugpx.com">
  <metadata>
    <name>rando poiré  2014</name>
    <desc><![CDATA[rando du poiré sur vie 2014 . Du grand chemin entre des spéciales techniques plutôt bien faites  . --> Spéciales sur terrain privé , merci de respecter .]]></desc>
  </metadata>
  <trk>
    <name><![CDATA[rando poiré  2014_1]]></name>
    <trkseg>
      <trkpt lat="46.76964" lon="-1.51447">
        <ele>79</ele>
        <time>2014-05-25T06:52:02.548Z</time>
      </trkpt>
      <trkpt lat="46.76956" lon="-1.51434">
        <ele>113</ele>
        <time>2014-05-25T06:53:02.555Z</time>
      </trkpt>
      <trkpt lat="46.76966" lon="-1.51418">
        <ele>111</ele>
        <time>2014-05-25T06:53:09.554Z</time>
      </trkpt>
      <trkpt lat="46.76993" lon="-1.51395">
        <ele>113</ele>
        <time>2014-05-25T06:53:18.555Z</time>
      </trkpt>
      <trkpt lat="46.77016" lon="-1.51376">
        <ele>113</ele>
        <time>2014-05-25T06:53:27.556Z</time>
      </trkpt>
      <trkpt lat="46.77016" lon="-1.51353">
        <ele>113</ele>
        <time>2014-05-25T06:53:31.556Z</time>
      </trkpt>
      <trkpt lat="46.77017" lon="-1.5132">
        <ele>113</ele>
        <time>2014-05-25T06:53:38.555Z</time>
      </trkpt>
      <trkpt lat="46.77006" lon="-1.51307">
        <ele>114</ele>
        <time>2014-05-25T06:53:42.554Z</time>
      </trkpt>
      <trkpt lat="46.76993" lon="-1.51302">
        <ele>115</ele>
        <time>2014-05-25T06:53:45.554Z</time>
      </trkpt>
      <trkpt lat="46.76988" lon="-1.51281">
        <ele>107</ele>
        <time>2014-05-25T06:54:45.555Z</time>
      </trkpt>
      <trkpt lat="46.76968" lon="-1.51275">
        <ele>120</ele>
        <time>2014-05-25T06:55:45.555Z</time>
      </trkpt>
      <trkpt lat="46.76957" lon="-1.51277">
        <ele>124</ele>
        <time>2014-05-25T06:56:45.561Z</time>
      </trkpt>
      <trkpt lat="46.76984" lon="-1.513">
        <ele>123</ele>
        <time>2014-05-25T06:57:29.556Z</time>
      </trkpt>
      <trkpt lat="46.77" lon="-1.51308">
        <ele>120</ele>
        <time>2014-05-25T06:57:35.555Z</time>
      </trkpt>
      <trkpt lat="46.77015" lon="-1.51318">
        <ele>120</ele>
        <time>2014-05-25T06:57:39.555Z</time>
      </trkpt>
      <trkpt lat="46.77025" lon="-1.51335">
        <ele>117</ele>
        <time>2014-05-25T06:57:43.558Z</time>
      </trkpt>
      <trkpt lat="46.77042" lon="-1.51396">
        <ele>120</ele>
        <time>2014-05-25T06:57:56.56Z</time>
      </trkpt>
      <trkpt lat="46.77044" lon="-1.5142">
        <ele>120</ele>
        <time>2014-05-25T06:58:03.559Z</time>
      </trkpt>
      <trkpt lat="46.77032" lon="-1.51432">
        <ele>120</ele>
        <time>2014-05-25T06:58:08.559Z</time>
      </trkpt>
      <trkpt lat="46.7702" lon="-1.51443">
        <ele>117</ele>
        <time>2014-05-25T06:58:13.558Z</time>
      </trkpt>
      <trkpt lat="46.77033" lon="-1.51428">
        <ele>118</ele>
        <time>2014-05-25T06:58:32.556Z</time>
      </trkpt>
      <trkpt lat="46.77021" lon="-1.51438">
        <ele>117</ele>
        <time>2014-05-25T06:58:46.556Z</time>
      </trkpt>
      <trkpt lat="46.77019" lon="-1.51462">
        <ele>117</ele>
        <time>2014-05-25T06:58:50.555Z</time>
      </trkpt>
      <trkpt lat="46.77026" lon="-1.5148">
        <ele>117</ele>
        <time>2014-05-25T06:58:53.555Z</time>
      </trkpt>
      <trkpt lat="46.77035" lon="-1.51498">
        <ele>117</ele>
        <time>2014-05-25T06:58:56.555Z</time>
      </trkpt>
      <trkpt lat="46.77052" lon="-1.51503">
        <ele>117</ele>
        <time>2014-05-25T06:58:59.555Z</time>
      </trkpt>
      <trkpt lat="46.77067" lon="-1.51506">
        <ele>117</ele>
        <time>2014-05-25T06:59:02.555Z</time>
      </trkpt>
      <trkpt lat="46.77069" lon="-1.51529">
        <ele>116</ele>
        <time>2014-05-25T06:59:07.554Z</time>
      </trkpt>
      <trkpt lat="46.77061" lon="-1.51545">
        <ele>118</ele>
        <time>2014-05-25T06:59:10.554Z</time>
      </trkpt>
      <trkpt lat="46.77048" lon="-1.51557">
        <ele>120</ele>
        <time>2014-05-25T06:59:14.558Z</time>
      </trkpt>
      <trkpt lat="46.77023" lon="-1.51575">
        <ele>118</ele>
        <time>2014-05-25T06:59:20.556Z</time>
      </trkpt>
      <trkpt lat="46.77003" lon="-1.51576">
        <ele>115</ele>
        <time>2014-05-25T06:59:24.558Z</time>
      </trkpt>
      <trkpt lat="46.76983" lon="-1.51577">
        <ele>111</ele>
        <time>2014-05-25T06:59:30.555Z</time>
      </trkpt>
      <trkpt lat="46.76975" lon="-1.51598">
        <ele>107</ele>
        <time>2014-05-25T06:59:34.559Z</time>
      </trkpt>
      <trkpt lat="46.76976" lon="-1.51622">
        <ele>107</ele>
        <time>2014-05-25T06:59:39.559Z</time>
      </trkpt>
      <trkpt lat="46.76989" lon="-1.51655">
        <ele>107</ele>
        <time>2014-05-25T06:59:46.555Z</time>
      </trkpt>
      <trkpt lat="46.76975" lon="-1.51668">
        <ele>108</ele>
        <time>2014-05-25T06:59:51.555Z</time>
      </trkpt>
      <trkpt lat="46.7695" lon="-1.51679">
        <ele>106</ele>
        <time>2014-05-25T06:59:54.555Z</time>
      </trkpt>
      <trkpt lat="46.76933" lon="-1.51688">
        <ele>106</ele>
        <time>2014-05-25T06:59:56.555Z</time>
      </trkpt>
      <trkpt lat="46.76914" lon="-1.51707">
        <ele>103</ele>
        <time>2014-05-25T07:00:01.556Z</time>
      </trkpt>
      <trkpt lat="46.76929" lon="-1.51721">
        <ele>98</ele>
        <time>2014-05-25T07:00:05.558Z</time>
      </trkpt>
      <trkpt lat="46.76951" lon="-1.51727">
        <ele>98</ele>
        <time>2014-05-25T07:00:09.556Z</time>
      </trkpt>
      <trkpt lat="46.76964" lon="-1.51734">
        <ele>97</ele>
        <time>2014-05-25T07:00:12.558Z</time>
      </trkpt>
      <trkpt lat="46.76972" lon="-1.51757">
        <ele>95</ele>
        <time>2014-05-25T07:00:15.555Z</time>
      </trkpt>
      <trkpt lat="46.76975" lon="-1.51779">
        <ele>94</ele>
        <time>2014-05-25T07:00:18.558Z</time>
      </trkpt>
      <trkpt lat="46.77004" lon="-1.51905">
        <ele>90</ele>
        <time>2014-05-25T07:00:35.555Z</time>
      </trkpt>
      <trkpt lat="46.77011" lon="-1.51933">
        <ele>90</ele>
        <time>2014-05-25T07:00:38.556Z</time>
      </trkpt>
      <trkpt lat="46.77035" lon="-1.52001">
        <ele>87</ele>
        <time>2014-05-25T07:00:46.555Z</time>
      </trkpt>
      <trkpt lat="46.77047" lon="-1.5205">
        <ele>86</ele>
        <time>2014-05-25T07:00:51.556Z</time>
      </trkpt>
      <trkpt lat="46.77048" lon="-1.52071">
        <ele>86</ele>
        <time>2014-05-25T07:00:54.555Z</time>
      </trkpt>
      <trkpt lat="46.77034" lon="-1.52084">
        <ele>86</ele>
        <time>2014-05-25T07:00:59.558Z</time>
      </trkpt>
      <trkpt lat="46.7702" lon="-1.52098">
        <ele>87</ele>
        <time>2014-05-25T07:01:02.555Z</time>
      </trkpt>
      <trkpt lat="46.77005" lon="-1.52098">
        <ele>90</ele>
        <time>2014-05-25T07:01:06.558Z</time>
      </trkpt>
      <trkpt lat="46.76973" lon="-1.52095">
        <ele>96</ele>
        <time>2014-05-25T07:01:30.556Z</time>
      </trkpt>
      <trkpt lat="46.76935" lon="-1.52116">
        <ele>92</ele>
        <time>2014-05-25T07:01:43.555Z</time>
      </trkpt>
      <trkpt lat="46.76845" lon="-1.5218">
        <ele>97</ele>
        <time>2014-05-25T07:02:17.558Z</time>
      </trkpt>
      <trkpt lat="46.76845" lon="-1.522">
        <ele>98</ele>
        <time>2014-05-25T07:02:21.555Z</time>
      </trkpt>
      <trkpt lat="46.76847" lon="-1.52228">
        <ele>97</ele>
        <time>2014-05-25T07:02:25.555Z</time>
      </trkpt>
      <trkpt lat="46.7686" lon="-1.52315">
        <ele>97</ele>
        <time>2014-05-25T07:02:37.555Z</time>
      </trkpt>
      <trkpt lat="46.76869" lon="-1.52344">
        <ele>96</ele>
        <time>2014-05-25T07:02:41.556Z</time>
      </trkpt>
      <trkpt lat="46.7689" lon="-1.52414">
        <ele>97</ele>
        <time>2014-05-25T07:02:50.555Z</time>
      </trkpt>
      <trkpt lat="46.76891" lon="-1.52435">
        <ele>97</ele>
        <time>2014-05-25T07:02:53.554Z</time>
      </trkpt>
      <trkpt lat="46.76883" lon="-1.52456">
        <ele>97</ele>
        <time>2014-05-25T07:02:56.554Z</time>
      </trkpt>
      <trkpt lat="46.76866" lon="-1.52471">
        <ele>96</ele>
        <time>2014-05-25T07:02:59.554Z</time>
      </trkpt>
      <trkpt lat="46.76824" lon="-1.52507">
        <ele>96</ele>
        <time>2014-05-25T07:03:08.555Z</time>
      </trkpt>
      <trkpt lat="46.7681" lon="-1.52511">
        <ele>95</ele>
        <time>2014-05-25T07:03:11.554Z</time>
      </trkpt>
      <trkpt lat="46.76734" lon="-1.5253">
        <ele>100</ele>
        <time>2014-05-25T07:03:28.559Z</time>
      </trkpt>
      <trkpt lat="46.76594" lon="-1.52543">
        <ele>102</ele>
        <time>2014-05-25T07:03:57.555Z</time>
      </trkpt>
      <trkpt lat="46.7648" lon="-1.52518">
        <ele>106</ele>
        <time>2014-05-25T07:04:21.556Z</time>
      </trkpt>
      <trkpt lat="46.7645" lon="-1.52509">
        <ele>106</ele>
        <time>2014-05-25T07:04:28.558Z</time>
      </trkpt>
      <trkpt lat="46.76415" lon="-1.52488">
        <ele>110</ele>
        <time>2014-05-25T07:04:43.555Z</time>
      </trkpt>
      <trkpt lat="46.76398" lon="-1.52475">
        <ele>111</ele>
        <time>2014-05-25T07:04:48.558Z</time>
      </trkpt>
      <trkpt lat="46.7634" lon="-1.52459">
        <ele>112</ele>
        <time>2014-05-25T07:05:02.555Z</time>
      </trkpt>
      <trkpt lat="46.76311" lon="-1.52451">
        <ele>113</ele>
        <time>2014-05-25T07:05:09.556Z</time>
      </trkpt>
      <trkpt lat="46.76291" lon="-1.52437">
        <ele>115</ele>
        <time>2014-05-25T07:05:14.558Z</time>
      </trkpt>
      <trkpt lat="46.76282" lon="-1.52421">
        <ele>114</ele>
        <time>2014-05-25T07:05:17.558Z</time>
      </trkpt>
      <trkpt lat="46.76274" lon="-1.52398">
        <ele>116</ele>
        <time>2014-05-25T07:05:21.559Z</time>
      </trkpt>
      <trkpt lat="46.76261" lon="-1.52342">
        <ele>114</ele>
        <time>2014-05-25T07:05:30.555Z</time>
      </trkpt>
      <trkpt lat="46.76274" lon="-1.52328">
        <ele>113</ele>
        <time>2014-05-25T07:05:34.556Z</time>
      </trkpt>
      <trkpt lat="46.76288" lon="-1.52327">
        <ele>114</ele>
        <time>2014-05-25T07:05:37.556Z</time>
      </trkpt>
      <trkpt lat="46.76328" lon="-1.52316">
        <ele>114</ele>
        <time>2014-05-25T07:05:45.558Z</time>
      </trkpt>
      <trkpt lat="46.76336" lon="-1.52295">
        <ele>116</ele>
        <time>2014-05-25T07:05:48.559Z</time>
      </trkpt>
      <trkpt lat="46.76331" lon="-1.52272">
        <ele>115</ele>
        <time>2014-05-25T07:05:51.555Z</time>
      </trkpt>
      <trkpt lat="46.76291" lon="-1.52146">
        <ele>119</ele>
        <time>2014-05-25T07:06:10.555Z</time>
      </trkpt>
      <trkpt lat="46.7618" lon="-1.51859">
        <ele>119</ele>
        <time>2014-05-25T07:06:53.558Z</time>
      </trkpt>
      <trkpt lat="46.76142" lon="-1.51769">
        <ele>119</ele>
        <time>2014-05-25T07:07:05.555Z</time>
      </trkpt>
      <trkpt lat="46.76118" lon="-1.51715">
        <ele>118</ele>
        <time>2014-05-25T07:07:14.555Z</time>
      </trkpt>
      <trkpt lat="46.76132" lon="-1.51699">
        <ele>116</ele>
        <time>2014-05-25T07:07:18.555Z</time>
      </trkpt>
      <trkpt lat="46.76164" lon="-1.51655">
        <ele>116</ele>
        <time>2014-05-25T07:07:26.555Z</time>
      </trkpt>
      <trkpt lat="46.76192" lon="-1.51597">
        <ele>115</ele>
        <time>2014-05-25T07:07:36.555Z</time>
      </trkpt>
      <trkpt lat="46.76183" lon="-1.51576">
        <ele>113</ele>
        <time>2014-05-25T07:07:39.555Z</time>
      </trkpt>
      <trkpt lat="46.76164" lon="-1.51544">
        <ele>113</ele>
        <time>2014-05-25T07:07:44.556Z</time>
      </trkpt>
      <trkpt lat="46.76164" lon="-1.51517">
        <ele>112</ele>
        <time>2014-05-25T07:07:47.558Z</time>
      </trkpt>
      <trkpt lat="46.76172" lon="-1.51493">
        <ele>113</ele>
        <time>2014-05-25T07:07:50.556Z</time>
      </trkpt>
      <trkpt lat="46.76183" lon="-1.51478">
        <ele>113</ele>
        <time>2014-05-25T07:07:53.558Z</time>
      </trkpt>
      <trkpt lat="46.76196" lon="-1.51469">
        <ele>113</ele>
        <time>2014-05-25T07:07:56.554Z</time>
      </trkpt>
      <trkpt lat="46.76203" lon="-1.51449">
        <ele>113</ele>
        <time>2014-05-25T07:07:59.556Z</time>
      </trkpt>
      <trkpt lat="46.76196" lon="-1.51424">
        <ele>113</ele>
        <time>2014-05-25T07:08:02.555Z</time>
      </trkpt>
      <trkpt lat="46.76187" lon="-1.51387">
        <ele>113</ele>
        <time>2014-05-25T07:08:06.554Z</time>
      </trkpt>
      <trkpt lat="46.76176" lon="-1.51344">
        <ele>111</ele>
        <time>2014-05-25T07:08:11.555Z</time>
      </trkpt>
      <trkpt lat="46.76158" lon="-1.51286">
        <ele>111</ele>
        <time>2014-05-25T07:08:20.554Z</time>
      </trkpt>
      <trkpt lat="46.76148" lon="-1.51266">
        <ele>111</ele>
        <time>2014-05-25T07:08:23.555Z</time>
      </trkpt>
      <trkpt lat="46.76143" lon="-1.51246">
        <ele>111</ele>
        <time>2014-05-25T07:08:27.555Z</time>
      </trkpt>
      <trkpt lat="46.7616" lon="-1.5124">
        <ele>110</ele>
        <time>2014-05-25T07:08:32.554Z</time>
      </trkpt>
      <trkpt lat="46.76166" lon="-1.51217">
        <ele>110</ele>
        <time>2014-05-25T07:08:36.555Z</time>
      </trkpt>
      <trkpt lat="46.76155" lon="-1.51198">
        <ele>110</ele>
        <time>2014-05-25T07:08:40.554Z</time>
      </trkpt>
      <trkpt lat="46.76161" lon="-1.51177">
        <ele>109</ele>
        <time>2014-05-25T07:08:44.555Z</time>
      </trkpt>
      <trkpt lat="46.76178" lon="-1.51147">
        <ele>106</ele>
        <time>2014-05-25T07:08:50.555Z</time>
      </trkpt>
      <trkpt lat="46.76189" lon="-1.51113">
        <ele>104</ele>
        <time>2014-05-25T07:08:54.556Z</time>
      </trkpt>
      <trkpt lat="46.76207" lon="-1.51074">
        <ele>101</ele>
        <time>2014-05-25T07:08:59.558Z</time>
      </trkpt>
      <trkpt lat="46.762" lon="-1.51055">
        <ele>101</ele>
        <time>2014-05-25T07:09:02.555Z</time>
      </trkpt>
      <trkpt lat="46.76186" lon="-1.51034">
        <ele>101</ele>
        <time>2014-05-25T07:09:06.555Z</time>
      </trkpt>
      <trkpt lat="46.76172" lon="-1.51031">
        <ele>101</ele>
        <time>2014-05-25T07:09:09.556Z</time>
      </trkpt>
      <trkpt lat="46.76148" lon="-1.51031">
        <ele>101</ele>
        <time>2014-05-25T07:09:16.556Z</time>
      </trkpt>
      <trkpt lat="46.76118" lon="-1.51022">
        <ele>98</ele>
        <time>2014-05-25T07:09:26.555Z</time>
      </trkpt>
      <trkpt lat="46.76103" lon="-1.51031">
        <ele>99</ele>
        <time>2014-05-25T07:09:31.555Z</time>
      </trkpt>
      <trkpt lat="46.76111" lon="-1.51009">
        <ele>99</ele>
        <time>2014-05-25T07:09:39.555Z</time>
      </trkpt>
      <trkpt lat="46.76126" lon="-1.51001">
        <ele>98</ele>
        <time>2014-05-25T07:09:41.555Z</time>
      </trkpt>
      <trkpt lat="46.76157" lon="-1.50978">
        <ele>97</ele>
        <time>2014-05-25T07:09:45.555Z</time>
      </trkpt>
      <trkpt lat="46.7617" lon="-1.50957">
        <ele>96</ele>
        <time>2014-05-25T07:09:47.555Z</time>
      </trkpt>
      <trkpt lat="46.76178" lon="-1.50935">
        <ele>96</ele>
        <time>2014-05-25T07:09:49.555Z</time>
      </trkpt>
      <trkpt lat="46.76192" lon="-1.50887">
        <ele>93</ele>
        <time>2014-05-25T07:09:56.555Z</time>
      </trkpt>
      <trkpt lat="46.76205" lon="-1.50903">
        <ele>92</ele>
        <time>2014-05-25T07:10:01.556Z</time>
      </trkpt>
      <trkpt lat="46.76218" lon="-1.50914">
        <ele>92</ele>
        <time>2014-05-25T07:10:04.555Z</time>
      </trkpt>
      <trkpt lat="46.76235" lon="-1.50921">
        <ele>94</ele>
        <time>2014-05-25T07:10:08.556Z</time>
      </trkpt>
      <trkpt lat="46.76254" lon="-1.50919">
        <ele>94</ele>
        <time>2014-05-25T07:10:11.555Z</time>
      </trkpt>
      <trkpt lat="46.7628" lon="-1.50913">
        <ele>94</ele>
        <time>2014-05-25T07:10:16.554Z</time>
      </trkpt>
      <trkpt lat="46.76294" lon="-1.50899">
        <ele>93</ele>
        <time>2014-05-25T07:10:21.558Z</time>
      </trkpt>
      <trkpt lat="46.76295" lon="-1.50873">
        <ele>93</ele>
        <time>2014-05-25T07:10:25.555Z</time>
      </trkpt>
      <trkpt lat="46.76293" lon="-1.50777">
        <ele>100</ele>
        <time>2014-05-25T07:10:46.555Z</time>
      </trkpt>
      <trkpt lat="46.76289" lon="-1.50753">
        <ele>101</ele>
        <time>2014-05-25T07:10:52.555Z</time>
      </trkpt>
      <trkpt lat="46.76296" lon="-1.50734">
        <ele>99</ele>
        <time>2014-05-25T07:10:57.555Z</time>
      </trkpt>
      <trkpt lat="46.76319" lon="-1.50638">
        <ele>103</ele>
        <time>2014-05-25T07:11:23.555Z</time>
      </trkpt>
      <trkpt lat="46.7632" lon="-1.50616">
        <ele>106</ele>
        <time>2014-05-25T07:11:31.556Z</time>
      </trkpt>
      <trkpt lat="46.76316" lon="-1.50587">
        <ele>105</ele>
        <time>2014-05-25T07:11:40.556Z</time>
      </trkpt>
      <trkpt lat="46.76338" lon="-1.50479">
        <ele>119</ele>
        <time>2014-05-25T07:12:11.553Z</time>
      </trkpt>
      <trkpt lat="46.76345" lon="-1.50431">
        <ele>123</ele>
        <time>2014-05-25T07:12:23.555Z</time>
      </trkpt>
      <trkpt lat="46.76356" lon="-1.5039">
        <ele>116</ele>
        <time>2014-05-25T07:12:32.558Z</time>
      </trkpt>
      <trkpt lat="46.76346" lon="-1.50372">
        <ele>117</ele>
        <time>2014-05-25T07:12:37.555Z</time>
      </trkpt>
      <trkpt lat="46.7632" lon="-1.50352">
        <ele>116</ele>
        <time>2014-05-25T07:12:45.554Z</time>
      </trkpt>
      <trkpt lat="46.76227" lon="-1.50283">
        <ele>114</ele>
        <time>2014-05-25T07:13:07.555Z</time>
      </trkpt>
      <trkpt lat="46.76203" lon="-1.50272">
        <ele>113</ele>
        <time>2014-05-25T07:13:12.555Z</time>
      </trkpt>
      <trkpt lat="46.76178" lon="-1.50264">
        <ele>112</ele>
        <time>2014-05-25T07:13:17.555Z</time>
      </trkpt>
      <trkpt lat="46.76164" lon="-1.50258">
        <ele>109</ele>
        <time>2014-05-25T07:13:22.555Z</time>
      </trkpt>
      <trkpt lat="46.76162" lon="-1.50278">
        <ele>108</ele>
        <time>2014-05-25T07:13:26.555Z</time>
      </trkpt>
      <trkpt lat="46.76128" lon="-1.50546">
        <ele>109</ele>
        <time>2014-05-25T07:14:01.555Z</time>
      </trkpt>
      <trkpt lat="46.76114" lon="-1.50621">
        <ele>105</ele>
        <time>2014-05-25T07:14:08.555Z</time>
      </trkpt>
      <trkpt lat="46.76123" lon="-1.50642">
        <ele>104</ele>
        <time>2014-05-25T07:14:10.555Z</time>
      </trkpt>
      <trkpt lat="46.76134" lon="-1.50674">
        <ele>102</ele>
        <time>2014-05-25T07:14:13.556Z</time>
      </trkpt>
      <trkpt lat="46.7613" lon="-1.50695">
        <ele>100</ele>
        <time>2014-05-25T07:14:15.556Z</time>
      </trkpt>
      <trkpt lat="46.76129" lon="-1.50719">
        <ele>99</ele>
        <time>2014-05-25T07:14:17.555Z</time>
      </trkpt>
      <trkpt lat="46.7613" lon="-1.50783">
        <ele>92</ele>
        <time>2014-05-25T07:14:25.555Z</time>
      </trkpt>
      <trkpt lat="46.76118" lon="-1.50773">
        <ele>92</ele>
        <time>2014-05-25T07:14:30.555Z</time>
      </trkpt>
      <trkpt lat="46.76103" lon="-1.50756">
        <ele>92</ele>
        <time>2014-05-25T07:14:34.556Z</time>
      </trkpt>
      <trkpt lat="46.76083" lon="-1.50724">
        <ele>92</ele>
        <time>2014-05-25T07:14:42.556Z</time>
      </trkpt>
      <trkpt lat="46.76075" lon="-1.50703">
        <ele>96</ele>
        <time>2014-05-25T07:14:46.555Z</time>
      </trkpt>
      <trkpt lat="46.76038" lon="-1.50606">
        <ele>98</ele>
        <time>2014-05-25T07:15:04.555Z</time>
      </trkpt>
      <trkpt lat="46.7601" lon="-1.50567">
        <ele>99</ele>
        <time>2014-05-25T07:15:13.556Z</time>
      </trkpt>
      <trkpt lat="46.76022" lon="-1.50549">
        <ele>98</ele>
        <time>2014-05-25T07:15:17.555Z</time>
      </trkpt>
      <trkpt lat="46.76027" lon="-1.50524">
        <ele>98</ele>
        <time>2014-05-25T07:15:23.554Z</time>
      </trkpt>
      <trkpt lat="46.76021" lon="-1.50505">
        <ele>96</ele>
        <time>2014-05-25T07:15:27.553Z</time>
      </trkpt>
      <trkpt lat="46.76007" lon="-1.50494">
        <ele>97</ele>
        <time>2014-05-25T07:15:30.558Z</time>
      </trkpt>
      <trkpt lat="46.7599" lon="-1.5048">
        <ele>100</ele>
        <time>2014-05-25T07:15:34.558Z</time>
      </trkpt>
      <trkpt lat="46.75974" lon="-1.50485">
        <ele>97</ele>
        <time>2014-05-25T07:15:38.555Z</time>
      </trkpt>
      <trkpt lat="46.75948" lon="-1.50496">
        <ele>97</ele>
        <time>2014-05-25T07:15:46.554Z</time>
      </trkpt>
      <trkpt lat="46.75953" lon="-1.50475">
        <ele>95</ele>
        <time>2014-05-25T07:15:57.558Z</time>
      </trkpt>
      <trkpt lat="46.76016" lon="-1.50336">
        <ele>97</ele>
        <time>2014-05-25T07:16:41.556Z</time>
      </trkpt>
      <trkpt lat="46.7606" lon="-1.50243">
        <ele>99</ele>
        <time>2014-05-25T07:17:09.555Z</time>
      </trkpt>
      <trkpt lat="46.76068" lon="-1.50221">
        <ele>101</ele>
        <time>2014-05-25T07:17:16.555Z</time>
      </trkpt>
      <trkpt lat="46.76085" lon="-1.50189">
        <ele>106</ele>
        <time>2014-05-25T07:17:28.559Z</time>
      </trkpt>
      <trkpt lat="46.7611" lon="-1.50133">
        <ele>111</ele>
        <time>2014-05-25T07:17:42.558Z</time>
      </trkpt>
      <trkpt lat="46.7612" lon="-1.50094">
        <ele>112</ele>
        <time>2014-05-25T07:17:49.555Z</time>
      </trkpt>
      <trkpt lat="46.76135" lon="-1.50091">
        <ele>109</ele>
        <time>2014-05-25T07:17:58.556Z</time>
      </trkpt>
      <trkpt lat="46.76209" lon="-1.50133">
        <ele>106</ele>
        <time>2014-05-25T07:18:17.554Z</time>
      </trkpt>
      <trkpt lat="46.76204" lon="-1.50111">
        <ele>108</ele>
        <time>2014-05-25T07:18:22.554Z</time>
      </trkpt>
      <trkpt lat="46.76206" lon="-1.50081">
        <ele>109</ele>
        <time>2014-05-25T07:18:27.554Z</time>
      </trkpt>
      <trkpt lat="46.7622" lon="-1.4995">
        <ele>113</ele>
        <time>2014-05-25T07:18:54.555Z</time>
      </trkpt>
      <trkpt lat="46.76238" lon="-1.49947">
        <ele>112</ele>
        <time>2014-05-25T07:19:00.555Z</time>
      </trkpt>
      <trkpt lat="46.76252" lon="-1.49957">
        <ele>113</ele>
        <time>2014-05-25T07:19:03.555Z</time>
      </trkpt>
      <trkpt lat="46.76265" lon="-1.49977">
        <ele>114</ele>
        <time>2014-05-25T07:19:06.556Z</time>
      </trkpt>
      <trkpt lat="46.76281" lon="-1.49981">
        <ele>111</ele>
        <time>2014-05-25T07:19:10.556Z</time>
      </trkpt>
      <trkpt lat="46.76298" lon="-1.49981">
        <ele>114</ele>
        <time>2014-05-25T07:19:15.556Z</time>
      </trkpt>
      <trkpt lat="46.76311" lon="-1.49995">
        <ele>113</ele>
        <time>2014-05-25T07:19:19.555Z</time>
      </trkpt>
      <trkpt lat="46.76324" lon="-1.50008">
        <ele>114</ele>
        <time>2014-05-25T07:19:25.555Z</time>
      </trkpt>
      <trkpt lat="46.76334" lon="-1.49991">
        <ele>113</ele>
        <time>2014-05-25T07:19:30.555Z</time>
      </trkpt>
      <trkpt lat="46.76357" lon="-1.49951">
        <ele>113</ele>
        <time>2014-05-25T07:19:40.556Z</time>
      </trkpt>
      <trkpt lat="46.76372" lon="-1.49941">
        <ele>112</ele>
        <time>2014-05-25T07:19:45.559Z</time>
      </trkpt>
      <trkpt lat="46.76468" lon="-1.49884">
        <ele>114</ele>
        <time>2014-05-25T07:20:15.555Z</time>
      </trkpt>
      <trkpt lat="46.7655" lon="-1.49769">
        <ele>123</ele>
        <time>2014-05-25T07:20:55.554Z</time>
      </trkpt>
      <trkpt lat="46.76562" lon="-1.49757">
        <ele>125</ele>
        <time>2014-05-25T07:21:03.555Z</time>
      </trkpt>
      <trkpt lat="46.76574" lon="-1.49769">
        <ele>122</ele>
        <time>2014-05-25T07:21:08.554Z</time>
      </trkpt>
      <trkpt lat="46.76593" lon="-1.49794">
        <ele>124</ele>
        <time>2014-05-25T07:21:17.553Z</time>
      </trkpt>
      <trkpt lat="46.76603" lon="-1.4978">
        <ele>125</ele>
        <time>2014-05-25T07:21:22.554Z</time>
      </trkpt>
      <trkpt lat="46.76635" lon="-1.49668">
        <ele>124</ele>
        <time>2014-05-25T07:21:44.554Z</time>
      </trkpt>
      <trkpt lat="46.76649" lon="-1.49673">
        <ele>125</ele>
        <time>2014-05-25T07:21:48.556Z</time>
      </trkpt>
      <trkpt lat="46.76692" lon="-1.49696">
        <ele>129</ele>
        <time>2014-05-25T07:22:02.556Z</time>
      </trkpt>
      <trkpt lat="46.76705" lon="-1.49705">
        <ele>131</ele>
        <time>2014-05-25T07:22:06.555Z</time>
      </trkpt>
      <trkpt lat="46.76735" lon="-1.49712">
        <ele>133</ele>
        <time>2014-05-25T07:22:13.555Z</time>
      </trkpt>
      <trkpt lat="46.76821" lon="-1.49756">
        <ele>124</ele>
        <time>2014-05-25T07:22:34.555Z</time>
      </trkpt>
      <trkpt lat="46.76861" lon="-1.49767">
        <ele>125</ele>
        <time>2014-05-25T07:22:43.555Z</time>
      </trkpt>
      <trkpt lat="46.76881" lon="-1.49773">
        <ele>128</ele>
        <time>2014-05-25T07:22:48.555Z</time>
      </trkpt>
      <trkpt lat="46.76886" lon="-1.49754">
        <ele>128</ele>
        <time>2014-05-25T07:22:51.556Z</time>
      </trkpt>
      <trkpt lat="46.76891" lon="-1.49733">
        <ele>128</ele>
        <time>2014-05-25T07:22:54.555Z</time>
      </trkpt>
      <trkpt lat="46.76919" lon="-1.49572">
        <ele>126</ele>
        <time>2014-05-25T07:23:14.554Z</time>
      </trkpt>
      <trkpt lat="46.7691" lon="-1.49413">
        <ele>125</ele>
        <time>2014-05-25T07:23:34.555Z</time>
      </trkpt>
      <trkpt lat="46.76958" lon="-1.49159">
        <ele>123</ele>
        <time>2014-05-25T07:24:07.555Z</time>
      </trkpt>
      <trkpt lat="46.76964" lon="-1.48831">
        <ele>124</ele>
        <time>2014-05-25T07:24:51.555Z</time>
      </trkpt>
      <trkpt lat="46.76982" lon="-1.48565">
        <ele>123</ele>
        <time>2014-05-25T07:25:23.554Z</time>
      </trkpt>
      <trkpt lat="46.77043" lon="-1.48242">
        <ele>120</ele>
        <time>2014-05-25T07:26:00.555Z</time>
      </trkpt>
      <trkpt lat="46.7705" lon="-1.48158">
        <ele>116</ele>
        <time>2014-05-25T07:26:08.554Z</time>
      </trkpt>
      <trkpt lat="46.77032" lon="-1.47851">
        <ele>110</ele>
        <time>2014-05-25T07:26:33.555Z</time>
      </trkpt>
      <trkpt lat="46.77025" lon="-1.47778">
        <ele>110</ele>
        <time>2014-05-25T07:26:42.553Z</time>
      </trkpt>
      <trkpt lat="46.77041" lon="-1.47777">
        <ele>110</ele>
        <time>2014-05-25T07:26:46.555Z</time>
      </trkpt>
      <trkpt lat="46.77056" lon="-1.47784">
        <ele>109</ele>
        <time>2014-05-25T07:26:50.555Z</time>
      </trkpt>
      <trkpt lat="46.77072" lon="-1.47787">
        <ele>109</ele>
        <time>2014-05-25T07:26:53.551Z</time>
      </trkpt>
      <trkpt lat="46.77147" lon="-1.47824">
        <ele>108</ele>
        <time>2014-05-25T07:27:10.556Z</time>
      </trkpt>
      <trkpt lat="46.77247" lon="-1.47905">
        <ele>104</ele>
        <time>2014-05-25T07:27:35.554Z</time>
      </trkpt>
      <trkpt lat="46.77297" lon="-1.47949">
        <ele>100</ele>
        <time>2014-05-25T07:27:47.555Z</time>
      </trkpt>
      <trkpt lat="46.77316" lon="-1.47953">
        <ele>100</ele>
        <time>2014-05-25T07:27:52.551Z</time>
      </trkpt>
      <trkpt lat="46.77314" lon="-1.47933">
        <ele>104</ele>
        <time>2014-05-25T07:28:10.551Z</time>
      </trkpt>
      <trkpt lat="46.77306" lon="-1.47915">
        <ele>108</ele>
        <time>2014-05-25T07:28:16.554Z</time>
      </trkpt>
      <trkpt lat="46.77319" lon="-1.47927">
        <ele>110</ele>
        <time>2014-05-25T07:28:28.553Z</time>
      </trkpt>
      <trkpt lat="46.77321" lon="-1.47949">
        <ele>110</ele>
        <time>2014-05-25T07:28:35.553Z</time>
      </trkpt>
      <trkpt lat="46.77336" lon="-1.47955">
        <ele>106</ele>
        <time>2014-05-25T07:28:40.553Z</time>
      </trkpt>
      <trkpt lat="46.7736" lon="-1.47956">
        <ele>107</ele>
        <time>2014-05-25T07:28:48.555Z</time>
      </trkpt>
      <trkpt lat="46.77399" lon="-1.47936">
        <ele>109</ele>
        <time>2014-05-25T07:28:59.555Z</time>
      </trkpt>
      <trkpt lat="46.77448" lon="-1.47871">
        <ele>108</ele>
        <time>2014-05-25T07:29:15.555Z</time>
      </trkpt>
      <trkpt lat="46.77472" lon="-1.47841">
        <ele>108</ele>
        <time>2014-05-25T07:29:24.558Z</time>
      </trkpt>
      <trkpt lat="46.77484" lon="-1.47862">
        <ele>105</ele>
        <time>2014-05-25T07:29:29.556Z</time>
      </trkpt>
      <trkpt lat="46.77489" lon="-1.47891">
        <ele>102</ele>
        <time>2014-05-25T07:29:32.555Z</time>
      </trkpt>
      <trkpt lat="46.77497" lon="-1.47948">
        <ele>98</ele>
        <time>2014-05-25T07:29:40.555Z</time>
      </trkpt>
      <trkpt lat="46.77487" lon="-1.47961">
        <ele>97</ele>
        <time>2014-05-25T07:29:46.555Z</time>
      </trkpt>
      <trkpt lat="46.77473" lon="-1.47967">
        <ele>101</ele>
        <time>2014-05-25T07:29:51.555Z</time>
      </trkpt>
      <trkpt lat="46.77432" lon="-1.48013">
        <ele>108</ele>
        <time>2014-05-25T07:30:07.556Z</time>
      </trkpt>
      <trkpt lat="46.77387" lon="-1.48079">
        <ele>116</ele>
        <time>2014-05-25T07:30:27.555Z</time>
      </trkpt>
      <trkpt lat="46.77387" lon="-1.48103">
        <ele>107</ele>
        <time>2014-05-25T07:30:31.553Z</time>
      </trkpt>
      <trkpt lat="46.77398" lon="-1.48118">
        <ele>106</ele>
        <time>2014-05-25T07:30:35.555Z</time>
      </trkpt>
      <trkpt lat="46.77494" lon="-1.48205">
        <ele>103</ele>
        <time>2014-05-25T07:31:11.558Z</time>
      </trkpt>
      <trkpt lat="46.77562" lon="-1.48246">
        <ele>100</ele>
        <time>2014-05-25T07:31:26.554Z</time>
      </trkpt>
      <trkpt lat="46.77608" lon="-1.48257">
        <ele>98</ele>
        <time>2014-05-25T07:31:33.554Z</time>
      </trkpt>
      <trkpt lat="46.77737" lon="-1.48293">
        <ele>97</ele>
        <time>2014-05-25T07:31:52.553Z</time>
      </trkpt>
      <trkpt lat="46.77753" lon="-1.48307">
        <ele>95</ele>
        <time>2014-05-25T07:31:55.554Z</time>
      </trkpt>
      <trkpt lat="46.77771" lon="-1.48334">
        <ele>95</ele>
        <time>2014-05-25T07:31:59.555Z</time>
      </trkpt>
      <trkpt lat="46.77784" lon="-1.48365">
        <ele>95</ele>
        <time>2014-05-25T07:32:03.554Z</time>
      </trkpt>
      <trkpt lat="46.77833" lon="-1.48472">
        <ele>94</ele>
        <time>2014-05-25T07:32:17.554Z</time>
      </trkpt>
      <trkpt lat="46.77845" lon="-1.48466">
        <ele>95</ele>
        <time>2014-05-25T07:32:21.554Z</time>
      </trkpt>
      <trkpt lat="46.77873" lon="-1.48424">
        <ele>94</ele>
        <time>2014-05-25T07:32:29.553Z</time>
      </trkpt>
      <trkpt lat="46.77921" lon="-1.48382">
        <ele>92</ele>
        <time>2014-05-25T07:32:39.553Z</time>
      </trkpt>
      <trkpt lat="46.77937" lon="-1.48382">
        <ele>91</ele>
        <time>2014-05-25T07:32:42.554Z</time>
      </trkpt>
      <trkpt lat="46.77943" lon="-1.48402">
        <ele>91</ele>
        <time>2014-05-25T07:32:45.554Z</time>
      </trkpt>
      <trkpt lat="46.77946" lon="-1.48424">
        <ele>91</ele>
        <time>2014-05-25T07:32:48.555Z</time>
      </trkpt>
      <trkpt lat="46.77979" lon="-1.48593">
        <ele>89</ele>
        <time>2014-05-25T07:33:08.554Z</time>
      </trkpt>
      <trkpt lat="46.77995" lon="-1.48632">
        <ele>89</ele>
        <time>2014-05-25T07:33:13.554Z</time>
      </trkpt>
      <trkpt lat="46.78048" lon="-1.48713">
        <ele>91</ele>
        <time>2014-05-25T07:33:27.551Z</time>
      </trkpt>
      <trkpt lat="46.78123" lon="-1.48832">
        <ele>100</ele>
        <time>2014-05-25T07:33:53.554Z</time>
      </trkpt>
      <trkpt lat="46.78177" lon="-1.48981">
        <ele>99</ele>
        <time>2014-05-25T07:34:20.553Z</time>
      </trkpt>
      <trkpt lat="46.78222" lon="-1.49103">
        <ele>100</ele>
        <time>2014-05-25T07:34:46.551Z</time>
      </trkpt>
      <trkpt lat="46.78205" lon="-1.49111">
        <ele>102</ele>
        <time>2014-05-25T07:34:50.554Z</time>
      </trkpt>
      <trkpt lat="46.78173" lon="-1.49113">
        <ele>102</ele>
        <time>2014-05-25T07:34:56.555Z</time>
      </trkpt>
      <trkpt lat="46.7816" lon="-1.49109">
        <ele>101</ele>
        <time>2014-05-25T07:34:58.555Z</time>
      </trkpt>
      <trkpt lat="46.78105" lon="-1.49095">
        <ele>96</ele>
        <time>2014-05-25T07:35:04.555Z</time>
      </trkpt>
      <trkpt lat="46.78088" lon="-1.49113">
        <ele>93</ele>
        <time>2014-05-25T07:35:06.554Z</time>
      </trkpt>
      <trkpt lat="46.78051" lon="-1.49169">
        <ele>92</ele>
        <time>2014-05-25T07:35:16.555Z</time>
      </trkpt>
      <trkpt lat="46.78041" lon="-1.49224">
        <ele>100</ele>
        <time>2014-05-25T07:35:28.555Z</time>
      </trkpt>
      <trkpt lat="46.78033" lon="-1.49241">
        <ele>104</ele>
        <time>2014-05-25T07:35:33.554Z</time>
      </trkpt>
      <trkpt lat="46.78033" lon="-1.49263">
        <ele>105</ele>
        <time>2014-05-25T07:35:36.555Z</time>
      </trkpt>
      <trkpt lat="46.78021" lon="-1.4931">
        <ele>113</ele>
        <time>2014-05-25T07:36:07.551Z</time>
      </trkpt>
      <trkpt lat="46.78009" lon="-1.49252">
        <ele>114</ele>
        <time>2014-05-25T07:37:08.55Z</time>
      </trkpt>
      <trkpt lat="46.77974" lon="-1.49229">
        <ele>117</ele>
        <time>2014-05-25T07:38:08.558Z</time>
      </trkpt>
      <trkpt lat="46.77967" lon="-1.49208">
        <ele>115</ele>
        <time>2014-05-25T07:38:30.555Z</time>
      </trkpt>
      <trkpt lat="46.77962" lon="-1.49186">
        <ele>113</ele>
        <time>2014-05-25T07:38:34.554Z</time>
      </trkpt>
      <trkpt lat="46.77966" lon="-1.49161">
        <ele>113</ele>
        <time>2014-05-25T07:38:39.554Z</time>
      </trkpt>
      <trkpt lat="46.7798" lon="-1.49157">
        <ele>109</ele>
        <time>2014-05-25T07:38:48.554Z</time>
      </trkpt>
      <trkpt lat="46.77996" lon="-1.49165">
        <ele>106</ele>
        <time>2014-05-25T07:38:52.551Z</time>
      </trkpt>
      <trkpt lat="46.78022" lon="-1.49169">
        <ele>103</ele>
        <time>2014-05-25T07:38:58.551Z</time>
      </trkpt>
      <trkpt lat="46.78037" lon="-1.49169">
        <ele>103</ele>
        <time>2014-05-25T07:39:04.551Z</time>
      </trkpt>
      <trkpt lat="46.78055" lon="-1.49169">
        <ele>103</ele>
        <time>2014-05-25T07:39:12.551Z</time>
      </trkpt>
      <trkpt lat="46.78056" lon="-1.4915">
        <ele>98</ele>
        <time>2014-05-25T07:39:16.551Z</time>
      </trkpt>
      <trkpt lat="46.7804" lon="-1.49144">
        <ele>94</ele>
        <time>2014-05-25T07:39:20.553Z</time>
      </trkpt>
      <trkpt lat="46.78002" lon="-1.4914">
        <ele>96</ele>
        <time>2014-05-25T07:39:35.553Z</time>
      </trkpt>
      <trkpt lat="46.77928" lon="-1.49131">
        <ele>105</ele>
        <time>2014-05-25T07:40:01.553Z</time>
      </trkpt>
      <trkpt lat="46.7792" lon="-1.49147">
        <ele>104</ele>
        <time>2014-05-25T07:40:06.55Z</time>
      </trkpt>
      <trkpt lat="46.77902" lon="-1.49185">
        <ele>109</ele>
        <time>2014-05-25T07:40:21.553Z</time>
      </trkpt>
      <trkpt lat="46.77868" lon="-1.49318">
        <ele>114</ele>
        <time>2014-05-25T07:40:58.553Z</time>
      </trkpt>
      <trkpt lat="46.77845" lon="-1.49396">
        <ele>112</ele>
        <time>2014-05-25T07:41:10.55Z</time>
      </trkpt>
      <trkpt lat="46.77777" lon="-1.4955">
        <ele>108</ele>
        <time>2014-05-25T07:41:35.555Z</time>
      </trkpt>
      <trkpt lat="46.77745" lon="-1.49612">
        <ele>111</ele>
        <time>2014-05-25T07:41:47.555Z</time>
      </trkpt>
      <trkpt lat="46.77718" lon="-1.4968">
        <ele>114</ele>
        <time>2014-05-25T07:42:02.554Z</time>
      </trkpt>
      <trkpt lat="46.77661" lon="-1.49772">
        <ele>118</ele>
        <time>2014-05-25T07:42:22.555Z</time>
      </trkpt>
      <trkpt lat="46.77666" lon="-1.49792">
        <ele>118</ele>
        <time>2014-05-25T07:42:25.554Z</time>
      </trkpt>
      <trkpt lat="46.7771" lon="-1.49972">
        <ele>118</ele>
        <time>2014-05-25T07:42:54.554Z</time>
      </trkpt>
      <trkpt lat="46.7773" lon="-1.5001">
        <ele>117</ele>
        <time>2014-05-25T07:42:59.555Z</time>
      </trkpt>
      <trkpt lat="46.77747" lon="-1.50015">
        <ele>118</ele>
        <time>2014-05-25T07:43:02.554Z</time>
      </trkpt>
      <trkpt lat="46.77765" lon="-1.50007">
        <ele>118</ele>
        <time>2014-05-25T07:43:05.553Z</time>
      </trkpt>
      <trkpt lat="46.77839" lon="-1.49977">
        <ele>117</ele>
        <time>2014-05-25T07:43:16.553Z</time>
      </trkpt>
      <trkpt lat="46.77853" lon="-1.49981">
        <ele>116</ele>
        <time>2014-05-25T07:43:18.554Z</time>
      </trkpt>
      <trkpt lat="46.77866" lon="-1.4999">
        <ele>115</ele>
        <time>2014-05-25T07:43:20.553Z</time>
      </trkpt>
      <trkpt lat="46.77877" lon="-1.50004">
        <ele>115</ele>
        <time>2014-05-25T07:43:22.553Z</time>
      </trkpt>
      <trkpt lat="46.77903" lon="-1.50045">
        <ele>115</ele>
        <time>2014-05-25T07:43:28.554Z</time>
      </trkpt>
      <trkpt lat="46.77921" lon="-1.50041">
        <ele>115</ele>
        <time>2014-05-25T07:43:31.551Z</time>
      </trkpt>
      <trkpt lat="46.77935" lon="-1.50027">
        <ele>115</ele>
        <time>2014-05-25T07:43:34.55Z</time>
      </trkpt>
      <trkpt lat="46.77966" lon="-1.49996">
        <ele>115</ele>
        <time>2014-05-25T07:43:40.553Z</time>
      </trkpt>
      <trkpt lat="46.77983" lon="-1.50005">
        <ele>114</ele>
        <time>2014-05-25T07:43:43.555Z</time>
      </trkpt>
      <trkpt lat="46.77999" lon="-1.50021">
        <ele>114</ele>
        <time>2014-05-25T07:43:46.554Z</time>
      </trkpt>
      <trkpt lat="46.78083" lon="-1.50102">
        <ele>113</ele>
        <time>2014-05-25T07:44:02.55Z</time>
      </trkpt>
      <trkpt lat="46.78099" lon="-1.50117">
        <ele>113</ele>
        <time>2014-05-25T07:44:05.555Z</time>
      </trkpt>
      <trkpt lat="46.78108" lon="-1.50143">
        <ele>112</ele>
        <time>2014-05-25T07:44:08.551Z</time>
      </trkpt>
      <trkpt lat="46.78188" lon="-1.50346">
        <ele>109</ele>
        <time>2014-05-25T07:44:34.555Z</time>
      </trkpt>
      <trkpt lat="46.78213" lon="-1.50382">
        <ele>106</ele>
        <time>2014-05-25T07:44:41.554Z</time>
      </trkpt>
      <trkpt lat="46.78227" lon="-1.50369">
        <ele>106</ele>
        <time>2014-05-25T07:44:44.553Z</time>
      </trkpt>
      <trkpt lat="46.78244" lon="-1.50369">
        <ele>106</ele>
        <time>2014-05-25T07:44:47.55Z</time>
      </trkpt>
      <trkpt lat="46.78284" lon="-1.50375">
        <ele>105</ele>
        <time>2014-05-25T07:44:54.55Z</time>
      </trkpt>
      <trkpt lat="46.78298" lon="-1.50371">
        <ele>102</ele>
        <time>2014-05-25T07:44:58.554Z</time>
      </trkpt>
      <trkpt lat="46.78312" lon="-1.50368">
        <ele>102</ele>
        <time>2014-05-25T07:45:01.553Z</time>
      </trkpt>
      <trkpt lat="46.78328" lon="-1.5037">
        <ele>102</ele>
        <time>2014-05-25T07:45:03.55Z</time>
      </trkpt>
      <trkpt lat="46.78343" lon="-1.50377">
        <ele>103</ele>
        <time>2014-05-25T07:45:06.556Z</time>
      </trkpt>
      <trkpt lat="46.78363" lon="-1.5038">
        <ele>102</ele>
        <time>2014-05-25T07:45:09.553Z</time>
      </trkpt>
      <trkpt lat="46.78378" lon="-1.50376">
        <ele>101</ele>
        <time>2014-05-25T07:45:11.55Z</time>
      </trkpt>
      <trkpt lat="46.78394" lon="-1.50368">
        <ele>100</ele>
        <time>2014-05-25T07:45:13.551Z</time>
      </trkpt>
      <trkpt lat="46.78414" lon="-1.50353">
        <ele>100</ele>
        <time>2014-05-25T07:45:17.551Z</time>
      </trkpt>
      <trkpt lat="46.78404" lon="-1.50338">
        <ele>99</ele>
        <time>2014-05-25T07:45:21.551Z</time>
      </trkpt>
      <trkpt lat="46.7842" lon="-1.50338">
        <ele>95</ele>
        <time>2014-05-25T07:45:33.55Z</time>
      </trkpt>
      <trkpt lat="46.78432" lon="-1.50352">
        <ele>96</ele>
        <time>2014-05-25T07:45:39.555Z</time>
      </trkpt>
      <trkpt lat="46.78484" lon="-1.50496">
        <ele>97</ele>
        <time>2014-05-25T07:46:10.555Z</time>
      </trkpt>
      <trkpt lat="46.78502" lon="-1.50555">
        <ele>102</ele>
        <time>2014-05-25T07:46:21.555Z</time>
      </trkpt>
      <trkpt lat="46.78506" lon="-1.50574">
        <ele>103</ele>
        <time>2014-05-25T07:46:26.554Z</time>
      </trkpt>
      <trkpt lat="46.785" lon="-1.50597">
        <ele>106</ele>
        <time>2014-05-25T07:46:32.553Z</time>
      </trkpt>
      <trkpt lat="46.78471" lon="-1.50637">
        <ele>103</ele>
        <time>2014-05-25T07:46:42.555Z</time>
      </trkpt>
      <trkpt lat="46.78438" lon="-1.50674">
        <ele>99</ele>
        <time>2014-05-25T07:46:53.551Z</time>
      </trkpt>
      <trkpt lat="46.7845" lon="-1.50687">
        <ele>99</ele>
        <time>2014-05-25T07:47:04.554Z</time>
      </trkpt>
      <trkpt lat="46.78477" lon="-1.50676">
        <ele>103</ele>
        <time>2014-05-25T07:47:15.551Z</time>
      </trkpt>
      <trkpt lat="46.78491" lon="-1.50673">
        <ele>103</ele>
        <time>2014-05-25T07:47:23.555Z</time>
      </trkpt>
      <trkpt lat="46.78508" lon="-1.5067">
        <ele>103</ele>
        <time>2014-05-25T07:47:32.553Z</time>
      </trkpt>
      <trkpt lat="46.78539" lon="-1.5066">
        <ele>104</ele>
        <time>2014-05-25T07:47:48.55Z</time>
      </trkpt>
      <trkpt lat="46.78555" lon="-1.50639">
        <ele>106</ele>
        <time>2014-05-25T07:47:58.555Z</time>
      </trkpt>
      <trkpt lat="46.78569" lon="-1.50627">
        <ele>107</ele>
        <time>2014-05-25T07:48:05.551Z</time>
      </trkpt>
      <trkpt lat="46.78591" lon="-1.5061">
        <ele>108</ele>
        <time>2014-05-25T07:48:17.556Z</time>
      </trkpt>
      <trkpt lat="46.78603" lon="-1.50599">
        <ele>110</ele>
        <time>2014-05-25T07:48:23.553Z</time>
      </trkpt>
      <trkpt lat="46.78702" lon="-1.50516">
        <ele>113</ele>
        <time>2014-05-25T07:49:09.551Z</time>
      </trkpt>
      <trkpt lat="46.78765" lon="-1.50457">
        <ele>117</ele>
        <time>2014-05-25T07:49:40.55Z</time>
      </trkpt>
      <trkpt lat="46.78819" lon="-1.50402">
        <ele>115</ele>
        <time>2014-05-25T07:50:00.554Z</time>
      </trkpt>
      <trkpt lat="46.78835" lon="-1.50402">
        <ele>113</ele>
        <time>2014-05-25T07:50:05.551Z</time>
      </trkpt>
      <trkpt lat="46.78845" lon="-1.50384">
        <ele>113</ele>
        <time>2014-05-25T07:50:11.55Z</time>
      </trkpt>
      <trkpt lat="46.78859" lon="-1.50374">
        <ele>114</ele>
        <time>2014-05-25T07:50:15.554Z</time>
      </trkpt>
      <trkpt lat="46.78973" lon="-1.50327">
        <ele>113</ele>
        <time>2014-05-25T07:50:40.553Z</time>
      </trkpt>
      <trkpt lat="46.78988" lon="-1.50331">
        <ele>113</ele>
        <time>2014-05-25T07:50:43.551Z</time>
      </trkpt>
      <trkpt lat="46.79002" lon="-1.5033">
        <ele>114</ele>
        <time>2014-05-25T07:50:46.553Z</time>
      </trkpt>
      <trkpt lat="46.79016" lon="-1.5032">
        <ele>115</ele>
        <time>2014-05-25T07:50:49.556Z</time>
      </trkpt>
      <trkpt lat="46.79071" lon="-1.50282">
        <ele>116</ele>
        <time>2014-05-25T07:51:02.553Z</time>
      </trkpt>
      <trkpt lat="46.79102" lon="-1.50278">
        <ele>113</ele>
        <time>2014-05-25T07:51:12.555Z</time>
      </trkpt>
      <trkpt lat="46.79116" lon="-1.50291">
        <ele>114</ele>
        <time>2014-05-25T07:51:17.554Z</time>
      </trkpt>
      <trkpt lat="46.79122" lon="-1.5031">
        <ele>115</ele>
        <time>2014-05-25T07:51:22.553Z</time>
      </trkpt>
      <trkpt lat="46.79124" lon="-1.50332">
        <ele>114</ele>
        <time>2014-05-25T07:51:27.555Z</time>
      </trkpt>
      <trkpt lat="46.79112" lon="-1.50488">
        <ele>108</ele>
        <time>2014-05-25T07:51:50.555Z</time>
      </trkpt>
      <trkpt lat="46.7911" lon="-1.50533">
        <ele>108</ele>
        <time>2014-05-25T07:51:58.555Z</time>
      </trkpt>
      <trkpt lat="46.7911" lon="-1.50559">
        <ele>107</ele>
        <time>2014-05-25T07:52:03.555Z</time>
      </trkpt>
      <trkpt lat="46.791" lon="-1.50644">
        <ele>110</ele>
        <time>2014-05-25T07:52:19.555Z</time>
      </trkpt>
      <trkpt lat="46.79098" lon="-1.50671">
        <ele>109</ele>
        <time>2014-05-25T07:52:23.554Z</time>
      </trkpt>
      <trkpt lat="46.79086" lon="-1.50682">
        <ele>109</ele>
        <time>2014-05-25T07:52:26.555Z</time>
      </trkpt>
      <trkpt lat="46.79042" lon="-1.50734">
        <ele>110</ele>
        <time>2014-05-25T07:52:38.554Z</time>
      </trkpt>
      <trkpt lat="46.79044" lon="-1.50759">
        <ele>109</ele>
        <time>2014-05-25T07:52:41.553Z</time>
      </trkpt>
      <trkpt lat="46.79052" lon="-1.50783">
        <ele>109</ele>
        <time>2014-05-25T07:52:44.551Z</time>
      </trkpt>
      <trkpt lat="46.79065" lon="-1.50798">
        <ele>106</ele>
        <time>2014-05-25T07:52:47.555Z</time>
      </trkpt>
      <trkpt lat="46.7911" lon="-1.50861">
        <ele>109</ele>
        <time>2014-05-25T07:53:01.551Z</time>
      </trkpt>
      <trkpt lat="46.79164" lon="-1.50962">
        <ele>108</ele>
        <time>2014-05-25T07:53:16.553Z</time>
      </trkpt>
      <trkpt lat="46.79192" lon="-1.51014">
        <ele>104</ele>
        <time>2014-05-25T07:53:22.555Z</time>
      </trkpt>
      <trkpt lat="46.79205" lon="-1.51043">
        <ele>102</ele>
        <time>2014-05-25T07:53:25.551Z</time>
      </trkpt>
      <trkpt lat="46.7921" lon="-1.51071">
        <ele>102</ele>
        <time>2014-05-25T07:53:28.555Z</time>
      </trkpt>
      <trkpt lat="46.79221" lon="-1.51101">
        <ele>99</ele>
        <time>2014-05-25T07:53:34.553Z</time>
      </trkpt>
      <trkpt lat="46.79213" lon="-1.51119">
        <ele>96</ele>
        <time>2014-05-25T07:53:40.554Z</time>
      </trkpt>
      <trkpt lat="46.79202" lon="-1.51134">
        <ele>98</ele>
        <time>2014-05-25T07:53:45.555Z</time>
      </trkpt>
      <trkpt lat="46.79205" lon="-1.51154">
        <ele>97</ele>
        <time>2014-05-25T07:53:50.555Z</time>
      </trkpt>
      <trkpt lat="46.79217" lon="-1.51163">
        <ele>97</ele>
        <time>2014-05-25T07:53:54.553Z</time>
      </trkpt>
      <trkpt lat="46.79222" lon="-1.51187">
        <ele>95</ele>
        <time>2014-05-25T07:53:57.553Z</time>
      </trkpt>
      <trkpt lat="46.79229" lon="-1.51215">
        <ele>89</ele>
        <time>2014-05-25T07:54:03.553Z</time>
      </trkpt>
      <trkpt lat="46.79224" lon="-1.51243">
        <ele>89</ele>
        <time>2014-05-25T07:54:08.554Z</time>
      </trkpt>
      <trkpt lat="46.79214" lon="-1.51274">
        <ele>89</ele>
        <time>2014-05-25T07:54:14.55Z</time>
      </trkpt>
      <trkpt lat="46.79204" lon="-1.51288">
        <ele>87</ele>
        <time>2014-05-25T07:54:18.553Z</time>
      </trkpt>
      <trkpt lat="46.7917" lon="-1.51329">
        <ele>90</ele>
        <time>2014-05-25T07:54:30.553Z</time>
      </trkpt>
      <trkpt lat="46.79157" lon="-1.51323">
        <ele>93</ele>
        <time>2014-05-25T07:54:39.555Z</time>
      </trkpt>
      <trkpt lat="46.79111" lon="-1.5131">
        <ele>94</ele>
        <time>2014-05-25T07:54:49.553Z</time>
      </trkpt>
      <trkpt lat="46.79098" lon="-1.51322">
        <ele>92</ele>
        <time>2014-05-25T07:54:53.551Z</time>
      </trkpt>
      <trkpt lat="46.79056" lon="-1.51355">
        <ele>92</ele>
        <time>2014-05-25T07:55:04.554Z</time>
      </trkpt>
      <trkpt lat="46.7901" lon="-1.51384">
        <ele>96</ele>
        <time>2014-05-25T07:55:15.555Z</time>
      </trkpt>
      <trkpt lat="46.79012" lon="-1.51405">
        <ele>96</ele>
        <time>2014-05-25T07:55:21.553Z</time>
      </trkpt>
      <trkpt lat="46.79004" lon="-1.51523">
        <ele>102</ele>
        <time>2014-05-25T07:55:52.553Z</time>
      </trkpt>
      <trkpt lat="46.7899" lon="-1.5153">
        <ele>103</ele>
        <time>2014-05-25T07:55:59.55Z</time>
      </trkpt>
      <trkpt lat="46.7891" lon="-1.51534">
        <ele>96</ele>
        <time>2014-05-25T07:56:20.55Z</time>
      </trkpt>
      <trkpt lat="46.78864" lon="-1.5156">
        <ele>91</ele>
        <time>2014-05-25T07:56:27.553Z</time>
      </trkpt>
      <trkpt lat="46.78852" lon="-1.51574">
        <ele>93</ele>
        <time>2014-05-25T07:56:30.555Z</time>
      </trkpt>
      <trkpt lat="46.78846" lon="-1.51596">
        <ele>94</ele>
        <time>2014-05-25T07:56:34.551Z</time>
      </trkpt>
      <trkpt lat="46.78847" lon="-1.51623">
        <ele>94</ele>
        <time>2014-05-25T07:56:38.553Z</time>
      </trkpt>
      <trkpt lat="46.78849" lon="-1.51692">
        <ele>93</ele>
        <time>2014-05-25T07:56:48.553Z</time>
      </trkpt>
      <trkpt lat="46.78838" lon="-1.51744">
        <ele>99</ele>
        <time>2014-05-25T07:57:00.555Z</time>
      </trkpt>
      <trkpt lat="46.78842" lon="-1.5177">
        <ele>102</ele>
        <time>2014-05-25T07:57:07.555Z</time>
      </trkpt>
      <trkpt lat="46.78848" lon="-1.51779">
        <ele>106</ele>
        <time>2014-05-25T07:58:08.551Z</time>
      </trkpt>
      <trkpt lat="46.78849" lon="-1.51779">
        <ele>108</ele>
        <time>2014-05-25T07:59:08.555Z</time>
      </trkpt>
      <trkpt lat="46.78846" lon="-1.51777">
        <ele>104</ele>
        <time>2014-05-25T08:00:09.553Z</time>
      </trkpt>
      <trkpt lat="46.78845" lon="-1.51778">
        <ele>103</ele>
        <time>2014-05-25T08:01:09.555Z</time>
      </trkpt>
      <trkpt lat="46.78838" lon="-1.51775">
        <ele>106</ele>
        <time>2014-05-25T08:02:09.556Z</time>
      </trkpt>
      <trkpt lat="46.78841" lon="-1.51797">
        <ele>107</ele>
        <time>2014-05-25T08:02:43.551Z</time>
      </trkpt>
      <trkpt lat="46.78848" lon="-1.51836">
        <ele>109</ele>
        <time>2014-05-25T08:02:52.55Z</time>
      </trkpt>
      <trkpt lat="46.78852" lon="-1.51866">
        <ele>109</ele>
        <time>2014-05-25T08:02:57.55Z</time>
      </trkpt>
      <trkpt lat="46.7885" lon="-1.51892">
        <ele>106</ele>
        <time>2014-05-25T08:03:01.55Z</time>
      </trkpt>
      <trkpt lat="46.78839" lon="-1.51907">
        <ele>105</ele>
        <time>2014-05-25T08:03:05.551Z</time>
      </trkpt>
      <trkpt lat="46.78825" lon="-1.51915">
        <ele>105</ele>
        <time>2014-05-25T08:03:08.55Z</time>
      </trkpt>
      <trkpt lat="46.78788" lon="-1.51936">
        <ele>103</ele>
        <time>2014-05-25T08:03:16.55Z</time>
      </trkpt>
      <trkpt lat="46.78779" lon="-1.51958">
        <ele>103</ele>
        <time>2014-05-25T08:03:20.549Z</time>
      </trkpt>
      <trkpt lat="46.78779" lon="-1.51981">
        <ele>103</ele>
        <time>2014-05-25T08:03:23.551Z</time>
      </trkpt>
      <trkpt lat="46.78781" lon="-1.52004">
        <ele>103</ele>
        <time>2014-05-25T08:03:26.551Z</time>
      </trkpt>
      <trkpt lat="46.78784" lon="-1.5211">
        <ele>107</ele>
        <time>2014-05-25T08:03:43.549Z</time>
      </trkpt>
      <trkpt lat="46.78773" lon="-1.52124">
        <ele>106</ele>
        <time>2014-05-25T08:03:47.55Z</time>
      </trkpt>
      <trkpt lat="46.78751" lon="-1.52133">
        <ele>106</ele>
        <time>2014-05-25T08:03:51.549Z</time>
      </trkpt>
      <trkpt lat="46.78697" lon="-1.52161">
        <ele>106</ele>
        <time>2014-05-25T08:04:02.55Z</time>
      </trkpt>
      <trkpt lat="46.78699" lon="-1.52187">
        <ele>106</ele>
        <time>2014-05-25T08:04:07.55Z</time>
      </trkpt>
      <trkpt lat="46.78708" lon="-1.52235">
        <ele>106</ele>
        <time>2014-05-25T08:04:14.551Z</time>
      </trkpt>
      <trkpt lat="46.78701" lon="-1.52254">
        <ele>105</ele>
        <time>2014-05-25T08:04:18.549Z</time>
      </trkpt>
      <trkpt lat="46.78696" lon="-1.52275">
        <ele>104</ele>
        <time>2014-05-25T08:04:21.551Z</time>
      </trkpt>
      <trkpt lat="46.78701" lon="-1.52294">
        <ele>104</ele>
        <time>2014-05-25T08:04:24.551Z</time>
      </trkpt>
      <trkpt lat="46.7871" lon="-1.52348">
        <ele>106</ele>
        <time>2014-05-25T08:04:35.549Z</time>
      </trkpt>
      <trkpt lat="46.78698" lon="-1.52366">
        <ele>105</ele>
        <time>2014-05-25T08:04:40.551Z</time>
      </trkpt>
      <trkpt lat="46.78675" lon="-1.52386">
        <ele>105</ele>
        <time>2014-05-25T08:04:46.55Z</time>
      </trkpt>
      <trkpt lat="46.78661" lon="-1.52395">
        <ele>107</ele>
        <time>2014-05-25T08:04:50.551Z</time>
      </trkpt>
      <trkpt lat="46.78632" lon="-1.52398">
        <ele>105</ele>
        <time>2014-05-25T08:04:57.55Z</time>
      </trkpt>
      <trkpt lat="46.78607" lon="-1.52419">
        <ele>105</ele>
        <time>2014-05-25T08:05:05.551Z</time>
      </trkpt>
      <trkpt lat="46.78595" lon="-1.5245">
        <ele>106</ele>
        <time>2014-05-25T08:05:09.553Z</time>
      </trkpt>
      <trkpt lat="46.78588" lon="-1.52501">
        <ele>101</ele>
        <time>2014-05-25T08:05:15.553Z</time>
      </trkpt>
      <trkpt lat="46.78599" lon="-1.52521">
        <ele>98</ele>
        <time>2014-05-25T08:05:19.553Z</time>
      </trkpt>
      <trkpt lat="46.78615" lon="-1.52543">
        <ele>94</ele>
        <time>2014-05-25T08:05:23.554Z</time>
      </trkpt>
      <trkpt lat="46.78627" lon="-1.52561">
        <ele>94</ele>
        <time>2014-05-25T08:05:28.553Z</time>
      </trkpt>
      <trkpt lat="46.78636" lon="-1.5259">
        <ele>95</ele>
        <time>2014-05-25T08:05:33.554Z</time>
      </trkpt>
      <trkpt lat="46.78634" lon="-1.52614">
        <ele>93</ele>
        <time>2014-05-25T08:05:36.553Z</time>
      </trkpt>
      <trkpt lat="46.78617" lon="-1.5276">
        <ele>98</ele>
        <time>2014-05-25T08:05:59.555Z</time>
      </trkpt>
      <trkpt lat="46.78593" lon="-1.52853">
        <ele>98</ele>
        <time>2014-05-25T08:06:15.554Z</time>
      </trkpt>
      <trkpt lat="46.78586" lon="-1.52871">
        <ele>94</ele>
        <time>2014-05-25T08:06:18.551Z</time>
      </trkpt>
      <trkpt lat="46.78568" lon="-1.52949">
        <ele>93</ele>
        <time>2014-05-25T08:06:31.553Z</time>
      </trkpt>
      <trkpt lat="46.78564" lon="-1.53013">
        <ele>94</ele>
        <time>2014-05-25T08:06:41.551Z</time>
      </trkpt>
      <trkpt lat="46.78564" lon="-1.53058">
        <ele>98</ele>
        <time>2014-05-25T08:06:53.553Z</time>
      </trkpt>
      <trkpt lat="46.78551" lon="-1.53067">
        <ele>99</ele>
        <time>2014-05-25T08:06:59.551Z</time>
      </trkpt>
      <trkpt lat="46.78543" lon="-1.53085">
        <ele>99</ele>
        <time>2014-05-25T08:07:04.55Z</time>
      </trkpt>
      <trkpt lat="46.78528" lon="-1.53102">
        <ele>98</ele>
        <time>2014-05-25T08:07:12.553Z</time>
      </trkpt>
      <trkpt lat="46.7851" lon="-1.53118">
        <ele>97</ele>
        <time>2014-05-25T08:07:20.551Z</time>
      </trkpt>
      <trkpt lat="46.78493" lon="-1.53115">
        <ele>98</ele>
        <time>2014-05-25T08:07:25.551Z</time>
      </trkpt>
      <trkpt lat="46.78479" lon="-1.53118">
        <ele>97</ele>
        <time>2014-05-25T08:07:29.553Z</time>
      </trkpt>
      <trkpt lat="46.78405" lon="-1.53136">
        <ele>95</ele>
        <time>2014-05-25T08:07:39.551Z</time>
      </trkpt>
      <trkpt lat="46.78383" lon="-1.53131">
        <ele>92</ele>
        <time>2014-05-25T08:07:42.551Z</time>
      </trkpt>
      <trkpt lat="46.7837" lon="-1.5312">
        <ele>91</ele>
        <time>2014-05-25T08:07:44.551Z</time>
      </trkpt>
      <trkpt lat="46.78348" lon="-1.53106">
        <ele>87</ele>
        <time>2014-05-25T08:07:48.554Z</time>
      </trkpt>
      <trkpt lat="46.78331" lon="-1.53122">
        <ele>84</ele>
        <time>2014-05-25T08:07:51.554Z</time>
      </trkpt>
      <trkpt lat="46.78308" lon="-1.53166">
        <ele>80</ele>
        <time>2014-05-25T08:07:57.553Z</time>
      </trkpt>
      <trkpt lat="46.78276" lon="-1.53212">
        <ele>79</ele>
        <time>2014-05-25T08:08:06.551Z</time>
      </trkpt>
      <trkpt lat="46.78269" lon="-1.53231">
        <ele>80</ele>
        <time>2014-05-25T08:08:15.55Z</time>
      </trkpt>
      <trkpt lat="46.78275" lon="-1.53313">
        <ele>84</ele>
        <time>2014-05-25T08:08:29.55Z</time>
      </trkpt>
      <trkpt lat="46.78284" lon="-1.53481">
        <ele>88</ele>
        <time>2014-05-25T08:08:56.553Z</time>
      </trkpt>
      <trkpt lat="46.78303" lon="-1.53585">
        <ele>88</ele>
        <time>2014-05-25T08:09:14.553Z</time>
      </trkpt>
      <trkpt lat="46.78322" lon="-1.53673">
        <ele>95</ele>
        <time>2014-05-25T08:09:30.55Z</time>
      </trkpt>
      <trkpt lat="46.78314" lon="-1.53692">
        <ele>94</ele>
        <time>2014-05-25T08:09:38.551Z</time>
      </trkpt>
      <trkpt lat="46.78318" lon="-1.53714">
        <ele>93</ele>
        <time>2014-05-25T08:09:44.55Z</time>
      </trkpt>
      <trkpt lat="46.78353" lon="-1.53872">
        <ele>97</ele>
        <time>2014-05-25T08:10:21.549Z</time>
      </trkpt>
      <trkpt lat="46.78385" lon="-1.54035">
        <ele>104</ele>
        <time>2014-05-25T08:10:58.55Z</time>
      </trkpt>
      <trkpt lat="46.78389" lon="-1.54133">
        <ele>107</ele>
        <time>2014-05-25T08:11:20.55Z</time>
      </trkpt>
      <trkpt lat="46.78384" lon="-1.54202">
        <ele>109</ele>
        <time>2014-05-25T08:11:36.55Z</time>
      </trkpt>
      <trkpt lat="46.7837" lon="-1.54209">
        <ele>111</ele>
        <time>2014-05-25T08:11:42.549Z</time>
      </trkpt>
      <trkpt lat="46.78356" lon="-1.54206">
        <ele>111</ele>
        <time>2014-05-25T08:11:46.55Z</time>
      </trkpt>
      <trkpt lat="46.78247" lon="-1.54206">
        <ele>109</ele>
        <time>2014-05-25T08:12:09.548Z</time>
      </trkpt>
      <trkpt lat="46.78135" lon="-1.54211">
        <ele>106</ele>
        <time>2014-05-25T08:12:28.548Z</time>
      </trkpt>
      <trkpt lat="46.78071" lon="-1.54203">
        <ele>105</ele>
        <time>2014-05-25T08:12:38.548Z</time>
      </trkpt>
      <trkpt lat="46.78057" lon="-1.5421">
        <ele>105</ele>
        <time>2014-05-25T08:12:40.549Z</time>
      </trkpt>
      <trkpt lat="46.78043" lon="-1.5423">
        <ele>107</ele>
        <time>2014-05-25T08:12:43.549Z</time>
      </trkpt>
      <trkpt lat="46.78039" lon="-1.54254">
        <ele>107</ele>
        <time>2014-05-25T08:12:46.548Z</time>
      </trkpt>
      <trkpt lat="46.7804" lon="-1.54277">
        <ele>108</ele>
        <time>2014-05-25T08:12:49.55Z</time>
      </trkpt>
      <trkpt lat="46.78037" lon="-1.54332">
        <ele>110</ele>
        <time>2014-05-25T08:12:57.55Z</time>
      </trkpt>
      <trkpt lat="46.78059" lon="-1.54452">
        <ele>109</ele>
        <time>2014-05-25T08:13:13.549Z</time>
      </trkpt>
      <trkpt lat="46.7806" lon="-1.54494">
        <ele>107</ele>
        <time>2014-05-25T08:13:20.551Z</time>
      </trkpt>
      <trkpt lat="46.78062" lon="-1.54531">
        <ele>106</ele>
        <time>2014-05-25T08:13:26.55Z</time>
      </trkpt>
      <trkpt lat="46.78063" lon="-1.54562">
        <ele>106</ele>
        <time>2014-05-25T08:13:31.551Z</time>
      </trkpt>
      <trkpt lat="46.7805" lon="-1.54572">
        <ele>106</ele>
        <time>2014-05-25T08:13:34.553Z</time>
      </trkpt>
      <trkpt lat="46.78018" lon="-1.54598">
        <ele>106</ele>
        <time>2014-05-25T08:13:41.55Z</time>
      </trkpt>
      <trkpt lat="46.78019" lon="-1.54618">
        <ele>104</ele>
        <time>2014-05-25T08:13:48.55Z</time>
      </trkpt>
      <trkpt lat="46.7802" lon="-1.54689">
        <ele>101</ele>
        <time>2014-05-25T08:14:00.55Z</time>
      </trkpt>
      <trkpt lat="46.78003" lon="-1.54718">
        <ele>101</ele>
        <time>2014-05-25T08:14:04.551Z</time>
      </trkpt>
      <trkpt lat="46.7799" lon="-1.54749">
        <ele>101</ele>
        <time>2014-05-25T08:14:08.55Z</time>
      </trkpt>
      <trkpt lat="46.77993" lon="-1.54777">
        <ele>100</ele>
        <time>2014-05-25T08:14:11.553Z</time>
      </trkpt>
      <trkpt lat="46.78004" lon="-1.54835">
        <ele>97</ele>
        <time>2014-05-25T08:14:18.549Z</time>
      </trkpt>
      <trkpt lat="46.78016" lon="-1.54867">
        <ele>96</ele>
        <time>2014-05-25T08:14:22.554Z</time>
      </trkpt>
      <trkpt lat="46.7803" lon="-1.54881">
        <ele>94</ele>
        <time>2014-05-25T08:14:25.553Z</time>
      </trkpt>
      <trkpt lat="46.78051" lon="-1.54905">
        <ele>90</ele>
        <time>2014-05-25T08:14:33.55Z</time>
      </trkpt>
      <trkpt lat="46.78068" lon="-1.54898">
        <ele>88</ele>
        <time>2014-05-25T08:14:37.55Z</time>
      </trkpt>
      <trkpt lat="46.78094" lon="-1.54884">
        <ele>84</ele>
        <time>2014-05-25T08:14:43.551Z</time>
      </trkpt>
      <trkpt lat="46.7811" lon="-1.54896">
        <ele>83</ele>
        <time>2014-05-25T08:14:47.553Z</time>
      </trkpt>
      <trkpt lat="46.78131" lon="-1.54906">
        <ele>85</ele>
        <time>2014-05-25T08:14:52.55Z</time>
      </trkpt>
      <trkpt lat="46.78143" lon="-1.5489">
        <ele>85</ele>
        <time>2014-05-25T08:14:57.553Z</time>
      </trkpt>
      <trkpt lat="46.78188" lon="-1.5482">
        <ele>88</ele>
        <time>2014-05-25T08:15:14.55Z</time>
      </trkpt>
      <trkpt lat="46.78224" lon="-1.54791">
        <ele>96</ele>
        <time>2014-05-25T08:15:31.55Z</time>
      </trkpt>
      <trkpt lat="46.78259" lon="-1.54769">
        <ele>95</ele>
        <time>2014-05-25T08:15:46.551Z</time>
      </trkpt>
      <trkpt lat="46.78274" lon="-1.54773">
        <ele>97</ele>
        <time>2014-05-25T08:15:54.553Z</time>
      </trkpt>
      <trkpt lat="46.7831" lon="-1.54789">
        <ele>105</ele>
        <time>2014-05-25T08:16:16.553Z</time>
      </trkpt>
      <trkpt lat="46.78321" lon="-1.54804">
        <ele>110</ele>
        <time>2014-05-25T08:16:25.551Z</time>
      </trkpt>
      <trkpt lat="46.78323" lon="-1.54824">
        <ele>111</ele>
        <time>2014-05-25T08:16:34.549Z</time>
      </trkpt>
      <trkpt lat="46.78313" lon="-1.54843">
        <ele>111</ele>
        <time>2014-05-25T08:16:39.548Z</time>
      </trkpt>
      <trkpt lat="46.78305" lon="-1.54876">
        <ele>109</ele>
        <time>2014-05-25T08:16:46.55Z</time>
      </trkpt>
      <trkpt lat="46.78297" lon="-1.55027">
        <ele>110</ele>
        <time>2014-05-25T08:17:13.55Z</time>
      </trkpt>
      <trkpt lat="46.78285" lon="-1.55196">
        <ele>114</ele>
        <time>2014-05-25T08:17:47.551Z</time>
      </trkpt>
      <trkpt lat="46.78309" lon="-1.55439">
        <ele>117</ele>
        <time>2014-05-25T08:18:26.549Z</time>
      </trkpt>
      <trkpt lat="46.7831" lon="-1.5546">
        <ele>117</ele>
        <time>2014-05-25T08:18:29.549Z</time>
      </trkpt>
      <trkpt lat="46.78295" lon="-1.55459">
        <ele>114</ele>
        <time>2014-05-25T08:18:39.548Z</time>
      </trkpt>
      <trkpt lat="46.78278" lon="-1.55454">
        <ele>113</ele>
        <time>2014-05-25T08:18:43.548Z</time>
      </trkpt>
      <trkpt lat="46.78224" lon="-1.55454">
        <ele>111</ele>
        <time>2014-05-25T08:18:52.55Z</time>
      </trkpt>
      <trkpt lat="46.78185" lon="-1.55456">
        <ele>110</ele>
        <time>2014-05-25T08:18:58.551Z</time>
      </trkpt>
      <trkpt lat="46.78173" lon="-1.5547">
        <ele>111</ele>
        <time>2014-05-25T08:19:02.549Z</time>
      </trkpt>
      <trkpt lat="46.78158" lon="-1.55475">
        <ele>109</ele>
        <time>2014-05-25T08:19:05.549Z</time>
      </trkpt>
      <trkpt lat="46.78139" lon="-1.55472">
        <ele>109</ele>
        <time>2014-05-25T08:19:09.548Z</time>
      </trkpt>
      <trkpt lat="46.7811" lon="-1.55472">
        <ele>105</ele>
        <time>2014-05-25T08:19:17.55Z</time>
      </trkpt>
      <trkpt lat="46.781" lon="-1.55484">
        <ele>104</ele>
        <time>2014-05-25T08:19:21.553Z</time>
      </trkpt>
      <trkpt lat="46.78086" lon="-1.55498">
        <ele>104</ele>
        <time>2014-05-25T08:19:25.549Z</time>
      </trkpt>
      <trkpt lat="46.78071" lon="-1.55498">
        <ele>104</ele>
        <time>2014-05-25T08:19:29.55Z</time>
      </trkpt>
      <trkpt lat="46.78062" lon="-1.55483">
        <ele>101</ele>
        <time>2014-05-25T08:19:33.549Z</time>
      </trkpt>
      <trkpt lat="46.78049" lon="-1.55475">
        <ele>99</ele>
        <time>2014-05-25T08:19:36.548Z</time>
      </trkpt>
      <trkpt lat="46.78017" lon="-1.55467">
        <ele>95</ele>
        <time>2014-05-25T08:19:48.551Z</time>
      </trkpt>
      <trkpt lat="46.77999" lon="-1.55477">
        <ele>93</ele>
        <time>2014-05-25T08:20:32.551Z</time>
      </trkpt>
      <trkpt lat="46.77991" lon="-1.55498">
        <ele>94</ele>
        <time>2014-05-25T08:20:39.551Z</time>
      </trkpt>
      <trkpt lat="46.77982" lon="-1.55516">
        <ele>93</ele>
        <time>2014-05-25T08:20:45.551Z</time>
      </trkpt>
      <trkpt lat="46.77968" lon="-1.5553">
        <ele>95</ele>
        <time>2014-05-25T08:20:49.55Z</time>
      </trkpt>
      <trkpt lat="46.77954" lon="-1.55547">
        <ele>95</ele>
        <time>2014-05-25T08:20:55.551Z</time>
      </trkpt>
      <trkpt lat="46.77943" lon="-1.55573">
        <ele>89</ele>
        <time>2014-05-25T08:21:03.549Z</time>
      </trkpt>
      <trkpt lat="46.77926" lon="-1.5558">
        <ele>88</ele>
        <time>2014-05-25T08:21:07.55Z</time>
      </trkpt>
      <trkpt lat="46.77914" lon="-1.55596">
        <ele>86</ele>
        <time>2014-05-25T08:21:12.549Z</time>
      </trkpt>
      <trkpt lat="46.77869" lon="-1.55705">
        <ele>86</ele>
        <time>2014-05-25T08:21:37.55Z</time>
      </trkpt>
      <trkpt lat="46.77848" lon="-1.55805">
        <ele>88</ele>
        <time>2014-05-25T08:21:53.548Z</time>
      </trkpt>
      <trkpt lat="46.77858" lon="-1.55826">
        <ele>88</ele>
        <time>2014-05-25T08:21:57.546Z</time>
      </trkpt>
      <trkpt lat="46.77872" lon="-1.55834">
        <ele>89</ele>
        <time>2014-05-25T08:22:01.553Z</time>
      </trkpt>
      <trkpt lat="46.77893" lon="-1.55845">
        <ele>90</ele>
        <time>2014-05-25T08:22:08.55Z</time>
      </trkpt>
      <trkpt lat="46.779" lon="-1.55865">
        <ele>89</ele>
        <time>2014-05-25T08:22:15.551Z</time>
      </trkpt>
      <trkpt lat="46.7791" lon="-1.55896">
        <ele>91</ele>
        <time>2014-05-25T08:22:25.55Z</time>
      </trkpt>
      <trkpt lat="46.77916" lon="-1.55917">
        <ele>90</ele>
        <time>2014-05-25T08:22:31.553Z</time>
      </trkpt>
      <trkpt lat="46.77932" lon="-1.55946">
        <ele>91</ele>
        <time>2014-05-25T08:22:40.55Z</time>
      </trkpt>
      <trkpt lat="46.77976" lon="-1.55961">
        <ele>98</ele>
        <time>2014-05-25T08:23:33.546Z</time>
      </trkpt>
      <trkpt lat="46.7799" lon="-1.55961">
        <ele>98</ele>
        <time>2014-05-25T08:23:47.549Z</time>
      </trkpt>
      <trkpt lat="46.78011" lon="-1.55976">
        <ele>104</ele>
        <time>2014-05-25T08:24:18.548Z</time>
      </trkpt>
      <trkpt lat="46.77999" lon="-1.56118">
        <ele>109</ele>
        <time>2014-05-25T08:24:50.55Z</time>
      </trkpt>
      <trkpt lat="46.78012" lon="-1.56127">
        <ele>107</ele>
        <time>2014-05-25T08:24:55.549Z</time>
      </trkpt>
      <trkpt lat="46.78031" lon="-1.5613">
        <ele>106</ele>
        <time>2014-05-25T08:25:00.55Z</time>
      </trkpt>
      <trkpt lat="46.78065" lon="-1.56142">
        <ele>107</ele>
        <time>2014-05-25T08:25:11.55Z</time>
      </trkpt>
      <trkpt lat="46.7807" lon="-1.56161">
        <ele>108</ele>
        <time>2014-05-25T08:25:15.55Z</time>
      </trkpt>
      <trkpt lat="46.78073" lon="-1.562">
        <ele>110</ele>
        <time>2014-05-25T08:25:21.55Z</time>
      </trkpt>
      <trkpt lat="46.78075" lon="-1.56267">
        <ele>111</ele>
        <time>2014-05-25T08:25:33.549Z</time>
      </trkpt>
      <trkpt lat="46.78086" lon="-1.56279">
        <ele>108</ele>
        <time>2014-05-25T08:25:37.546Z</time>
      </trkpt>
      <trkpt lat="46.781" lon="-1.5627">
        <ele>106</ele>
        <time>2014-05-25T08:25:44.549Z</time>
      </trkpt>
      <trkpt lat="46.78121" lon="-1.56264">
        <ele>106</ele>
        <time>2014-05-25T08:25:51.55Z</time>
      </trkpt>
      <trkpt lat="46.78126" lon="-1.56285">
        <ele>107</ele>
        <time>2014-05-25T08:25:57.55Z</time>
      </trkpt>
      <trkpt lat="46.78122" lon="-1.56305">
        <ele>110</ele>
        <time>2014-05-25T08:26:02.551Z</time>
      </trkpt>
      <trkpt lat="46.78122" lon="-1.56325">
        <ele>111</ele>
        <time>2014-05-25T08:26:06.548Z</time>
      </trkpt>
      <trkpt lat="46.78118" lon="-1.56362">
        <ele>112</ele>
        <time>2014-05-25T08:26:14.55Z</time>
      </trkpt>
      <trkpt lat="46.7812" lon="-1.56393">
        <ele>114</ele>
        <time>2014-05-25T08:26:20.548Z</time>
      </trkpt>
      <trkpt lat="46.78117" lon="-1.56465">
        <ele>113</ele>
        <time>2014-05-25T08:26:35.548Z</time>
      </trkpt>
      <trkpt lat="46.78087" lon="-1.56649">
        <ele>108</ele>
        <time>2014-05-25T08:27:09.549Z</time>
      </trkpt>
      <trkpt lat="46.78042" lon="-1.56761">
        <ele>105</ele>
        <time>2014-05-25T08:27:26.548Z</time>
      </trkpt>
      <trkpt lat="46.78025" lon="-1.56759">
        <ele>105</ele>
        <time>2014-05-25T08:27:30.549Z</time>
      </trkpt>
      <trkpt lat="46.77925" lon="-1.56742">
        <ele>94</ele>
        <time>2014-05-25T08:27:45.549Z</time>
      </trkpt>
      <trkpt lat="46.77911" lon="-1.56731">
        <ele>91</ele>
        <time>2014-05-25T08:27:48.549Z</time>
      </trkpt>
      <trkpt lat="46.77892" lon="-1.56716">
        <ele>89</ele>
        <time>2014-05-25T08:27:53.55Z</time>
      </trkpt>
      <trkpt lat="46.77881" lon="-1.56728">
        <ele>85</ele>
        <time>2014-05-25T08:27:56.55Z</time>
      </trkpt>
      <trkpt lat="46.77876" lon="-1.56752">
        <ele>83</ele>
        <time>2014-05-25T08:27:59.549Z</time>
      </trkpt>
      <trkpt lat="46.77883" lon="-1.56773">
        <ele>84</ele>
        <time>2014-05-25T08:28:05.549Z</time>
      </trkpt>
      <trkpt lat="46.77896" lon="-1.56786">
        <ele>84</ele>
        <time>2014-05-25T08:28:12.55Z</time>
      </trkpt>
      <trkpt lat="46.7791" lon="-1.56787">
        <ele>87</ele>
        <time>2014-05-25T08:28:21.55Z</time>
      </trkpt>
      <trkpt lat="46.77944" lon="-1.56798">
        <ele>92</ele>
        <time>2014-05-25T08:28:41.55Z</time>
      </trkpt>
      <trkpt lat="46.77968" lon="-1.56803">
        <ele>93</ele>
        <time>2014-05-25T08:28:57.549Z</time>
      </trkpt>
      <trkpt lat="46.78013" lon="-1.5682">
        <ele>97</ele>
        <time>2014-05-25T08:29:24.549Z</time>
      </trkpt>
      <trkpt lat="46.78017" lon="-1.56842">
        <ele>101</ele>
        <time>2014-05-25T08:29:35.546Z</time>
      </trkpt>
      <trkpt lat="46.78011" lon="-1.56865">
        <ele>102</ele>
        <time>2014-05-25T08:29:41.55Z</time>
      </trkpt>
      <trkpt lat="46.77995" lon="-1.56868">
        <ele>100</ele>
        <time>2014-05-25T08:29:46.549Z</time>
      </trkpt>
      <trkpt lat="46.77942" lon="-1.56851">
        <ele>98</ele>
        <time>2014-05-25T08:29:53.546Z</time>
      </trkpt>
      <trkpt lat="46.77897" lon="-1.56844">
        <ele>93</ele>
        <time>2014-05-25T08:29:58.549Z</time>
      </trkpt>
      <trkpt lat="46.77866" lon="-1.56845">
        <ele>84</ele>
        <time>2014-05-25T08:30:06.55Z</time>
      </trkpt>
      <trkpt lat="46.7787" lon="-1.56865">
        <ele>85</ele>
        <time>2014-05-25T08:30:14.548Z</time>
      </trkpt>
      <trkpt lat="46.7788" lon="-1.56882">
        <ele>85</ele>
        <time>2014-05-25T08:30:21.55Z</time>
      </trkpt>
      <trkpt lat="46.77891" lon="-1.56908">
        <ele>88</ele>
        <time>2014-05-25T08:30:32.55Z</time>
      </trkpt>
      <trkpt lat="46.77891" lon="-1.5693">
        <ele>90</ele>
        <time>2014-05-25T08:30:41.548Z</time>
      </trkpt>
      <trkpt lat="46.77898" lon="-1.56951">
        <ele>91</ele>
        <time>2014-05-25T08:30:48.546Z</time>
      </trkpt>
      <trkpt lat="46.77911" lon="-1.57045">
        <ele>99</ele>
        <time>2014-05-25T08:31:29.55Z</time>
      </trkpt>
      <trkpt lat="46.77906" lon="-1.57169">
        <ele>100</ele>
        <time>2014-05-25T08:31:59.548Z</time>
      </trkpt>
      <trkpt lat="46.779" lon="-1.57247">
        <ele>100</ele>
        <time>2014-05-25T08:32:14.549Z</time>
      </trkpt>
      <trkpt lat="46.77912" lon="-1.57258">
        <ele>99</ele>
        <time>2014-05-25T08:32:18.549Z</time>
      </trkpt>
      <trkpt lat="46.77928" lon="-1.57257">
        <ele>98</ele>
        <time>2014-05-25T08:32:22.548Z</time>
      </trkpt>
      <trkpt lat="46.77991" lon="-1.57258">
        <ele>99</ele>
        <time>2014-05-25T08:32:38.55Z</time>
      </trkpt>
      <trkpt lat="46.7801" lon="-1.57268">
        <ele>98</ele>
        <time>2014-05-25T08:32:42.55Z</time>
      </trkpt>
      <trkpt lat="46.78024" lon="-1.57258">
        <ele>99</ele>
        <time>2014-05-25T08:32:45.55Z</time>
      </trkpt>
      <trkpt lat="46.78038" lon="-1.57264">
        <ele>99</ele>
        <time>2014-05-25T08:32:48.55Z</time>
      </trkpt>
      <trkpt lat="46.78069" lon="-1.57286">
        <ele>98</ele>
        <time>2014-05-25T08:32:54.548Z</time>
      </trkpt>
      <trkpt lat="46.78094" lon="-1.5732">
        <ele>97</ele>
        <time>2014-05-25T08:33:00.549Z</time>
      </trkpt>
      <trkpt lat="46.78108" lon="-1.57312">
        <ele>96</ele>
        <time>2014-05-25T08:33:03.549Z</time>
      </trkpt>
      <trkpt lat="46.78137" lon="-1.57282">
        <ele>95</ele>
        <time>2014-05-25T08:33:10.55Z</time>
      </trkpt>
      <trkpt lat="46.78175" lon="-1.57221">
        <ele>97</ele>
        <time>2014-05-25T08:33:21.55Z</time>
      </trkpt>
      <trkpt lat="46.78205" lon="-1.57153">
        <ele>97</ele>
        <time>2014-05-25T08:33:33.55Z</time>
      </trkpt>
      <trkpt lat="46.78216" lon="-1.57136">
        <ele>100</ele>
        <time>2014-05-25T08:33:40.549Z</time>
      </trkpt>
      <trkpt lat="46.7824" lon="-1.57117">
        <ele>98</ele>
        <time>2014-05-25T08:33:46.553Z</time>
      </trkpt>
      <trkpt lat="46.78261" lon="-1.57094">
        <ele>96</ele>
        <time>2014-05-25T08:33:49.55Z</time>
      </trkpt>
      <trkpt lat="46.78279" lon="-1.57071">
        <ele>99</ele>
        <time>2014-05-25T08:33:55.549Z</time>
      </trkpt>
      <trkpt lat="46.78353" lon="-1.56942">
        <ele>105</ele>
        <time>2014-05-25T08:34:31.55Z</time>
      </trkpt>
      <trkpt lat="46.78367" lon="-1.56926">
        <ele>105</ele>
        <time>2014-05-25T08:34:36.551Z</time>
      </trkpt>
      <trkpt lat="46.78367" lon="-1.56947">
        <ele>109</ele>
        <time>2014-05-25T08:34:48.551Z</time>
      </trkpt>
      <trkpt lat="46.78365" lon="-1.56968">
        <ele>108</ele>
        <time>2014-05-25T08:34:53.55Z</time>
      </trkpt>
      <trkpt lat="46.78345" lon="-1.57109">
        <ele>107</ele>
        <time>2014-05-25T08:35:26.55Z</time>
      </trkpt>
      <trkpt lat="46.78357" lon="-1.57119">
        <ele>109</ele>
        <time>2014-05-25T08:35:30.55Z</time>
      </trkpt>
      <trkpt lat="46.78411" lon="-1.57162">
        <ele>112</ele>
        <time>2014-05-25T08:35:48.548Z</time>
      </trkpt>
      <trkpt lat="46.78409" lon="-1.57182">
        <ele>115</ele>
        <time>2014-05-25T08:35:53.55Z</time>
      </trkpt>
      <trkpt lat="46.78389" lon="-1.57262">
        <ele>116</ele>
        <time>2014-05-25T08:36:12.546Z</time>
      </trkpt>
      <trkpt lat="46.78399" lon="-1.57276">
        <ele>115</ele>
        <time>2014-05-25T08:36:17.55Z</time>
      </trkpt>
      <trkpt lat="46.78493" lon="-1.57336">
        <ele>120</ele>
        <time>2014-05-25T08:36:56.549Z</time>
      </trkpt>
      <trkpt lat="46.78502" lon="-1.57356">
        <ele>122</ele>
        <time>2014-05-25T08:37:01.548Z</time>
      </trkpt>
      <trkpt lat="46.78544" lon="-1.57472">
        <ele>114</ele>
        <time>2014-05-25T08:37:23.55Z</time>
      </trkpt>
      <trkpt lat="46.78534" lon="-1.57485">
        <ele>114</ele>
        <time>2014-05-25T08:37:26.55Z</time>
      </trkpt>
      <trkpt lat="46.78463" lon="-1.57566">
        <ele>111</ele>
        <time>2014-05-25T08:37:43.55Z</time>
      </trkpt>
      <trkpt lat="46.78456" lon="-1.57591">
        <ele>111</ele>
        <time>2014-05-25T08:37:47.55Z</time>
      </trkpt>
      <trkpt lat="46.78431" lon="-1.5768">
        <ele>109</ele>
        <time>2014-05-25T08:38:03.55Z</time>
      </trkpt>
      <trkpt lat="46.7844" lon="-1.57698">
        <ele>108</ele>
        <time>2014-05-25T08:38:06.549Z</time>
      </trkpt>
      <trkpt lat="46.78443" lon="-1.57725">
        <ele>106</ele>
        <time>2014-05-25T08:38:09.55Z</time>
      </trkpt>
      <trkpt lat="46.78445" lon="-1.57747">
        <ele>104</ele>
        <time>2014-05-25T08:38:15.55Z</time>
      </trkpt>
      <trkpt lat="46.78431" lon="-1.57753">
        <ele>103</ele>
        <time>2014-05-25T08:38:24.553Z</time>
      </trkpt>
      <trkpt lat="46.784" lon="-1.57758">
        <ele>100</ele>
        <time>2014-05-25T08:38:37.55Z</time>
      </trkpt>
      <trkpt lat="46.78377" lon="-1.57773">
        <ele>97</ele>
        <time>2014-05-25T08:38:45.551Z</time>
      </trkpt>
      <trkpt lat="46.78357" lon="-1.57787">
        <ele>99</ele>
        <time>2014-05-25T08:38:58.55Z</time>
      </trkpt>
      <trkpt lat="46.78343" lon="-1.57797">
        <ele>98</ele>
        <time>2014-05-25T08:39:04.55Z</time>
      </trkpt>
      <trkpt lat="46.7833" lon="-1.57805">
        <ele>96</ele>
        <time>2014-05-25T08:39:07.55Z</time>
      </trkpt>
      <trkpt lat="46.78317" lon="-1.57811">
        <ele>91</ele>
        <time>2014-05-25T08:39:12.55Z</time>
      </trkpt>
      <trkpt lat="46.78307" lon="-1.57796">
        <ele>93</ele>
        <time>2014-05-25T08:39:23.55Z</time>
      </trkpt>
      <trkpt lat="46.78294" lon="-1.5779">
        <ele>96</ele>
        <time>2014-05-25T08:39:32.551Z</time>
      </trkpt>
      <trkpt lat="46.78276" lon="-1.57796">
        <ele>91</ele>
        <time>2014-05-25T08:39:41.55Z</time>
      </trkpt>
      <trkpt lat="46.78249" lon="-1.57805">
        <ele>91</ele>
        <time>2014-05-25T08:39:56.55Z</time>
      </trkpt>
      <trkpt lat="46.78235" lon="-1.57801">
        <ele>92</ele>
        <time>2014-05-25T08:40:05.55Z</time>
      </trkpt>
      <trkpt lat="46.78202" lon="-1.57762">
        <ele>97</ele>
        <time>2014-05-25T08:40:40.549Z</time>
      </trkpt>
      <trkpt lat="46.78186" lon="-1.57769">
        <ele>95</ele>
        <time>2014-05-25T08:40:49.55Z</time>
      </trkpt>
      <trkpt lat="46.78175" lon="-1.57782">
        <ele>91</ele>
        <time>2014-05-25T08:40:59.55Z</time>
      </trkpt>
      <trkpt lat="46.78144" lon="-1.57788">
        <ele>86</ele>
        <time>2014-05-25T08:41:10.545Z</time>
      </trkpt>
      <trkpt lat="46.78154" lon="-1.57808">
        <ele>88</ele>
        <time>2014-05-25T08:41:20.546Z</time>
      </trkpt>
      <trkpt lat="46.78163" lon="-1.57826">
        <ele>91</ele>
        <time>2014-05-25T08:41:26.548Z</time>
      </trkpt>
      <trkpt lat="46.78173" lon="-1.57854">
        <ele>94</ele>
        <time>2014-05-25T08:41:32.554Z</time>
      </trkpt>
      <trkpt lat="46.78173" lon="-1.57876">
        <ele>97</ele>
        <time>2014-05-25T08:41:36.55Z</time>
      </trkpt>
      <trkpt lat="46.78174" lon="-1.58042">
        <ele>87</ele>
        <time>2014-05-25T08:42:07.549Z</time>
      </trkpt>
      <trkpt lat="46.7817" lon="-1.58064">
        <ele>85</ele>
        <time>2014-05-25T08:42:13.55Z</time>
      </trkpt>
      <trkpt lat="46.78099" lon="-1.58195">
        <ele>80</ele>
        <time>2014-05-25T08:42:43.549Z</time>
      </trkpt>
      <trkpt lat="46.78045" lon="-1.58268">
        <ele>82</ele>
        <time>2014-05-25T08:43:00.549Z</time>
      </trkpt>
      <trkpt lat="46.77981" lon="-1.5841">
        <ele>76</ele>
        <time>2014-05-25T08:43:31.549Z</time>
      </trkpt>
      <trkpt lat="46.7792" lon="-1.58549">
        <ele>83</ele>
        <time>2014-05-25T08:43:56.55Z</time>
      </trkpt>
      <trkpt lat="46.77916" lon="-1.58585">
        <ele>86</ele>
        <time>2014-05-25T08:44:01.549Z</time>
      </trkpt>
      <trkpt lat="46.77916" lon="-1.5863">
        <ele>84</ele>
        <time>2014-05-25T08:44:07.549Z</time>
      </trkpt>
      <trkpt lat="46.77926" lon="-1.58669">
        <ele>87</ele>
        <time>2014-05-25T08:44:15.55Z</time>
      </trkpt>
      <trkpt lat="46.77929" lon="-1.58697">
        <ele>89</ele>
        <time>2014-05-25T08:44:19.549Z</time>
      </trkpt>
      <trkpt lat="46.77937" lon="-1.58715">
        <ele>88</ele>
        <time>2014-05-25T08:44:23.55Z</time>
      </trkpt>
      <trkpt lat="46.7795" lon="-1.58736">
        <ele>85</ele>
        <time>2014-05-25T08:44:27.55Z</time>
      </trkpt>
      <trkpt lat="46.77961" lon="-1.58748">
        <ele>87</ele>
        <time>2014-05-25T08:44:31.548Z</time>
      </trkpt>
      <trkpt lat="46.77977" lon="-1.58765">
        <ele>86</ele>
        <time>2014-05-25T08:44:35.55Z</time>
      </trkpt>
      <trkpt lat="46.78002" lon="-1.58785">
        <ele>84</ele>
        <time>2014-05-25T08:44:41.55Z</time>
      </trkpt>
      <trkpt lat="46.78069" lon="-1.58819">
        <ele>84</ele>
        <time>2014-05-25T08:44:57.55Z</time>
      </trkpt>
      <trkpt lat="46.78137" lon="-1.58827">
        <ele>80</ele>
        <time>2014-05-25T08:45:14.546Z</time>
      </trkpt>
      <trkpt lat="46.78203" lon="-1.58804">
        <ele>80</ele>
        <time>2014-05-25T08:45:31.55Z</time>
      </trkpt>
      <trkpt lat="46.78217" lon="-1.58797">
        <ele>81</ele>
        <time>2014-05-25T08:45:35.55Z</time>
      </trkpt>
      <trkpt lat="46.78232" lon="-1.58794">
        <ele>83</ele>
        <time>2014-05-25T08:45:40.548Z</time>
      </trkpt>
      <trkpt lat="46.78256" lon="-1.58799">
        <ele>85</ele>
        <time>2014-05-25T08:45:46.549Z</time>
      </trkpt>
      <trkpt lat="46.78271" lon="-1.58811">
        <ele>81</ele>
        <time>2014-05-25T08:45:51.55Z</time>
      </trkpt>
      <trkpt lat="46.78279" lon="-1.58829">
        <ele>83</ele>
        <time>2014-05-25T08:45:55.548Z</time>
      </trkpt>
      <trkpt lat="46.7829" lon="-1.58845">
        <ele>85</ele>
        <time>2014-05-25T08:46:00.55Z</time>
      </trkpt>
      <trkpt lat="46.78307" lon="-1.58874">
        <ele>86</ele>
        <time>2014-05-25T08:46:07.55Z</time>
      </trkpt>
      <trkpt lat="46.78357" lon="-1.58969">
        <ele>92</ele>
        <time>2014-05-25T08:46:24.549Z</time>
      </trkpt>
      <trkpt lat="46.78388" lon="-1.59127">
        <ele>90</ele>
        <time>2014-05-25T08:46:55.551Z</time>
      </trkpt>
      <trkpt lat="46.7839" lon="-1.59154">
        <ele>90</ele>
        <time>2014-05-25T08:47:03.551Z</time>
      </trkpt>
      <trkpt lat="46.78386" lon="-1.59184">
        <ele>91</ele>
        <time>2014-05-25T08:47:12.551Z</time>
      </trkpt>
      <trkpt lat="46.78347" lon="-1.59393">
        <ele>89</ele>
        <time>2014-05-25T08:47:45.546Z</time>
      </trkpt>
      <trkpt lat="46.78343" lon="-1.59433">
        <ele>87</ele>
        <time>2014-05-25T08:47:52.55Z</time>
      </trkpt>
      <trkpt lat="46.78356" lon="-1.59443">
        <ele>88</ele>
        <time>2014-05-25T08:47:58.55Z</time>
      </trkpt>
      <trkpt lat="46.78382" lon="-1.59431">
        <ele>92</ele>
        <time>2014-05-25T08:48:27.549Z</time>
      </trkpt>
      <trkpt lat="46.78393" lon="-1.59418">
        <ele>93</ele>
        <time>2014-05-25T08:48:35.548Z</time>
      </trkpt>
      <trkpt lat="46.7842" lon="-1.59384">
        <ele>95</ele>
        <time>2014-05-25T08:48:56.549Z</time>
      </trkpt>
      <trkpt lat="46.78433" lon="-1.59369">
        <ele>101</ele>
        <time>2014-05-25T08:49:05.549Z</time>
      </trkpt>
      <trkpt lat="46.78458" lon="-1.59331">
        <ele>100</ele>
        <time>2014-05-25T08:49:25.549Z</time>
      </trkpt>
      <trkpt lat="46.78485" lon="-1.59274">
        <ele>103</ele>
        <time>2014-05-25T08:49:50.554Z</time>
      </trkpt>
      <trkpt lat="46.78502" lon="-1.5924">
        <ele>102</ele>
        <time>2014-05-25T08:50:03.551Z</time>
      </trkpt>
      <trkpt lat="46.78532" lon="-1.59179">
        <ele>105</ele>
        <time>2014-05-25T08:50:25.551Z</time>
      </trkpt>
      <trkpt lat="46.78559" lon="-1.59124">
        <ele>102</ele>
        <time>2014-05-25T08:50:47.554Z</time>
      </trkpt>
      <trkpt lat="46.78573" lon="-1.59076">
        <ele>99</ele>
        <time>2014-05-25T08:51:03.551Z</time>
      </trkpt>
      <trkpt lat="46.78574" lon="-1.59052">
        <ele>102</ele>
        <time>2014-05-25T08:51:12.549Z</time>
      </trkpt>
      <trkpt lat="46.78562" lon="-1.58987">
        <ele>104</ele>
        <time>2014-05-25T08:51:36.55Z</time>
      </trkpt>
      <trkpt lat="46.78575" lon="-1.58982">
        <ele>101</ele>
        <time>2014-05-25T08:51:44.55Z</time>
      </trkpt>
      <trkpt lat="46.78673" lon="-1.589">
        <ele>103</ele>
        <time>2014-05-25T08:52:19.549Z</time>
      </trkpt>
      <trkpt lat="46.78688" lon="-1.58896">
        <ele>103</ele>
        <time>2014-05-25T08:52:23.55Z</time>
      </trkpt>
      <trkpt lat="46.78698" lon="-1.58921">
        <ele>104</ele>
        <time>2014-05-25T08:52:27.55Z</time>
      </trkpt>
      <trkpt lat="46.78698" lon="-1.58947">
        <ele>103</ele>
        <time>2014-05-25T08:52:30.55Z</time>
      </trkpt>
      <trkpt lat="46.78714" lon="-1.59051">
        <ele>105</ele>
        <time>2014-05-25T08:52:40.551Z</time>
      </trkpt>
      <trkpt lat="46.78719" lon="-1.59079">
        <ele>103</ele>
        <time>2014-05-25T08:52:43.546Z</time>
      </trkpt>
      <trkpt lat="46.78727" lon="-1.59103">
        <ele>103</ele>
        <time>2014-05-25T08:52:45.548Z</time>
      </trkpt>
      <trkpt lat="46.78737" lon="-1.59126">
        <ele>99</ele>
        <time>2014-05-25T08:52:47.55Z</time>
      </trkpt>
      <trkpt lat="46.78753" lon="-1.59128">
        <ele>97</ele>
        <time>2014-05-25T08:52:50.545Z</time>
      </trkpt>
      <trkpt lat="46.78768" lon="-1.59139">
        <ele>100</ele>
        <time>2014-05-25T08:52:57.549Z</time>
      </trkpt>
      <trkpt lat="46.78771" lon="-1.59158">
        <ele>103</ele>
        <time>2014-05-25T08:53:00.55Z</time>
      </trkpt>
      <trkpt lat="46.78767" lon="-1.59178">
        <ele>101</ele>
        <time>2014-05-25T08:53:03.548Z</time>
      </trkpt>
      <trkpt lat="46.78732" lon="-1.59285">
        <ele>92</ele>
        <time>2014-05-25T08:53:24.545Z</time>
      </trkpt>
      <trkpt lat="46.78723" lon="-1.5933">
        <ele>91</ele>
        <time>2014-05-25T08:53:32.548Z</time>
      </trkpt>
      <trkpt lat="46.78711" lon="-1.59344">
        <ele>88</ele>
        <time>2014-05-25T08:53:37.546Z</time>
      </trkpt>
      <trkpt lat="46.78683" lon="-1.59383">
        <ele>92</ele>
        <time>2014-05-25T08:53:53.546Z</time>
      </trkpt>
      <trkpt lat="46.78682" lon="-1.59404">
        <ele>93</ele>
        <time>2014-05-25T08:53:59.548Z</time>
      </trkpt>
      <trkpt lat="46.78691" lon="-1.59418">
        <ele>97</ele>
        <time>2014-05-25T08:54:03.548Z</time>
      </trkpt>
      <trkpt lat="46.78719" lon="-1.59458">
        <ele>108</ele>
        <time>2014-05-25T08:54:22.549Z</time>
      </trkpt>
      <trkpt lat="46.78712" lon="-1.59478">
        <ele>103</ele>
        <time>2014-05-25T08:54:29.545Z</time>
      </trkpt>
      <trkpt lat="46.78708" lon="-1.59498">
        <ele>102</ele>
        <time>2014-05-25T08:54:36.548Z</time>
      </trkpt>
      <trkpt lat="46.78757" lon="-1.59646">
        <ele>112</ele>
        <time>2014-05-25T08:55:28.546Z</time>
      </trkpt>
      <trkpt lat="46.78778" lon="-1.59724">
        <ele>111</ele>
        <time>2014-05-25T08:55:52.548Z</time>
      </trkpt>
      <trkpt lat="46.78772" lon="-1.59746">
        <ele>115</ele>
        <time>2014-05-25T08:55:58.549Z</time>
      </trkpt>
      <trkpt lat="46.78758" lon="-1.59759">
        <ele>113</ele>
        <time>2014-05-25T08:56:03.546Z</time>
      </trkpt>
      <trkpt lat="46.78654" lon="-1.59827">
        <ele>110</ele>
        <time>2014-05-25T08:56:38.549Z</time>
      </trkpt>
      <trkpt lat="46.786" lon="-1.59854">
        <ele>112</ele>
        <time>2014-05-25T08:56:52.545Z</time>
      </trkpt>
      <trkpt lat="46.78377" lon="-1.59902">
        <ele>108</ele>
        <time>2014-05-25T08:57:34.548Z</time>
      </trkpt>
      <trkpt lat="46.78314" lon="-1.59904">
        <ele>103</ele>
        <time>2014-05-25T08:57:43.549Z</time>
      </trkpt>
      <trkpt lat="46.7831" lon="-1.59884">
        <ele>102</ele>
        <time>2014-05-25T08:57:47.545Z</time>
      </trkpt>
      <trkpt lat="46.78316" lon="-1.59814">
        <ele>102</ele>
        <time>2014-05-25T08:57:56.545Z</time>
      </trkpt>
      <trkpt lat="46.78331" lon="-1.59647">
        <ele>94</ele>
        <time>2014-05-25T08:58:11.549Z</time>
      </trkpt>
      <trkpt lat="46.78325" lon="-1.59626">
        <ele>92</ele>
        <time>2014-05-25T08:58:13.55Z</time>
      </trkpt>
      <trkpt lat="46.78316" lon="-1.59576">
        <ele>89</ele>
        <time>2014-05-25T08:58:17.55Z</time>
      </trkpt>
      <trkpt lat="46.7831" lon="-1.59541">
        <ele>86</ele>
        <time>2014-05-25T08:58:21.55Z</time>
      </trkpt>
      <trkpt lat="46.78294" lon="-1.59553">
        <ele>84</ele>
        <time>2014-05-25T08:58:25.549Z</time>
      </trkpt>
      <trkpt lat="46.7812" lon="-1.59751">
        <ele>75</ele>
        <time>2014-05-25T08:58:57.546Z</time>
      </trkpt>
      <trkpt lat="46.78114" lon="-1.59779">
        <ele>74</ele>
        <time>2014-05-25T08:59:00.548Z</time>
      </trkpt>
      <trkpt lat="46.78086" lon="-1.59893">
        <ele>75</ele>
        <time>2014-05-25T08:59:13.545Z</time>
      </trkpt>
      <trkpt lat="46.78085" lon="-1.5992">
        <ele>77</ele>
        <time>2014-05-25T08:59:16.546Z</time>
      </trkpt>
      <trkpt lat="46.7809" lon="-1.5994">
        <ele>76</ele>
        <time>2014-05-25T08:59:18.549Z</time>
      </trkpt>
      <trkpt lat="46.78097" lon="-1.59963">
        <ele>76</ele>
        <time>2014-05-25T08:59:21.548Z</time>
      </trkpt>
      <trkpt lat="46.78151" lon="-1.60077">
        <ele>76</ele>
        <time>2014-05-25T08:59:38.55Z</time>
      </trkpt>
      <trkpt lat="46.78163" lon="-1.60092">
        <ele>74</ele>
        <time>2014-05-25T08:59:41.548Z</time>
      </trkpt>
      <trkpt lat="46.78178" lon="-1.601">
        <ele>76</ele>
        <time>2014-05-25T08:59:44.549Z</time>
      </trkpt>
      <trkpt lat="46.78193" lon="-1.60098">
        <ele>76</ele>
        <time>2014-05-25T08:59:48.549Z</time>
      </trkpt>
      <trkpt lat="46.78218" lon="-1.60088">
        <ele>74</ele>
        <time>2014-05-25T08:59:58.546Z</time>
      </trkpt>
      <trkpt lat="46.78276" lon="-1.6006">
        <ele>84</ele>
        <time>2014-05-25T09:00:27.548Z</time>
      </trkpt>
      <trkpt lat="46.78289" lon="-1.60066">
        <ele>91</ele>
        <time>2014-05-25T09:00:38.548Z</time>
      </trkpt>
      <trkpt lat="46.78308" lon="-1.60085">
        <ele>94</ele>
        <time>2014-05-25T09:00:55.549Z</time>
      </trkpt>
      <trkpt lat="46.78321" lon="-1.6008">
        <ele>94</ele>
        <time>2014-05-25T09:01:02.545Z</time>
      </trkpt>
      <trkpt lat="46.78351" lon="-1.6007">
        <ele>94</ele>
        <time>2014-05-25T09:01:22.548Z</time>
      </trkpt>
      <trkpt lat="46.78358" lon="-1.60088">
        <ele>96</ele>
        <time>2014-05-25T09:01:28.548Z</time>
      </trkpt>
      <trkpt lat="46.78363" lon="-1.60135">
        <ele>96</ele>
        <time>2014-05-25T09:01:35.548Z</time>
      </trkpt>
      <trkpt lat="46.78372" lon="-1.60267">
        <ele>98</ele>
        <time>2014-05-25T09:01:55.548Z</time>
      </trkpt>
      <trkpt lat="46.78365" lon="-1.60412">
        <ele>93</ele>
        <time>2014-05-25T09:02:07.548Z</time>
      </trkpt>
      <trkpt lat="46.78356" lon="-1.60435">
        <ele>90</ele>
        <time>2014-05-25T09:02:09.55Z</time>
      </trkpt>
      <trkpt lat="46.78343" lon="-1.60455">
        <ele>89</ele>
        <time>2014-05-25T09:02:11.549Z</time>
      </trkpt>
      <trkpt lat="46.78312" lon="-1.60503">
        <ele>87</ele>
        <time>2014-05-25T09:02:20.548Z</time>
      </trkpt>
      <trkpt lat="46.78248" lon="-1.60654">
        <ele>87</ele>
        <time>2014-05-25T09:02:42.548Z</time>
      </trkpt>
      <trkpt lat="46.78159" lon="-1.60785">
        <ele>80</ele>
        <time>2014-05-25T09:03:00.546Z</time>
      </trkpt>
      <trkpt lat="46.78136" lon="-1.60839">
        <ele>79</ele>
        <time>2014-05-25T09:03:08.546Z</time>
      </trkpt>
      <trkpt lat="46.78114" lon="-1.60945">
        <ele>80</ele>
        <time>2014-05-25T09:03:24.548Z</time>
      </trkpt>
      <trkpt lat="46.78117" lon="-1.61011">
        <ele>81</ele>
        <time>2014-05-25T09:03:33.553Z</time>
      </trkpt>
      <trkpt lat="46.78124" lon="-1.61115">
        <ele>82</ele>
        <time>2014-05-25T09:03:46.545Z</time>
      </trkpt>
      <trkpt lat="46.78108" lon="-1.61128">
        <ele>80</ele>
        <time>2014-05-25T09:03:50.55Z</time>
      </trkpt>
      <trkpt lat="46.78094" lon="-1.61143">
        <ele>81</ele>
        <time>2014-05-25T09:03:53.546Z</time>
      </trkpt>
      <trkpt lat="46.78057" lon="-1.61181">
        <ele>81</ele>
        <time>2014-05-25T09:03:59.55Z</time>
      </trkpt>
      <trkpt lat="46.78042" lon="-1.61183">
        <ele>81</ele>
        <time>2014-05-25T09:04:01.546Z</time>
      </trkpt>
      <trkpt lat="46.78026" lon="-1.61176">
        <ele>79</ele>
        <time>2014-05-25T09:04:03.55Z</time>
      </trkpt>
      <trkpt lat="46.78014" lon="-1.6116">
        <ele>80</ele>
        <time>2014-05-25T09:04:05.548Z</time>
      </trkpt>
      <trkpt lat="46.78012" lon="-1.61132">
        <ele>78</ele>
        <time>2014-05-25T09:04:08.545Z</time>
      </trkpt>
      <trkpt lat="46.7801" lon="-1.61091">
        <ele>76</ele>
        <time>2014-05-25T09:04:13.55Z</time>
      </trkpt>
      <trkpt lat="46.77998" lon="-1.61069">
        <ele>76</ele>
        <time>2014-05-25T09:04:17.55Z</time>
      </trkpt>
      <trkpt lat="46.77983" lon="-1.61062">
        <ele>76</ele>
        <time>2014-05-25T09:04:21.546Z</time>
      </trkpt>
      <trkpt lat="46.7795" lon="-1.61052">
        <ele>73</ele>
        <time>2014-05-25T09:04:31.546Z</time>
      </trkpt>
      <trkpt lat="46.77936" lon="-1.61034">
        <ele>73</ele>
        <time>2014-05-25T09:05:10.548Z</time>
      </trkpt>
      <trkpt lat="46.77922" lon="-1.61022">
        <ele>72</ele>
        <time>2014-05-25T09:05:17.548Z</time>
      </trkpt>
      <trkpt lat="46.77917" lon="-1.61">
        <ele>71</ele>
        <time>2014-05-25T09:05:25.549Z</time>
      </trkpt>
      <trkpt lat="46.77893" lon="-1.60975">
        <ele>71</ele>
        <time>2014-05-25T09:05:39.55Z</time>
      </trkpt>
      <trkpt lat="46.77879" lon="-1.60977">
        <ele>71</ele>
        <time>2014-05-25T09:05:45.549Z</time>
      </trkpt>
      <trkpt lat="46.77867" lon="-1.60988">
        <ele>72</ele>
        <time>2014-05-25T09:05:51.55Z</time>
      </trkpt>
      <trkpt lat="46.77836" lon="-1.61023">
        <ele>76</ele>
        <time>2014-05-25T09:06:09.548Z</time>
      </trkpt>
      <trkpt lat="46.77826" lon="-1.61039">
        <ele>78</ele>
        <time>2014-05-25T09:06:15.548Z</time>
      </trkpt>
      <trkpt lat="46.77809" lon="-1.61055">
        <ele>78</ele>
        <time>2014-05-25T09:06:22.549Z</time>
      </trkpt>
      <trkpt lat="46.77801" lon="-1.6108">
        <ele>78</ele>
        <time>2014-05-25T09:06:29.551Z</time>
      </trkpt>
      <trkpt lat="46.77789" lon="-1.61095">
        <ele>75</ele>
        <time>2014-05-25T09:06:34.546Z</time>
      </trkpt>
      <trkpt lat="46.77785" lon="-1.61115">
        <ele>73</ele>
        <time>2014-05-25T09:06:39.548Z</time>
      </trkpt>
      <trkpt lat="46.77775" lon="-1.6113">
        <ele>75</ele>
        <time>2014-05-25T09:06:45.548Z</time>
      </trkpt>
      <trkpt lat="46.77758" lon="-1.61154">
        <ele>74</ele>
        <time>2014-05-25T09:06:53.55Z</time>
      </trkpt>
      <trkpt lat="46.77744" lon="-1.61182">
        <ele>76</ele>
        <time>2014-05-25T09:07:03.553Z</time>
      </trkpt>
      <trkpt lat="46.77733" lon="-1.61205">
        <ele>75</ele>
        <time>2014-05-25T09:07:08.553Z</time>
      </trkpt>
      <trkpt lat="46.77718" lon="-1.61229">
        <ele>75</ele>
        <time>2014-05-25T09:07:15.546Z</time>
      </trkpt>
      <trkpt lat="46.77693" lon="-1.61209">
        <ele>75</ele>
        <time>2014-05-25T09:07:56.548Z</time>
      </trkpt>
      <trkpt lat="46.77676" lon="-1.61208">
        <ele>77</ele>
        <time>2014-05-25T09:08:13.548Z</time>
      </trkpt>
      <trkpt lat="46.77659" lon="-1.61175">
        <ele>84</ele>
        <time>2014-05-25T09:08:35.55Z</time>
      </trkpt>
      <trkpt lat="46.77639" lon="-1.61168">
        <ele>89</ele>
        <time>2014-05-25T09:08:55.551Z</time>
      </trkpt>
      <trkpt lat="46.77646" lon="-1.61132">
        <ele>92</ele>
        <time>2014-05-25T09:09:04.549Z</time>
      </trkpt>
      <trkpt lat="46.77665" lon="-1.61102">
        <ele>92</ele>
        <time>2014-05-25T09:09:16.551Z</time>
      </trkpt>
      <trkpt lat="46.77681" lon="-1.61096">
        <ele>91</ele>
        <time>2014-05-25T09:09:23.55Z</time>
      </trkpt>
      <trkpt lat="46.77731" lon="-1.61093">
        <ele>87</ele>
        <time>2014-05-25T09:09:38.55Z</time>
      </trkpt>
      <trkpt lat="46.77745" lon="-1.61093">
        <ele>85</ele>
        <time>2014-05-25T09:09:43.549Z</time>
      </trkpt>
      <trkpt lat="46.77766" lon="-1.61091">
        <ele>81</ele>
        <time>2014-05-25T09:09:49.546Z</time>
      </trkpt>
      <trkpt lat="46.7776" lon="-1.61072">
        <ele>77</ele>
        <time>2014-05-25T09:09:56.549Z</time>
      </trkpt>
      <trkpt lat="46.77745" lon="-1.61065">
        <ele>77</ele>
        <time>2014-05-25T09:10:02.549Z</time>
      </trkpt>
      <trkpt lat="46.77724" lon="-1.61031">
        <ele>84</ele>
        <time>2014-05-25T09:10:24.55Z</time>
      </trkpt>
      <trkpt lat="46.77736" lon="-1.61019">
        <ele>88</ele>
        <time>2014-05-25T09:10:45.55Z</time>
      </trkpt>
      <trkpt lat="46.77753" lon="-1.61015">
        <ele>90</ele>
        <time>2014-05-25T09:10:52.55Z</time>
      </trkpt>
      <trkpt lat="46.7777" lon="-1.61017">
        <ele>91</ele>
        <time>2014-05-25T09:10:57.549Z</time>
      </trkpt>
      <trkpt lat="46.77785" lon="-1.61018">
        <ele>91</ele>
        <time>2014-05-25T09:11:01.545Z</time>
      </trkpt>
      <trkpt lat="46.778" lon="-1.61007">
        <ele>91</ele>
        <time>2014-05-25T09:11:05.549Z</time>
      </trkpt>
      <trkpt lat="46.77806" lon="-1.60984">
        <ele>85</ele>
        <time>2014-05-25T09:11:12.545Z</time>
      </trkpt>
      <trkpt lat="46.77803" lon="-1.60964">
        <ele>83</ele>
        <time>2014-05-25T09:11:18.551Z</time>
      </trkpt>
      <trkpt lat="46.77794" lon="-1.60935">
        <ele>85</ele>
        <time>2014-05-25T09:11:39.549Z</time>
      </trkpt>
      <trkpt lat="46.77803" lon="-1.60919">
        <ele>85</ele>
        <time>2014-05-25T09:11:43.545Z</time>
      </trkpt>
      <trkpt lat="46.77802" lon="-1.60899">
        <ele>86</ele>
        <time>2014-05-25T09:11:48.546Z</time>
      </trkpt>
      <trkpt lat="46.77795" lon="-1.60879">
        <ele>83</ele>
        <time>2014-05-25T09:11:55.549Z</time>
      </trkpt>
      <trkpt lat="46.77788" lon="-1.6086">
        <ele>79</ele>
        <time>2014-05-25T09:12:01.55Z</time>
      </trkpt>
      <trkpt lat="46.77792" lon="-1.60835">
        <ele>77</ele>
        <time>2014-05-25T09:12:06.548Z</time>
      </trkpt>
      <trkpt lat="46.77801" lon="-1.60795">
        <ele>80</ele>
        <time>2014-05-25T09:12:13.55Z</time>
      </trkpt>
      <trkpt lat="46.77795" lon="-1.60773">
        <ele>79</ele>
        <time>2014-05-25T09:12:19.545Z</time>
      </trkpt>
      <trkpt lat="46.77769" lon="-1.60671">
        <ele>82</ele>
        <time>2014-05-25T09:12:45.546Z</time>
      </trkpt>
      <trkpt lat="46.77741" lon="-1.6051">
        <ele>91</ele>
        <time>2014-05-25T09:13:28.548Z</time>
      </trkpt>
      <trkpt lat="46.77722" lon="-1.60458">
        <ele>85</ele>
        <time>2014-05-25T09:13:46.545Z</time>
      </trkpt>
      <trkpt lat="46.77699" lon="-1.60398">
        <ele>88</ele>
        <time>2014-05-25T09:14:01.548Z</time>
      </trkpt>
      <trkpt lat="46.77711" lon="-1.60387">
        <ele>91</ele>
        <time>2014-05-25T09:14:06.549Z</time>
      </trkpt>
      <trkpt lat="46.77727" lon="-1.6039">
        <ele>91</ele>
        <time>2014-05-25T09:14:10.546Z</time>
      </trkpt>
      <trkpt lat="46.77754" lon="-1.60393">
        <ele>89</ele>
        <time>2014-05-25T09:14:15.545Z</time>
      </trkpt>
      <trkpt lat="46.77769" lon="-1.60388">
        <ele>90</ele>
        <time>2014-05-25T09:14:19.545Z</time>
      </trkpt>
      <trkpt lat="46.77778" lon="-1.6037">
        <ele>87</ele>
        <time>2014-05-25T09:14:21.546Z</time>
      </trkpt>
      <trkpt lat="46.77786" lon="-1.60348">
        <ele>85</ele>
        <time>2014-05-25T09:14:24.545Z</time>
      </trkpt>
      <trkpt lat="46.77835" lon="-1.60198">
        <ele>84</ele>
        <time>2014-05-25T09:14:45.548Z</time>
      </trkpt>
      <trkpt lat="46.7785" lon="-1.60136">
        <ele>85</ele>
        <time>2014-05-25T09:14:56.545Z</time>
      </trkpt>
      <trkpt lat="46.77855" lon="-1.60083">
        <ele>87</ele>
        <time>2014-05-25T09:15:05.55Z</time>
      </trkpt>
      <trkpt lat="46.77859" lon="-1.6003">
        <ele>90</ele>
        <time>2014-05-25T09:15:14.546Z</time>
      </trkpt>
      <trkpt lat="46.77867" lon="-1.60009">
        <ele>86</ele>
        <time>2014-05-25T09:15:19.546Z</time>
      </trkpt>
      <trkpt lat="46.77886" lon="-1.59954">
        <ele>84</ele>
        <time>2014-05-25T09:15:27.548Z</time>
      </trkpt>
      <trkpt lat="46.77919" lon="-1.59834">
        <ele>81</ele>
        <time>2014-05-25T09:15:46.55Z</time>
      </trkpt>
      <trkpt lat="46.77933" lon="-1.59833">
        <ele>80</ele>
        <time>2014-05-25T09:15:50.553Z</time>
      </trkpt>
      <trkpt lat="46.77961" lon="-1.59826">
        <ele>82</ele>
        <time>2014-05-25T09:15:56.546Z</time>
      </trkpt>
      <trkpt lat="46.77969" lon="-1.5981">
        <ele>82</ele>
        <time>2014-05-25T09:16:00.545Z</time>
      </trkpt>
      <trkpt lat="46.77986" lon="-1.59751">
        <ele>81</ele>
        <time>2014-05-25T09:16:10.55Z</time>
      </trkpt>
      <trkpt lat="46.77991" lon="-1.59715">
        <ele>84</ele>
        <time>2014-05-25T09:16:15.545Z</time>
      </trkpt>
      <trkpt lat="46.77998" lon="-1.59671">
        <ele>79</ele>
        <time>2014-05-25T09:16:20.548Z</time>
      </trkpt>
      <trkpt lat="46.78022" lon="-1.59517">
        <ele>79</ele>
        <time>2014-05-25T09:16:58.55Z</time>
      </trkpt>
      <trkpt lat="46.78021" lon="-1.59436">
        <ele>80</ele>
        <time>2014-05-25T09:17:15.548Z</time>
      </trkpt>
      <trkpt lat="46.78028" lon="-1.59409">
        <ele>84</ele>
        <time>2014-05-25T09:17:24.548Z</time>
      </trkpt>
      <trkpt lat="46.78087" lon="-1.59264">
        <ele>80</ele>
        <time>2014-05-25T09:17:58.545Z</time>
      </trkpt>
      <trkpt lat="46.78091" lon="-1.59244">
        <ele>81</ele>
        <time>2014-05-25T09:18:03.548Z</time>
      </trkpt>
      <trkpt lat="46.78085" lon="-1.59223">
        <ele>82</ele>
        <time>2014-05-25T09:18:08.546Z</time>
      </trkpt>
      <trkpt lat="46.78069" lon="-1.59204">
        <ele>86</ele>
        <time>2014-05-25T09:18:15.548Z</time>
      </trkpt>
      <trkpt lat="46.78017" lon="-1.59145">
        <ele>92</ele>
        <time>2014-05-25T09:18:38.546Z</time>
      </trkpt>
      <trkpt lat="46.78004" lon="-1.59157">
        <ele>91</ele>
        <time>2014-05-25T09:18:44.546Z</time>
      </trkpt>
      <trkpt lat="46.77914" lon="-1.5925">
        <ele>95</ele>
        <time>2014-05-25T09:19:23.549Z</time>
      </trkpt>
      <trkpt lat="46.77888" lon="-1.59275">
        <ele>96</ele>
        <time>2014-05-25T09:19:33.548Z</time>
      </trkpt>
      <trkpt lat="46.77852" lon="-1.59303">
        <ele>101</ele>
        <time>2014-05-25T09:19:47.545Z</time>
      </trkpt>
      <trkpt lat="46.77744" lon="-1.59353">
        <ele>102</ele>
        <time>2014-05-25T09:20:20.545Z</time>
      </trkpt>
      <trkpt lat="46.77643" lon="-1.59411">
        <ele>101</ele>
        <time>2014-05-25T09:20:47.545Z</time>
      </trkpt>
      <trkpt lat="46.77626" lon="-1.5941">
        <ele>102</ele>
        <time>2014-05-25T09:20:51.546Z</time>
      </trkpt>
      <trkpt lat="46.77615" lon="-1.59397">
        <ele>102</ele>
        <time>2014-05-25T09:20:55.546Z</time>
      </trkpt>
      <trkpt lat="46.77607" lon="-1.59378">
        <ele>104</ele>
        <time>2014-05-25T09:20:59.548Z</time>
      </trkpt>
      <trkpt lat="46.77582" lon="-1.59332">
        <ele>106</ele>
        <time>2014-05-25T09:21:08.545Z</time>
      </trkpt>
      <trkpt lat="46.77563" lon="-1.59309">
        <ele>105</ele>
        <time>2014-05-25T09:21:13.55Z</time>
      </trkpt>
      <trkpt lat="46.77548" lon="-1.593">
        <ele>104</ele>
        <time>2014-05-25T09:21:16.545Z</time>
      </trkpt>
      <trkpt lat="46.77533" lon="-1.59297">
        <ele>105</ele>
        <time>2014-05-25T09:21:19.546Z</time>
      </trkpt>
      <trkpt lat="46.77396" lon="-1.59263">
        <ele>107</ele>
        <time>2014-05-25T09:21:50.545Z</time>
      </trkpt>
      <trkpt lat="46.77263" lon="-1.59212">
        <ele>106</ele>
        <time>2014-05-25T09:22:21.545Z</time>
      </trkpt>
      <trkpt lat="46.7708" lon="-1.59157">
        <ele>105</ele>
        <time>2014-05-25T09:22:58.548Z</time>
      </trkpt>
      <trkpt lat="46.77081" lon="-1.59137">
        <ele>106</ele>
        <time>2014-05-25T09:23:02.545Z</time>
      </trkpt>
      <trkpt lat="46.77119" lon="-1.58945">
        <ele>104</ele>
        <time>2014-05-25T09:23:27.546Z</time>
      </trkpt>
      <trkpt lat="46.77122" lon="-1.58853">
        <ele>102</ele>
        <time>2014-05-25T09:23:39.546Z</time>
      </trkpt>
      <trkpt lat="46.77108" lon="-1.58846">
        <ele>101</ele>
        <time>2014-05-25T09:23:44.546Z</time>
      </trkpt>
      <trkpt lat="46.76996" lon="-1.58822">
        <ele>105</ele>
        <time>2014-05-25T09:24:09.545Z</time>
      </trkpt>
      <trkpt lat="46.76881" lon="-1.58828">
        <ele>108</ele>
        <time>2014-05-25T09:24:43.545Z</time>
      </trkpt>
      <trkpt lat="46.76784" lon="-1.58798">
        <ele>111</ele>
        <time>2014-05-25T09:25:15.545Z</time>
      </trkpt>
      <trkpt lat="46.76743" lon="-1.58784">
        <ele>111</ele>
        <time>2014-05-25T09:25:29.545Z</time>
      </trkpt>
      <trkpt lat="46.76693" lon="-1.58773">
        <ele>111</ele>
        <time>2014-05-25T09:25:44.548Z</time>
      </trkpt>
      <trkpt lat="46.76687" lon="-1.58796">
        <ele>111</ele>
        <time>2014-05-25T09:25:50.548Z</time>
      </trkpt>
      <trkpt lat="46.76684" lon="-1.58825">
        <ele>112</ele>
        <time>2014-05-25T09:25:56.551Z</time>
      </trkpt>
      <trkpt lat="46.7667" lon="-1.58903">
        <ele>115</ele>
        <time>2014-05-25T09:26:09.545Z</time>
      </trkpt>
      <trkpt lat="46.76656" lon="-1.58904">
        <ele>115</ele>
        <time>2014-05-25T09:26:13.546Z</time>
      </trkpt>
      <trkpt lat="46.76637" lon="-1.589">
        <ele>112</ele>
        <time>2014-05-25T09:26:21.548Z</time>
      </trkpt>
      <trkpt lat="46.76634" lon="-1.58907">
        <ele>113</ele>
        <time>2014-05-25T09:27:21.553Z</time>
      </trkpt>
      <trkpt lat="46.76632" lon="-1.58905">
        <ele>114</ele>
        <time>2014-05-25T09:28:22.548Z</time>
      </trkpt>
      <trkpt lat="46.76629" lon="-1.58911">
        <ele>114</ele>
        <time>2014-05-25T09:29:22.55Z</time>
      </trkpt>
      <trkpt lat="46.76633" lon="-1.58904">
        <ele>118</ele>
        <time>2014-05-25T09:30:22.551Z</time>
      </trkpt>
      <trkpt lat="46.76629" lon="-1.58909">
        <ele>115</ele>
        <time>2014-05-25T09:31:23.55Z</time>
      </trkpt>
      <trkpt lat="46.76629" lon="-1.58909">
        <ele>115</ele>
        <time>2014-05-25T09:32:23.553Z</time>
      </trkpt>
      <trkpt lat="46.76627" lon="-1.58903">
        <ele>114</ele>
        <time>2014-05-25T09:33:23.553Z</time>
      </trkpt>
      <trkpt lat="46.76627" lon="-1.58902">
        <ele>116</ele>
        <time>2014-05-25T09:34:24.551Z</time>
      </trkpt>
      <trkpt lat="46.76615" lon="-1.58889">
        <ele>115</ele>
        <time>2014-05-25T09:35:08.549Z</time>
      </trkpt>
      <trkpt lat="46.76557" lon="-1.588">
        <ele>115</ele>
        <time>2014-05-25T09:35:34.549Z</time>
      </trkpt>
      <trkpt lat="46.76566" lon="-1.58785">
        <ele>117</ele>
        <time>2014-05-25T09:35:38.549Z</time>
      </trkpt>
      <trkpt lat="46.76592" lon="-1.58759">
        <ele>118</ele>
        <time>2014-05-25T09:35:45.546Z</time>
      </trkpt>
      <trkpt lat="46.76691" lon="-1.58653">
        <ele>114</ele>
        <time>2014-05-25T09:36:08.546Z</time>
      </trkpt>
      <trkpt lat="46.76714" lon="-1.58633">
        <ele>111</ele>
        <time>2014-05-25T09:36:13.546Z</time>
      </trkpt>
      <trkpt lat="46.76716" lon="-1.58613">
        <ele>108</ele>
        <time>2014-05-25T09:36:16.548Z</time>
      </trkpt>
      <trkpt lat="46.7671" lon="-1.58593">
        <ele>108</ele>
        <time>2014-05-25T09:36:19.546Z</time>
      </trkpt>
      <trkpt lat="46.76703" lon="-1.58553">
        <ele>105</ele>
        <time>2014-05-25T09:36:24.545Z</time>
      </trkpt>
      <trkpt lat="46.76709" lon="-1.58528">
        <ele>104</ele>
        <time>2014-05-25T09:36:27.545Z</time>
      </trkpt>
      <trkpt lat="46.76722" lon="-1.58491">
        <ele>102</ele>
        <time>2014-05-25T09:36:31.548Z</time>
      </trkpt>
      <trkpt lat="46.76754" lon="-1.58403">
        <ele>101</ele>
        <time>2014-05-25T09:36:41.546Z</time>
      </trkpt>
      <trkpt lat="46.76749" lon="-1.58379">
        <ele>101</ele>
        <time>2014-05-25T09:36:44.545Z</time>
      </trkpt>
      <trkpt lat="46.76738" lon="-1.58355">
        <ele>101</ele>
        <time>2014-05-25T09:36:47.546Z</time>
      </trkpt>
      <trkpt lat="46.76732" lon="-1.5833">
        <ele>101</ele>
        <time>2014-05-25T09:36:50.548Z</time>
      </trkpt>
      <trkpt lat="46.76728" lon="-1.58298">
        <ele>100</ele>
        <time>2014-05-25T09:36:54.548Z</time>
      </trkpt>
      <trkpt lat="46.76714" lon="-1.58192">
        <ele>95</ele>
        <time>2014-05-25T09:37:04.546Z</time>
      </trkpt>
      <trkpt lat="46.76677" lon="-1.58056">
        <ele>89</ele>
        <time>2014-05-25T09:37:16.546Z</time>
      </trkpt>
      <trkpt lat="46.76682" lon="-1.58037">
        <ele>87</ele>
        <time>2014-05-25T09:37:18.545Z</time>
      </trkpt>
      <trkpt lat="46.76694" lon="-1.58011">
        <ele>88</ele>
        <time>2014-05-25T09:37:21.546Z</time>
      </trkpt>
      <trkpt lat="46.76703" lon="-1.57981">
        <ele>87</ele>
        <time>2014-05-25T09:37:24.545Z</time>
      </trkpt>
      <trkpt lat="46.76705" lon="-1.57958">
        <ele>87</ele>
        <time>2014-05-25T09:37:26.546Z</time>
      </trkpt>
      <trkpt lat="46.76701" lon="-1.57925">
        <ele>85</ele>
        <time>2014-05-25T09:37:29.545Z</time>
      </trkpt>
      <trkpt lat="46.76693" lon="-1.57909">
        <ele>83</ele>
        <time>2014-05-25T09:37:31.548Z</time>
      </trkpt>
      <trkpt lat="46.76681" lon="-1.57898">
        <ele>82</ele>
        <time>2014-05-25T09:37:34.548Z</time>
      </trkpt>
      <trkpt lat="46.76671" lon="-1.57883">
        <ele>82</ele>
        <time>2014-05-25T09:37:39.55Z</time>
      </trkpt>
      <trkpt lat="46.76675" lon="-1.57863">
        <ele>86</ele>
        <time>2014-05-25T09:37:45.55Z</time>
      </trkpt>
      <trkpt lat="46.76689" lon="-1.57808">
        <ele>91</ele>
        <time>2014-05-25T09:37:57.546Z</time>
      </trkpt>
      <trkpt lat="46.76701" lon="-1.5777">
        <ele>94</ele>
        <time>2014-05-25T09:38:05.548Z</time>
      </trkpt>
      <trkpt lat="46.76721" lon="-1.577">
        <ele>97</ele>
        <time>2014-05-25T09:38:23.549Z</time>
      </trkpt>
      <trkpt lat="46.76713" lon="-1.57681">
        <ele>98</ele>
        <time>2014-05-25T09:38:33.548Z</time>
      </trkpt>
      <trkpt lat="46.767" lon="-1.5767">
        <ele>96</ele>
        <time>2014-05-25T09:38:41.548Z</time>
      </trkpt>
      <trkpt lat="46.76676" lon="-1.57666">
        <ele>101</ele>
        <time>2014-05-25T09:38:56.545Z</time>
      </trkpt>
      <trkpt lat="46.76568" lon="-1.57618">
        <ele>103</ele>
        <time>2014-05-25T09:39:35.545Z</time>
      </trkpt>
      <trkpt lat="46.76514" lon="-1.57583">
        <ele>102</ele>
        <time>2014-05-25T09:39:53.545Z</time>
      </trkpt>
      <trkpt lat="46.76504" lon="-1.57602">
        <ele>103</ele>
        <time>2014-05-25T09:39:58.545Z</time>
      </trkpt>
      <trkpt lat="46.76493" lon="-1.57621">
        <ele>101</ele>
        <time>2014-05-25T09:40:04.545Z</time>
      </trkpt>
      <trkpt lat="46.76468" lon="-1.57639">
        <ele>101</ele>
        <time>2014-05-25T09:40:11.544Z</time>
      </trkpt>
      <trkpt lat="46.76464" lon="-1.57659">
        <ele>100</ele>
        <time>2014-05-25T09:40:14.544Z</time>
      </trkpt>
      <trkpt lat="46.76444" lon="-1.57715">
        <ele>98</ele>
        <time>2014-05-25T09:40:24.545Z</time>
      </trkpt>
      <trkpt lat="46.76429" lon="-1.57739">
        <ele>97</ele>
        <time>2014-05-25T09:40:30.548Z</time>
      </trkpt>
      <trkpt lat="46.76417" lon="-1.57751">
        <ele>97</ele>
        <time>2014-05-25T09:40:38.545Z</time>
      </trkpt>
      <trkpt lat="46.76406" lon="-1.57769">
        <ele>95</ele>
        <time>2014-05-25T09:40:44.545Z</time>
      </trkpt>
      <trkpt lat="46.7639" lon="-1.57767">
        <ele>96</ele>
        <time>2014-05-25T09:40:51.546Z</time>
      </trkpt>
      <trkpt lat="46.76373" lon="-1.57762">
        <ele>97</ele>
        <time>2014-05-25T09:40:57.548Z</time>
      </trkpt>
      <trkpt lat="46.76357" lon="-1.5776">
        <ele>97</ele>
        <time>2014-05-25T09:41:02.548Z</time>
      </trkpt>
      <trkpt lat="46.7634" lon="-1.57757">
        <ele>97</ele>
        <time>2014-05-25T09:41:08.548Z</time>
      </trkpt>
      <trkpt lat="46.76327" lon="-1.5775">
        <ele>97</ele>
        <time>2014-05-25T09:41:13.546Z</time>
      </trkpt>
      <trkpt lat="46.76299" lon="-1.57734">
        <ele>98</ele>
        <time>2014-05-25T09:41:23.544Z</time>
      </trkpt>
      <trkpt lat="46.76288" lon="-1.57746">
        <ele>98</ele>
        <time>2014-05-25T09:41:27.545Z</time>
      </trkpt>
      <trkpt lat="46.76272" lon="-1.57746">
        <ele>97</ele>
        <time>2014-05-25T09:41:34.549Z</time>
      </trkpt>
      <trkpt lat="46.76259" lon="-1.57737">
        <ele>97</ele>
        <time>2014-05-25T09:41:40.546Z</time>
      </trkpt>
      <trkpt lat="46.7625" lon="-1.5772">
        <ele>96</ele>
        <time>2014-05-25T09:41:46.549Z</time>
      </trkpt>
      <trkpt lat="46.762" lon="-1.57634">
        <ele>99</ele>
        <time>2014-05-25T09:42:12.548Z</time>
      </trkpt>
      <trkpt lat="46.76185" lon="-1.57623">
        <ele>99</ele>
        <time>2014-05-25T09:42:18.546Z</time>
      </trkpt>
      <trkpt lat="46.76152" lon="-1.57592">
        <ele>101</ele>
        <time>2014-05-25T09:42:27.546Z</time>
      </trkpt>
      <trkpt lat="46.76118" lon="-1.5758">
        <ele>97</ele>
        <time>2014-05-25T09:42:37.546Z</time>
      </trkpt>
      <trkpt lat="46.76068" lon="-1.57575">
        <ele>98</ele>
        <time>2014-05-25T09:42:51.545Z</time>
      </trkpt>
      <trkpt lat="46.76045" lon="-1.57565">
        <ele>101</ele>
        <time>2014-05-25T09:43:00.548Z</time>
      </trkpt>
      <trkpt lat="46.75988" lon="-1.57506">
        <ele>108</ele>
        <time>2014-05-25T09:43:16.546Z</time>
      </trkpt>
      <trkpt lat="46.75978" lon="-1.57478">
        <ele>112</ele>
        <time>2014-05-25T09:43:24.546Z</time>
      </trkpt>
      <trkpt lat="46.75952" lon="-1.57359">
        <ele>116</ele>
        <time>2014-05-25T09:43:48.546Z</time>
      </trkpt>
      <trkpt lat="46.75938" lon="-1.57344">
        <ele>114</ele>
        <time>2014-05-25T09:43:52.549Z</time>
      </trkpt>
      <trkpt lat="46.75896" lon="-1.57315">
        <ele>104</ele>
        <time>2014-05-25T09:44:03.545Z</time>
      </trkpt>
      <trkpt lat="46.75883" lon="-1.57331">
        <ele>103</ele>
        <time>2014-05-25T09:44:08.546Z</time>
      </trkpt>
      <trkpt lat="46.75882" lon="-1.57352">
        <ele>100</ele>
        <time>2014-05-25T09:44:12.548Z</time>
      </trkpt>
      <trkpt lat="46.75871" lon="-1.57365">
        <ele>100</ele>
        <time>2014-05-25T09:44:18.545Z</time>
      </trkpt>
      <trkpt lat="46.75857" lon="-1.57366">
        <ele>99</ele>
        <time>2014-05-25T09:44:24.549Z</time>
      </trkpt>
      <trkpt lat="46.75837" lon="-1.57364">
        <ele>101</ele>
        <time>2014-05-25T09:44:34.549Z</time>
      </trkpt>
      <trkpt lat="46.75823" lon="-1.57364">
        <ele>103</ele>
        <time>2014-05-25T09:44:40.544Z</time>
      </trkpt>
      <trkpt lat="46.75809" lon="-1.57361">
        <ele>103</ele>
        <time>2014-05-25T09:44:51.545Z</time>
      </trkpt>
      <trkpt lat="46.75778" lon="-1.57371">
        <ele>106</ele>
        <time>2014-05-25T09:45:16.548Z</time>
      </trkpt>
      <trkpt lat="46.75764" lon="-1.57365">
        <ele>107</ele>
        <time>2014-05-25T09:45:25.545Z</time>
      </trkpt>
      <trkpt lat="46.75751" lon="-1.57371">
        <ele>108</ele>
        <time>2014-05-25T09:45:30.545Z</time>
      </trkpt>
      <trkpt lat="46.75731" lon="-1.57391">
        <ele>108</ele>
        <time>2014-05-25T09:45:38.545Z</time>
      </trkpt>
      <trkpt lat="46.7569" lon="-1.57476">
        <ele>121</ele>
        <time>2014-05-25T09:46:18.546Z</time>
      </trkpt>
      <trkpt lat="46.7568" lon="-1.57473">
        <ele>119</ele>
        <time>2014-05-25T09:47:18.548Z</time>
      </trkpt>
      <trkpt lat="46.75677" lon="-1.57453">
        <ele>119</ele>
        <time>2014-05-25T09:47:21.545Z</time>
      </trkpt>
      <trkpt lat="46.75679" lon="-1.5742">
        <ele>118</ele>
        <time>2014-05-25T09:47:25.545Z</time>
      </trkpt>
      <trkpt lat="46.75681" lon="-1.57396">
        <ele>116</ele>
        <time>2014-05-25T09:47:28.545Z</time>
      </trkpt>
      <trkpt lat="46.75681" lon="-1.57372">
        <ele>116</ele>
        <time>2014-05-25T09:47:31.546Z</time>
      </trkpt>
      <trkpt lat="46.75692" lon="-1.5736">
        <ele>117</ele>
        <time>2014-05-25T09:47:34.545Z</time>
      </trkpt>
      <trkpt lat="46.75702" lon="-1.57332">
        <ele>116</ele>
        <time>2014-05-25T09:47:40.544Z</time>
      </trkpt>
      <trkpt lat="46.75696" lon="-1.57311">
        <ele>115</ele>
        <time>2014-05-25T09:47:44.544Z</time>
      </trkpt>
      <trkpt lat="46.75701" lon="-1.57291">
        <ele>114</ele>
        <time>2014-05-25T09:47:49.545Z</time>
      </trkpt>
      <trkpt lat="46.75691" lon="-1.57267">
        <ele>113</ele>
        <time>2014-05-25T09:47:53.545Z</time>
      </trkpt>
      <trkpt lat="46.75681" lon="-1.57251">
        <ele>105</ele>
        <time>2014-05-25T09:47:57.546Z</time>
      </trkpt>
      <trkpt lat="46.75669" lon="-1.5726">
        <ele>107</ele>
        <time>2014-05-25T09:48:02.545Z</time>
      </trkpt>
      <trkpt lat="46.75656" lon="-1.57276">
        <ele>108</ele>
        <time>2014-05-25T09:48:07.545Z</time>
      </trkpt>
      <trkpt lat="46.75635" lon="-1.57304">
        <ele>106</ele>
        <time>2014-05-25T09:48:13.545Z</time>
      </trkpt>
      <trkpt lat="46.75627" lon="-1.5733">
        <ele>112</ele>
        <time>2014-05-25T09:48:21.545Z</time>
      </trkpt>
      <trkpt lat="46.75626" lon="-1.5735">
        <ele>112</ele>
        <time>2014-05-25T09:48:30.545Z</time>
      </trkpt>
      <trkpt lat="46.75636" lon="-1.57409">
        <ele>120</ele>
        <time>2014-05-25T09:48:54.545Z</time>
      </trkpt>
      <trkpt lat="46.75626" lon="-1.57425">
        <ele>118</ele>
        <time>2014-05-25T09:49:03.543Z</time>
      </trkpt>
      <trkpt lat="46.75612" lon="-1.5743">
        <ele>114</ele>
        <time>2014-05-25T09:49:11.548Z</time>
      </trkpt>
      <trkpt lat="46.75601" lon="-1.57414">
        <ele>112</ele>
        <time>2014-05-25T09:49:16.546Z</time>
      </trkpt>
      <trkpt lat="46.75569" lon="-1.57367">
        <ele>108</ele>
        <time>2014-05-25T09:49:24.545Z</time>
      </trkpt>
      <trkpt lat="46.75553" lon="-1.57357">
        <ele>106</ele>
        <time>2014-05-25T09:49:28.549Z</time>
      </trkpt>
      <trkpt lat="46.75538" lon="-1.57357">
        <ele>104</ele>
        <time>2014-05-25T09:49:34.548Z</time>
      </trkpt>
      <trkpt lat="46.75497" lon="-1.57356">
        <ele>106</ele>
        <time>2014-05-25T09:49:46.545Z</time>
      </trkpt>
      <trkpt lat="46.75489" lon="-1.57337">
        <ele>105</ele>
        <time>2014-05-25T09:49:52.544Z</time>
      </trkpt>
      <trkpt lat="46.75502" lon="-1.57329">
        <ele>107</ele>
        <time>2014-05-25T09:49:59.545Z</time>
      </trkpt>
      <trkpt lat="46.75515" lon="-1.5732">
        <ele>109</ele>
        <time>2014-05-25T09:50:06.545Z</time>
      </trkpt>
      <trkpt lat="46.75536" lon="-1.57284">
        <ele>108</ele>
        <time>2014-05-25T09:50:35.546Z</time>
      </trkpt>
      <trkpt lat="46.75536" lon="-1.57259">
        <ele>118</ele>
        <time>2014-05-25T09:50:55.545Z</time>
      </trkpt>
      <trkpt lat="46.75534" lon="-1.57236">
        <ele>117</ele>
        <time>2014-05-25T09:51:07.543Z</time>
      </trkpt>
      <trkpt lat="46.75548" lon="-1.57241">
        <ele>118</ele>
        <time>2014-05-25T09:51:26.548Z</time>
      </trkpt>
      <trkpt lat="46.7555" lon="-1.57262">
        <ele>116</ele>
        <time>2014-05-25T09:51:35.545Z</time>
      </trkpt>
      <trkpt lat="46.75562" lon="-1.57283">
        <ele>115</ele>
        <time>2014-05-25T09:51:42.545Z</time>
      </trkpt>
      <trkpt lat="46.75577" lon="-1.57285">
        <ele>117</ele>
        <time>2014-05-25T09:51:47.546Z</time>
      </trkpt>
      <trkpt lat="46.75592" lon="-1.57268">
        <ele>115</ele>
        <time>2014-05-25T09:51:51.545Z</time>
      </trkpt>
      <trkpt lat="46.75612" lon="-1.57243">
        <ele>112</ele>
        <time>2014-05-25T09:52:00.545Z</time>
      </trkpt>
      <trkpt lat="46.75603" lon="-1.57226">
        <ele>109</ele>
        <time>2014-05-25T09:52:16.545Z</time>
      </trkpt>
      <trkpt lat="46.75594" lon="-1.57177">
        <ele>114</ele>
        <time>2014-05-25T09:52:31.545Z</time>
      </trkpt>
      <trkpt lat="46.75598" lon="-1.57154">
        <ele>112</ele>
        <time>2014-05-25T09:52:35.549Z</time>
      </trkpt>
      <trkpt lat="46.75605" lon="-1.57117">
        <ele>113</ele>
        <time>2014-05-25T09:52:43.545Z</time>
      </trkpt>
      <trkpt lat="46.75605" lon="-1.57095">
        <ele>112</ele>
        <time>2014-05-25T09:52:49.545Z</time>
      </trkpt>
      <trkpt lat="46.75614" lon="-1.5705">
        <ele>111</ele>
        <time>2014-05-25T09:53:03.544Z</time>
      </trkpt>
      <trkpt lat="46.75614" lon="-1.57021">
        <ele>109</ele>
        <time>2014-05-25T09:53:11.548Z</time>
      </trkpt>
      <trkpt lat="46.75625" lon="-1.57034">
        <ele>107</ele>
        <time>2014-05-25T09:53:18.545Z</time>
      </trkpt>
      <trkpt lat="46.75629" lon="-1.57064">
        <ele>106</ele>
        <time>2014-05-25T09:53:24.545Z</time>
      </trkpt>
      <trkpt lat="46.75633" lon="-1.57187">
        <ele>101</ele>
        <time>2014-05-25T09:53:53.546Z</time>
      </trkpt>
      <trkpt lat="46.7564" lon="-1.57204">
        <ele>102</ele>
        <time>2014-05-25T09:53:57.546Z</time>
      </trkpt>
      <trkpt lat="46.7564" lon="-1.57229">
        <ele>99</ele>
        <time>2014-05-25T09:54:04.545Z</time>
      </trkpt>
      <trkpt lat="46.75654" lon="-1.57229">
        <ele>102</ele>
        <time>2014-05-25T09:54:09.546Z</time>
      </trkpt>
      <trkpt lat="46.75679" lon="-1.57229">
        <ele>105</ele>
        <time>2014-05-25T09:54:22.545Z</time>
      </trkpt>
      <trkpt lat="46.75703" lon="-1.57253">
        <ele>105</ele>
        <time>2014-05-25T09:54:31.545Z</time>
      </trkpt>
      <trkpt lat="46.75713" lon="-1.57266">
        <ele>103</ele>
        <time>2014-05-25T09:54:35.546Z</time>
      </trkpt>
      <trkpt lat="46.75725" lon="-1.5728">
        <ele>104</ele>
        <time>2014-05-25T09:54:41.545Z</time>
      </trkpt>
      <trkpt lat="46.75791" lon="-1.57326">
        <ele>115</ele>
        <time>2014-05-25T09:55:03.545Z</time>
      </trkpt>
      <trkpt lat="46.75831" lon="-1.57346">
        <ele>115</ele>
        <time>2014-05-25T09:55:14.546Z</time>
      </trkpt>
      <trkpt lat="46.75869" lon="-1.5736">
        <ele>103</ele>
        <time>2014-05-25T09:55:24.545Z</time>
      </trkpt>
      <trkpt lat="46.75879" lon="-1.57346">
        <ele>99</ele>
        <time>2014-05-25T09:55:29.548Z</time>
      </trkpt>
      <trkpt lat="46.75888" lon="-1.57309">
        <ele>101</ele>
        <time>2014-05-25T09:55:38.546Z</time>
      </trkpt>
      <trkpt lat="46.75883" lon="-1.57291">
        <ele>104</ele>
        <time>2014-05-25T09:55:43.545Z</time>
      </trkpt>
      <trkpt lat="46.7587" lon="-1.57283">
        <ele>102</ele>
        <time>2014-05-25T09:55:48.548Z</time>
      </trkpt>
      <trkpt lat="46.75855" lon="-1.57278">
        <ele>104</ele>
        <time>2014-05-25T09:55:58.546Z</time>
      </trkpt>
      <trkpt lat="46.75831" lon="-1.57264">
        <ele>110</ele>
        <time>2014-05-25T09:56:12.548Z</time>
      </trkpt>
      <trkpt lat="46.75821" lon="-1.57245">
        <ele>114</ele>
        <time>2014-05-25T09:56:22.549Z</time>
      </trkpt>
      <trkpt lat="46.75806" lon="-1.57203">
        <ele>117</ele>
        <time>2014-05-25T09:56:43.545Z</time>
      </trkpt>
      <trkpt lat="46.75799" lon="-1.57186">
        <ele>118</ele>
        <time>2014-05-25T09:56:50.545Z</time>
      </trkpt>
      <trkpt lat="46.75792" lon="-1.57169">
        <ele>115</ele>
        <time>2014-05-25T09:56:57.545Z</time>
      </trkpt>
      <trkpt lat="46.75795" lon="-1.57148">
        <ele>117</ele>
        <time>2014-05-25T09:57:05.545Z</time>
      </trkpt>
      <trkpt lat="46.75802" lon="-1.57129">
        <ele>116</ele>
        <time>2014-05-25T09:57:12.544Z</time>
      </trkpt>
      <trkpt lat="46.7582" lon="-1.57111">
        <ele>113</ele>
        <time>2014-05-25T09:57:21.544Z</time>
      </trkpt>
      <trkpt lat="46.75837" lon="-1.57093">
        <ele>114</ele>
        <time>2014-05-25T09:57:29.546Z</time>
      </trkpt>
      <trkpt lat="46.75858" lon="-1.57066">
        <ele>118</ele>
        <time>2014-05-25T09:57:40.545Z</time>
      </trkpt>
      <trkpt lat="46.75955" lon="-1.56977">
        <ele>118</ele>
        <time>2014-05-25T09:58:10.545Z</time>
      </trkpt>
      <trkpt lat="46.76037" lon="-1.56859">
        <ele>119</ele>
        <time>2014-05-25T09:58:39.545Z</time>
      </trkpt>
      <trkpt lat="46.76092" lon="-1.56777">
        <ele>118</ele>
        <time>2014-05-25T09:58:57.546Z</time>
      </trkpt>
      <trkpt lat="46.76235" lon="-1.56608">
        <ele>117</ele>
        <time>2014-05-25T09:59:36.546Z</time>
      </trkpt>
      <trkpt lat="46.7625" lon="-1.56615">
        <ele>117</ele>
        <time>2014-05-25T09:59:39.545Z</time>
      </trkpt>
      <trkpt lat="46.76261" lon="-1.56632">
        <ele>117</ele>
        <time>2014-05-25T09:59:42.546Z</time>
      </trkpt>
      <trkpt lat="46.76294" lon="-1.56673">
        <ele>118</ele>
        <time>2014-05-25T09:59:50.545Z</time>
      </trkpt>
      <trkpt lat="46.76315" lon="-1.56685">
        <ele>118</ele>
        <time>2014-05-25T09:59:54.545Z</time>
      </trkpt>
      <trkpt lat="46.76531" lon="-1.56786">
        <ele>109</ele>
        <time>2014-05-25T10:00:30.545Z</time>
      </trkpt>
      <trkpt lat="46.76588" lon="-1.56806">
        <ele>105</ele>
        <time>2014-05-25T10:00:38.545Z</time>
      </trkpt>
      <trkpt lat="46.76607" lon="-1.56803">
        <ele>105</ele>
        <time>2014-05-25T10:00:41.548Z</time>
      </trkpt>
      <trkpt lat="46.76658" lon="-1.56789">
        <ele>108</ele>
        <time>2014-05-25T10:00:53.545Z</time>
      </trkpt>
      <trkpt lat="46.76668" lon="-1.56807">
        <ele>110</ele>
        <time>2014-05-25T10:00:57.545Z</time>
      </trkpt>
      <trkpt lat="46.76675" lon="-1.56834">
        <ele>112</ele>
        <time>2014-05-25T10:01:03.545Z</time>
      </trkpt>
      <trkpt lat="46.76676" lon="-1.56891">
        <ele>112</ele>
        <time>2014-05-25T10:01:15.545Z</time>
      </trkpt>
      <trkpt lat="46.76673" lon="-1.56942">
        <ele>111</ele>
        <time>2014-05-25T10:01:27.546Z</time>
      </trkpt>
      <trkpt lat="46.76686" lon="-1.56951">
        <ele>113</ele>
        <time>2014-05-25T10:01:33.546Z</time>
      </trkpt>
      <trkpt lat="46.76729" lon="-1.56985">
        <ele>111</ele>
        <time>2014-05-25T10:01:53.548Z</time>
      </trkpt>
      <trkpt lat="46.76733" lon="-1.57004">
        <ele>111</ele>
        <time>2014-05-25T10:01:58.546Z</time>
      </trkpt>
      <trkpt lat="46.76733" lon="-1.57028">
        <ele>112</ele>
        <time>2014-05-25T10:02:04.545Z</time>
      </trkpt>
      <trkpt lat="46.76726" lon="-1.57044">
        <ele>112</ele>
        <time>2014-05-25T10:02:09.548Z</time>
      </trkpt>
      <trkpt lat="46.76715" lon="-1.57074">
        <ele>113</ele>
        <time>2014-05-25T10:02:18.548Z</time>
      </trkpt>
      <trkpt lat="46.76724" lon="-1.57094">
        <ele>114</ele>
        <time>2014-05-25T10:02:24.545Z</time>
      </trkpt>
      <trkpt lat="46.76758" lon="-1.57164">
        <ele>112</ele>
        <time>2014-05-25T10:02:40.549Z</time>
      </trkpt>
      <trkpt lat="46.76774" lon="-1.57176">
        <ele>112</ele>
        <time>2014-05-25T10:02:46.546Z</time>
      </trkpt>
      <trkpt lat="46.76785" lon="-1.57189">
        <ele>111</ele>
        <time>2014-05-25T10:02:51.545Z</time>
      </trkpt>
      <trkpt lat="46.768" lon="-1.57191">
        <ele>109</ele>
        <time>2014-05-25T10:02:56.546Z</time>
      </trkpt>
      <trkpt lat="46.76833" lon="-1.57199">
        <ele>107</ele>
        <time>2014-05-25T10:03:05.545Z</time>
      </trkpt>
      <trkpt lat="46.76848" lon="-1.57202">
        <ele>109</ele>
        <time>2014-05-25T10:03:13.548Z</time>
      </trkpt>
      <trkpt lat="46.76855" lon="-1.5722">
        <ele>110</ele>
        <time>2014-05-25T10:03:20.548Z</time>
      </trkpt>
      <trkpt lat="46.7685" lon="-1.5724">
        <ele>110</ele>
        <time>2014-05-25T10:03:25.545Z</time>
      </trkpt>
      <trkpt lat="46.76836" lon="-1.57243">
        <ele>111</ele>
        <time>2014-05-25T10:03:29.544Z</time>
      </trkpt>
      <trkpt lat="46.76823" lon="-1.57234">
        <ele>112</ele>
        <time>2014-05-25T10:03:35.545Z</time>
      </trkpt>
      <trkpt lat="46.7681" lon="-1.57227">
        <ele>114</ele>
        <time>2014-05-25T10:03:42.546Z</time>
      </trkpt>
      <trkpt lat="46.76796" lon="-1.57223">
        <ele>114</ele>
        <time>2014-05-25T10:03:47.545Z</time>
      </trkpt>
      <trkpt lat="46.76782" lon="-1.57211">
        <ele>114</ele>
        <time>2014-05-25T10:03:53.545Z</time>
      </trkpt>
      <trkpt lat="46.7677" lon="-1.57197">
        <ele>116</ele>
        <time>2014-05-25T10:04:01.548Z</time>
      </trkpt>
      <trkpt lat="46.76757" lon="-1.57187">
        <ele>118</ele>
        <time>2014-05-25T10:04:07.545Z</time>
      </trkpt>
      <trkpt lat="46.76745" lon="-1.57195">
        <ele>117</ele>
        <time>2014-05-25T10:04:11.544Z</time>
      </trkpt>
      <trkpt lat="46.76729" lon="-1.57204">
        <ele>112</ele>
        <time>2014-05-25T10:04:15.543Z</time>
      </trkpt>
      <trkpt lat="46.76716" lon="-1.57196">
        <ele>111</ele>
        <time>2014-05-25T10:04:19.546Z</time>
      </trkpt>
      <trkpt lat="46.76701" lon="-1.57194">
        <ele>111</ele>
        <time>2014-05-25T10:04:24.545Z</time>
      </trkpt>
      <trkpt lat="46.76693" lon="-1.57211">
        <ele>110</ele>
        <time>2014-05-25T10:04:28.546Z</time>
      </trkpt>
      <trkpt lat="46.76681" lon="-1.57241">
        <ele>107</ele>
        <time>2014-05-25T10:04:33.545Z</time>
      </trkpt>
      <trkpt lat="46.76692" lon="-1.57256">
        <ele>107</ele>
        <time>2014-05-25T10:04:38.545Z</time>
      </trkpt>
      <trkpt lat="46.76721" lon="-1.57257">
        <ele>110</ele>
        <time>2014-05-25T10:05:07.545Z</time>
      </trkpt>
      <trkpt lat="46.76735" lon="-1.57242">
        <ele>109</ele>
        <time>2014-05-25T10:05:26.545Z</time>
      </trkpt>
      <trkpt lat="46.76748" lon="-1.57236">
        <ele>111</ele>
        <time>2014-05-25T10:05:49.545Z</time>
      </trkpt>
      <trkpt lat="46.76757" lon="-1.57259">
        <ele>110</ele>
        <time>2014-05-25T10:05:56.545Z</time>
      </trkpt>
      <trkpt lat="46.76764" lon="-1.57286">
        <ele>109</ele>
        <time>2014-05-25T10:06:02.545Z</time>
      </trkpt>
      <trkpt lat="46.76765" lon="-1.57308">
        <ele>107</ele>
        <time>2014-05-25T10:06:09.545Z</time>
      </trkpt>
      <trkpt lat="46.76767" lon="-1.57328">
        <ele>107</ele>
        <time>2014-05-25T10:06:19.546Z</time>
      </trkpt>
      <trkpt lat="46.76806" lon="-1.57356">
        <ele>110</ele>
        <time>2014-05-25T10:06:30.546Z</time>
      </trkpt>
      <trkpt lat="46.76835" lon="-1.57371">
        <ele>109</ele>
        <time>2014-05-25T10:06:37.546Z</time>
      </trkpt>
      <trkpt lat="46.76893" lon="-1.57417">
        <ele>98</ele>
        <time>2014-05-25T10:06:55.545Z</time>
      </trkpt>
      <trkpt lat="46.76924" lon="-1.57425">
        <ele>90</ele>
        <time>2014-05-25T10:07:07.545Z</time>
      </trkpt>
      <trkpt lat="46.7694" lon="-1.57413">
        <ele>92</ele>
        <time>2014-05-25T10:07:14.546Z</time>
      </trkpt>
      <trkpt lat="46.76991" lon="-1.57336">
        <ele>92</ele>
        <time>2014-05-25T10:07:36.544Z</time>
      </trkpt>
      <trkpt lat="46.7706" lon="-1.57204">
        <ele>94</ele>
        <time>2014-05-25T10:08:08.545Z</time>
      </trkpt>
      <trkpt lat="46.77084" lon="-1.57188">
        <ele>94</ele>
        <time>2014-05-25T10:08:15.546Z</time>
      </trkpt>
      <trkpt lat="46.77192" lon="-1.57142">
        <ele>99</ele>
        <time>2014-05-25T10:08:45.546Z</time>
      </trkpt>
      <trkpt lat="46.77204" lon="-1.5713">
        <ele>98</ele>
        <time>2014-05-25T10:08:48.545Z</time>
      </trkpt>
      <trkpt lat="46.77207" lon="-1.5711">
        <ele>100</ele>
        <time>2014-05-25T10:08:51.546Z</time>
      </trkpt>
      <trkpt lat="46.77232" lon="-1.56945">
        <ele>99</ele>
        <time>2014-05-25T10:09:18.546Z</time>
      </trkpt>
      <trkpt lat="46.77263" lon="-1.56892">
        <ele>101</ele>
        <time>2014-05-25T10:09:30.545Z</time>
      </trkpt>
      <trkpt lat="46.77333" lon="-1.56774">
        <ele>100</ele>
        <time>2014-05-25T10:09:51.545Z</time>
      </trkpt>
      <trkpt lat="46.77384" lon="-1.56658">
        <ele>98</ele>
        <time>2014-05-25T10:10:08.545Z</time>
      </trkpt>
      <trkpt lat="46.77387" lon="-1.56638">
        <ele>98</ele>
        <time>2014-05-25T10:10:10.544Z</time>
      </trkpt>
      <trkpt lat="46.77379" lon="-1.56615">
        <ele>98</ele>
        <time>2014-05-25T10:10:13.544Z</time>
      </trkpt>
      <trkpt lat="46.77376" lon="-1.5658">
        <ele>98</ele>
        <time>2014-05-25T10:10:17.545Z</time>
      </trkpt>
      <trkpt lat="46.77378" lon="-1.56549">
        <ele>97</ele>
        <time>2014-05-25T10:10:21.544Z</time>
      </trkpt>
      <trkpt lat="46.77385" lon="-1.56528">
        <ele>97</ele>
        <time>2014-05-25T10:10:24.544Z</time>
      </trkpt>
      <trkpt lat="46.77415" lon="-1.56439">
        <ele>100</ele>
        <time>2014-05-25T10:10:37.545Z</time>
      </trkpt>
      <trkpt lat="46.7744" lon="-1.56393">
        <ele>100</ele>
        <time>2014-05-25T10:10:44.545Z</time>
      </trkpt>
      <trkpt lat="46.77492" lon="-1.56322">
        <ele>98</ele>
        <time>2014-05-25T10:10:56.545Z</time>
      </trkpt>
      <trkpt lat="46.77555" lon="-1.56172">
        <ele>90</ele>
        <time>2014-05-25T10:11:12.545Z</time>
      </trkpt>
      <trkpt lat="46.77568" lon="-1.56094">
        <ele>90</ele>
        <time>2014-05-25T10:11:20.548Z</time>
      </trkpt>
      <trkpt lat="46.7755" lon="-1.5609">
        <ele>90</ele>
        <time>2014-05-25T10:11:24.548Z</time>
      </trkpt>
      <trkpt lat="46.77514" lon="-1.56078">
        <ele>92</ele>
        <time>2014-05-25T10:11:36.544Z</time>
      </trkpt>
      <trkpt lat="46.77503" lon="-1.56065">
        <ele>94</ele>
        <time>2014-05-25T10:11:43.545Z</time>
      </trkpt>
      <trkpt lat="46.77497" lon="-1.56047">
        <ele>95</ele>
        <time>2014-05-25T10:11:49.545Z</time>
      </trkpt>
      <trkpt lat="46.7749" lon="-1.56024">
        <ele>98</ele>
        <time>2014-05-25T10:11:57.544Z</time>
      </trkpt>
      <trkpt lat="46.77488" lon="-1.56003">
        <ele>99</ele>
        <time>2014-05-25T10:12:06.545Z</time>
      </trkpt>
      <trkpt lat="46.7749" lon="-1.55836">
        <ele>102</ele>
        <time>2014-05-25T10:12:57.544Z</time>
      </trkpt>
      <trkpt lat="46.77488" lon="-1.55792">
        <ele>104</ele>
        <time>2014-05-25T10:13:09.544Z</time>
      </trkpt>
      <trkpt lat="46.77457" lon="-1.55574">
        <ele>99</ele>
        <time>2014-05-25T10:13:46.545Z</time>
      </trkpt>
      <trkpt lat="46.77469" lon="-1.55565">
        <ele>96</ele>
        <time>2014-05-25T10:13:50.545Z</time>
      </trkpt>
      <trkpt lat="46.77483" lon="-1.55564">
        <ele>94</ele>
        <time>2014-05-25T10:13:53.545Z</time>
      </trkpt>
      <trkpt lat="46.77554" lon="-1.5555">
        <ele>94</ele>
        <time>2014-05-25T10:14:06.545Z</time>
      </trkpt>
      <trkpt lat="46.7757" lon="-1.55536">
        <ele>94</ele>
        <time>2014-05-25T10:14:09.545Z</time>
      </trkpt>
      <trkpt lat="46.77583" lon="-1.55516">
        <ele>93</ele>
        <time>2014-05-25T10:14:12.545Z</time>
      </trkpt>
      <trkpt lat="46.77605" lon="-1.55487">
        <ele>93</ele>
        <time>2014-05-25T10:14:18.545Z</time>
      </trkpt>
      <trkpt lat="46.77624" lon="-1.55473">
        <ele>93</ele>
        <time>2014-05-25T10:14:22.545Z</time>
      </trkpt>
      <trkpt lat="46.77692" lon="-1.55422">
        <ele>89</ele>
        <time>2014-05-25T10:14:36.544Z</time>
      </trkpt>
      <trkpt lat="46.77696" lon="-1.55395">
        <ele>90</ele>
        <time>2014-05-25T10:14:40.544Z</time>
      </trkpt>
      <trkpt lat="46.77697" lon="-1.55335">
        <ele>89</ele>
        <time>2014-05-25T10:14:46.545Z</time>
      </trkpt>
      <trkpt lat="46.7769" lon="-1.5531">
        <ele>88</ele>
        <time>2014-05-25T10:14:49.545Z</time>
      </trkpt>
      <trkpt lat="46.77678" lon="-1.55271">
        <ele>90</ele>
        <time>2014-05-25T10:14:55.545Z</time>
      </trkpt>
      <trkpt lat="46.77665" lon="-1.55256">
        <ele>89</ele>
        <time>2014-05-25T10:15:00.545Z</time>
      </trkpt>
      <trkpt lat="46.77664" lon="-1.55232">
        <ele>93</ele>
        <time>2014-05-25T10:15:07.545Z</time>
      </trkpt>
      <trkpt lat="46.77638" lon="-1.55108">
        <ele>94</ele>
        <time>2014-05-25T10:15:28.545Z</time>
      </trkpt>
      <trkpt lat="46.77629" lon="-1.55075">
        <ele>94</ele>
        <time>2014-05-25T10:15:33.545Z</time>
      </trkpt>
      <trkpt lat="46.77622" lon="-1.55045">
        <ele>94</ele>
        <time>2014-05-25T10:15:37.543Z</time>
      </trkpt>
      <trkpt lat="46.77578" lon="-1.54898">
        <ele>90</ele>
        <time>2014-05-25T10:15:53.543Z</time>
      </trkpt>
      <trkpt lat="46.77557" lon="-1.54859">
        <ele>88</ele>
        <time>2014-05-25T10:15:57.543Z</time>
      </trkpt>
      <trkpt lat="46.77523" lon="-1.54796">
        <ele>86</ele>
        <time>2014-05-25T10:16:05.545Z</time>
      </trkpt>
      <trkpt lat="46.77514" lon="-1.54779">
        <ele>88</ele>
        <time>2014-05-25T10:16:10.545Z</time>
      </trkpt>
      <trkpt lat="46.77501" lon="-1.54784">
        <ele>88</ele>
        <time>2014-05-25T10:16:15.543Z</time>
      </trkpt>
      <trkpt lat="46.77501" lon="-1.54762">
        <ele>94</ele>
        <time>2014-05-25T10:16:30.544Z</time>
      </trkpt>
      <trkpt lat="46.775" lon="-1.54739">
        <ele>96</ele>
        <time>2014-05-25T10:16:36.546Z</time>
      </trkpt>
      <trkpt lat="46.7749" lon="-1.54709">
        <ele>98</ele>
        <time>2014-05-25T10:16:44.545Z</time>
      </trkpt>
      <trkpt lat="46.77495" lon="-1.54689">
        <ele>100</ele>
        <time>2014-05-25T10:16:49.546Z</time>
      </trkpt>
      <trkpt lat="46.77491" lon="-1.54588">
        <ele>103</ele>
        <time>2014-05-25T10:17:21.544Z</time>
      </trkpt>
      <trkpt lat="46.77478" lon="-1.54584">
        <ele>97</ele>
        <time>2014-05-25T10:17:39.545Z</time>
      </trkpt>
      <trkpt lat="46.77477" lon="-1.5461">
        <ele>96</ele>
        <time>2014-05-25T10:17:48.543Z</time>
      </trkpt>
      <trkpt lat="46.77479" lon="-1.5463">
        <ele>98</ele>
        <time>2014-05-25T10:17:56.545Z</time>
      </trkpt>
      <trkpt lat="46.77464" lon="-1.5463">
        <ele>105</ele>
        <time>2014-05-25T10:18:06.545Z</time>
      </trkpt>
      <trkpt lat="46.77465" lon="-1.54651">
        <ele>105</ele>
        <time>2014-05-25T10:18:14.546Z</time>
      </trkpt>
      <trkpt lat="46.77479" lon="-1.54678">
        <ele>104</ele>
        <time>2014-05-25T10:18:25.548Z</time>
      </trkpt>
      <trkpt lat="46.77479" lon="-1.54698">
        <ele>104</ele>
        <time>2014-05-25T10:18:31.549Z</time>
      </trkpt>
      <trkpt lat="46.77478" lon="-1.5478">
        <ele>96</ele>
        <time>2014-05-25T10:18:46.545Z</time>
      </trkpt>
      <trkpt lat="46.77451" lon="-1.54775">
        <ele>94</ele>
        <time>2014-05-25T10:19:40.544Z</time>
      </trkpt>
      <trkpt lat="46.77444" lon="-1.54797">
        <ele>93</ele>
        <time>2014-05-25T10:19:45.545Z</time>
      </trkpt>
      <trkpt lat="46.77428" lon="-1.54787">
        <ele>99</ele>
        <time>2014-05-25T10:20:10.543Z</time>
      </trkpt>
      <trkpt lat="46.77422" lon="-1.54769">
        <ele>101</ele>
        <time>2014-05-25T10:21:10.551Z</time>
      </trkpt>
      <trkpt lat="46.77365" lon="-1.54796">
        <ele>98</ele>
        <time>2014-05-25T10:21:57.545Z</time>
      </trkpt>
      <trkpt lat="46.77356" lon="-1.54813">
        <ele>97</ele>
        <time>2014-05-25T10:22:03.544Z</time>
      </trkpt>
      <trkpt lat="46.77346" lon="-1.54828">
        <ele>97</ele>
        <time>2014-05-25T10:22:10.545Z</time>
      </trkpt>
      <trkpt lat="46.77313" lon="-1.54866">
        <ele>101</ele>
        <time>2014-05-25T10:22:24.541Z</time>
      </trkpt>
      <trkpt lat="46.77327" lon="-1.54863">
        <ele>100</ele>
        <time>2014-05-25T10:22:30.545Z</time>
      </trkpt>
      <trkpt lat="46.7734" lon="-1.54848">
        <ele>99</ele>
        <time>2014-05-25T10:22:36.541Z</time>
      </trkpt>
      <trkpt lat="46.77375" lon="-1.54831">
        <ele>97</ele>
        <time>2014-05-25T10:22:47.545Z</time>
      </trkpt>
      <trkpt lat="46.77387" lon="-1.54851">
        <ele>95</ele>
        <time>2014-05-25T10:22:51.543Z</time>
      </trkpt>
      <trkpt lat="46.77388" lon="-1.54828">
        <ele>92</ele>
        <time>2014-05-25T10:23:04.545Z</time>
      </trkpt>
      <trkpt lat="46.77405" lon="-1.5482">
        <ele>90</ele>
        <time>2014-05-25T10:23:14.545Z</time>
      </trkpt>
      <trkpt lat="46.77417" lon="-1.5483">
        <ele>91</ele>
        <time>2014-05-25T10:23:20.545Z</time>
      </trkpt>
      <trkpt lat="46.77423" lon="-1.54886">
        <ele>93</ele>
        <time>2014-05-25T10:24:21.543Z</time>
      </trkpt>
      <trkpt lat="46.7742" lon="-1.54924">
        <ele>103</ele>
        <time>2014-05-25T10:24:56.545Z</time>
      </trkpt>
      <trkpt lat="46.77407" lon="-1.54931">
        <ele>99</ele>
        <time>2014-05-25T10:25:14.545Z</time>
      </trkpt>
      <trkpt lat="46.77386" lon="-1.54932">
        <ele>97</ele>
        <time>2014-05-25T10:25:23.545Z</time>
      </trkpt>
      <trkpt lat="46.77306" lon="-1.54951">
        <ele>99</ele>
        <time>2014-05-25T10:25:58.546Z</time>
      </trkpt>
      <trkpt lat="46.77287" lon="-1.54962">
        <ele>98</ele>
        <time>2014-05-25T10:26:09.544Z</time>
      </trkpt>
      <trkpt lat="46.77239" lon="-1.54979">
        <ele>99</ele>
        <time>2014-05-25T10:26:31.545Z</time>
      </trkpt>
      <trkpt lat="46.77225" lon="-1.54991">
        <ele>100</ele>
        <time>2014-05-25T10:26:38.545Z</time>
      </trkpt>
      <trkpt lat="46.77217" lon="-1.54973">
        <ele>103</ele>
        <time>2014-05-25T10:26:43.545Z</time>
      </trkpt>
      <trkpt lat="46.77192" lon="-1.54878">
        <ele>104</ele>
        <time>2014-05-25T10:27:03.544Z</time>
      </trkpt>
      <trkpt lat="46.77195" lon="-1.54855">
        <ele>106</ele>
        <time>2014-05-25T10:27:08.544Z</time>
      </trkpt>
      <trkpt lat="46.77221" lon="-1.54757">
        <ele>107</ele>
        <time>2014-05-25T10:27:29.545Z</time>
      </trkpt>
      <trkpt lat="46.77217" lon="-1.54707">
        <ele>109</ele>
        <time>2014-05-25T10:27:40.545Z</time>
      </trkpt>
      <trkpt lat="46.77228" lon="-1.54691">
        <ele>109</ele>
        <time>2014-05-25T10:27:45.545Z</time>
      </trkpt>
      <trkpt lat="46.77233" lon="-1.54669">
        <ele>109</ele>
        <time>2014-05-25T10:27:50.546Z</time>
      </trkpt>
      <trkpt lat="46.7723" lon="-1.54645">
        <ele>108</ele>
        <time>2014-05-25T10:27:55.546Z</time>
      </trkpt>
      <trkpt lat="46.77212" lon="-1.54559">
        <ele>110</ele>
        <time>2014-05-25T10:28:19.546Z</time>
      </trkpt>
      <trkpt lat="46.77226" lon="-1.54558">
        <ele>107</ele>
        <time>2014-05-25T10:28:26.544Z</time>
      </trkpt>
      <trkpt lat="46.77291" lon="-1.54545">
        <ele>105</ele>
        <time>2014-05-25T10:28:46.545Z</time>
      </trkpt>
      <trkpt lat="46.77298" lon="-1.54525">
        <ele>107</ele>
        <time>2014-05-25T10:28:51.545Z</time>
      </trkpt>
      <trkpt lat="46.77294" lon="-1.54503">
        <ele>107</ele>
        <time>2014-05-25T10:28:56.544Z</time>
      </trkpt>
      <trkpt lat="46.77274" lon="-1.54395">
        <ele>108</ele>
        <time>2014-05-25T10:29:21.545Z</time>
      </trkpt>
      <trkpt lat="46.77243" lon="-1.54272">
        <ele>103</ele>
        <time>2014-05-25T10:29:56.545Z</time>
      </trkpt>
      <trkpt lat="46.77248" lon="-1.54245">
        <ele>103</ele>
        <time>2014-05-25T10:30:00.544Z</time>
      </trkpt>
      <trkpt lat="46.77255" lon="-1.54224">
        <ele>104</ele>
        <time>2014-05-25T10:30:03.545Z</time>
      </trkpt>
      <trkpt lat="46.77271" lon="-1.54211">
        <ele>103</ele>
        <time>2014-05-25T10:30:06.545Z</time>
      </trkpt>
      <trkpt lat="46.77362" lon="-1.54163">
        <ele>100</ele>
        <time>2014-05-25T10:30:20.544Z</time>
      </trkpt>
      <trkpt lat="46.77391" lon="-1.54132">
        <ele>99</ele>
        <time>2014-05-25T10:30:26.544Z</time>
      </trkpt>
      <trkpt lat="46.77508" lon="-1.54069">
        <ele>96</ele>
        <time>2014-05-25T10:30:50.545Z</time>
      </trkpt>
      <trkpt lat="46.77516" lon="-1.54044">
        <ele>94</ele>
        <time>2014-05-25T10:30:53.545Z</time>
      </trkpt>
      <trkpt lat="46.77513" lon="-1.54023">
        <ele>94</ele>
        <time>2014-05-25T10:30:55.545Z</time>
      </trkpt>
      <trkpt lat="46.77506" lon="-1.54002">
        <ele>93</ele>
        <time>2014-05-25T10:30:57.545Z</time>
      </trkpt>
      <trkpt lat="46.77498" lon="-1.53958">
        <ele>90</ele>
        <time>2014-05-25T10:31:03.545Z</time>
      </trkpt>
      <trkpt lat="46.77512" lon="-1.53947">
        <ele>88</ele>
        <time>2014-05-25T10:31:06.546Z</time>
      </trkpt>
      <trkpt lat="46.77531" lon="-1.5394">
        <ele>87</ele>
        <time>2014-05-25T10:31:09.545Z</time>
      </trkpt>
      <trkpt lat="46.776" lon="-1.53928">
        <ele>84</ele>
        <time>2014-05-25T10:31:20.545Z</time>
      </trkpt>
      <trkpt lat="46.77613" lon="-1.53945">
        <ele>86</ele>
        <time>2014-05-25T10:31:24.548Z</time>
      </trkpt>
      <trkpt lat="46.77632" lon="-1.53963">
        <ele>86</ele>
        <time>2014-05-25T10:31:28.544Z</time>
      </trkpt>
      <trkpt lat="46.77645" lon="-1.53968">
        <ele>86</ele>
        <time>2014-05-25T10:31:30.549Z</time>
      </trkpt>
      <trkpt lat="46.77666" lon="-1.53977">
        <ele>84</ele>
        <time>2014-05-25T10:31:33.545Z</time>
      </trkpt>
      <trkpt lat="46.77682" lon="-1.53973">
        <ele>82</ele>
        <time>2014-05-25T10:31:35.546Z</time>
      </trkpt>
      <trkpt lat="46.77692" lon="-1.53955">
        <ele>80</ele>
        <time>2014-05-25T10:31:38.545Z</time>
      </trkpt>
      <trkpt lat="46.77687" lon="-1.5393">
        <ele>80</ele>
        <time>2014-05-25T10:31:41.546Z</time>
      </trkpt>
      <trkpt lat="46.77688" lon="-1.53894">
        <ele>80</ele>
        <time>2014-05-25T10:31:45.543Z</time>
      </trkpt>
      <trkpt lat="46.77694" lon="-1.53855">
        <ele>79</ele>
        <time>2014-05-25T10:31:50.544Z</time>
      </trkpt>
      <trkpt lat="46.77705" lon="-1.53826">
        <ele>80</ele>
        <time>2014-05-25T10:31:54.545Z</time>
      </trkpt>
      <trkpt lat="46.77726" lon="-1.53787">
        <ele>80</ele>
        <time>2014-05-25T10:32:00.546Z</time>
      </trkpt>
      <trkpt lat="46.77739" lon="-1.53772">
        <ele>79</ele>
        <time>2014-05-25T10:32:03.544Z</time>
      </trkpt>
      <trkpt lat="46.77775" lon="-1.53735">
        <ele>79</ele>
        <time>2014-05-25T10:32:11.545Z</time>
      </trkpt>
      <trkpt lat="46.77802" lon="-1.53715">
        <ele>79</ele>
        <time>2014-05-25T10:32:17.546Z</time>
      </trkpt>
      <trkpt lat="46.77822" lon="-1.53709">
        <ele>80</ele>
        <time>2014-05-25T10:32:21.546Z</time>
      </trkpt>
      <trkpt lat="46.77973" lon="-1.53675">
        <ele>77</ele>
        <time>2014-05-25T10:32:51.545Z</time>
      </trkpt>
      <trkpt lat="46.77989" lon="-1.53665">
        <ele>78</ele>
        <time>2014-05-25T10:32:54.545Z</time>
      </trkpt>
      <trkpt lat="46.77995" lon="-1.53647">
        <ele>79</ele>
        <time>2014-05-25T10:32:58.546Z</time>
      </trkpt>
      <trkpt lat="46.77996" lon="-1.53626">
        <ele>79</ele>
        <time>2014-05-25T10:33:04.546Z</time>
      </trkpt>
      <trkpt lat="46.77994" lon="-1.53581">
        <ele>81</ele>
        <time>2014-05-25T10:33:18.545Z</time>
      </trkpt>
      <trkpt lat="46.77987" lon="-1.53555">
        <ele>84</ele>
        <time>2014-05-25T10:33:26.545Z</time>
      </trkpt>
      <trkpt lat="46.77955" lon="-1.53486">
        <ele>82</ele>
        <time>2014-05-25T10:33:42.546Z</time>
      </trkpt>
      <trkpt lat="46.77944" lon="-1.53452">
        <ele>86</ele>
        <time>2014-05-25T10:33:49.545Z</time>
      </trkpt>
      <trkpt lat="46.77924" lon="-1.53363">
        <ele>84</ele>
        <time>2014-05-25T10:34:02.545Z</time>
      </trkpt>
      <trkpt lat="46.7788" lon="-1.53169">
        <ele>84</ele>
        <time>2014-05-25T10:34:30.546Z</time>
      </trkpt>
      <trkpt lat="46.7786" lon="-1.53129">
        <ele>84</ele>
        <time>2014-05-25T10:34:37.546Z</time>
      </trkpt>
      <trkpt lat="46.77832" lon="-1.53085">
        <ele>83</ele>
        <time>2014-05-25T10:34:46.544Z</time>
      </trkpt>
      <trkpt lat="46.77678" lon="-1.52894">
        <ele>81</ele>
        <time>2014-05-25T10:35:27.548Z</time>
      </trkpt>
      <trkpt lat="46.77662" lon="-1.52852">
        <ele>85</ele>
        <time>2014-05-25T10:35:34.545Z</time>
      </trkpt>
      <trkpt lat="46.77578" lon="-1.52637">
        <ele>85</ele>
        <time>2014-05-25T10:36:07.548Z</time>
      </trkpt>
      <trkpt lat="46.77542" lon="-1.52543">
        <ele>89</ele>
        <time>2014-05-25T10:36:24.548Z</time>
      </trkpt>
      <trkpt lat="46.77535" lon="-1.52522">
        <ele>88</ele>
        <time>2014-05-25T10:36:27.546Z</time>
      </trkpt>
      <trkpt lat="46.77501" lon="-1.52444">
        <ele>85</ele>
        <time>2014-05-25T10:36:37.548Z</time>
      </trkpt>
      <trkpt lat="46.77487" lon="-1.52445">
        <ele>85</ele>
        <time>2014-05-25T10:36:41.548Z</time>
      </trkpt>
      <trkpt lat="46.77466" lon="-1.52442">
        <ele>85</ele>
        <time>2014-05-25T10:36:48.548Z</time>
      </trkpt>
      <trkpt lat="46.77445" lon="-1.52448">
        <ele>88</ele>
        <time>2014-05-25T10:36:54.545Z</time>
      </trkpt>
      <trkpt lat="46.77431" lon="-1.52444">
        <ele>87</ele>
        <time>2014-05-25T10:36:57.545Z</time>
      </trkpt>
      <trkpt lat="46.77389" lon="-1.52417">
        <ele>87</ele>
        <time>2014-05-25T10:37:10.549Z</time>
      </trkpt>
      <trkpt lat="46.77348" lon="-1.5239">
        <ele>97</ele>
        <time>2014-05-25T10:37:21.549Z</time>
      </trkpt>
      <trkpt lat="46.77323" lon="-1.52381">
        <ele>101</ele>
        <time>2014-05-25T10:37:27.548Z</time>
      </trkpt>
      <trkpt lat="46.77209" lon="-1.52377">
        <ele>93</ele>
        <time>2014-05-25T10:37:51.548Z</time>
      </trkpt>
      <trkpt lat="46.77193" lon="-1.52373">
        <ele>93</ele>
        <time>2014-05-25T10:37:55.548Z</time>
      </trkpt>
      <trkpt lat="46.77137" lon="-1.52341">
        <ele>84</ele>
        <time>2014-05-25T10:38:09.549Z</time>
      </trkpt>
      <trkpt lat="46.77131" lon="-1.52323">
        <ele>84</ele>
        <time>2014-05-25T10:38:15.545Z</time>
      </trkpt>
      <trkpt lat="46.77128" lon="-1.523">
        <ele>87</ele>
        <time>2014-05-25T10:38:24.546Z</time>
      </trkpt>
      <trkpt lat="46.77143" lon="-1.52292">
        <ele>85</ele>
        <time>2014-05-25T10:38:34.546Z</time>
      </trkpt>
      <trkpt lat="46.77165" lon="-1.52268">
        <ele>97</ele>
        <time>2014-05-25T10:39:26.545Z</time>
      </trkpt>
      <trkpt lat="46.7716" lon="-1.5225">
        <ele>93</ele>
        <time>2014-05-25T10:39:33.545Z</time>
      </trkpt>
      <trkpt lat="46.7716" lon="-1.5222">
        <ele>94</ele>
        <time>2014-05-25T10:39:40.545Z</time>
      </trkpt>
      <trkpt lat="46.77156" lon="-1.52198">
        <ele>92</ele>
        <time>2014-05-25T10:39:47.545Z</time>
      </trkpt>
      <trkpt lat="46.77141" lon="-1.52153">
        <ele>95</ele>
        <time>2014-05-25T10:39:56.544Z</time>
      </trkpt>
      <trkpt lat="46.77148" lon="-1.52134">
        <ele>92</ele>
        <time>2014-05-25T10:40:02.546Z</time>
      </trkpt>
      <trkpt lat="46.77177" lon="-1.52062">
        <ele>95</ele>
        <time>2014-05-25T10:40:29.548Z</time>
      </trkpt>
      <trkpt lat="46.77185" lon="-1.52039">
        <ele>88</ele>
        <time>2014-05-25T10:40:37.545Z</time>
      </trkpt>
      <trkpt lat="46.77173" lon="-1.52029">
        <ele>97</ele>
        <time>2014-05-25T10:40:55.545Z</time>
      </trkpt>
      <trkpt lat="46.77107" lon="-1.52091">
        <ele>83</ele>
        <time>2014-05-25T10:41:20.545Z</time>
      </trkpt>
      <trkpt lat="46.77099" lon="-1.52073">
        <ele>87</ele>
        <time>2014-05-25T10:41:29.546Z</time>
      </trkpt>
      <trkpt lat="46.77085" lon="-1.52062">
        <ele>87</ele>
        <time>2014-05-25T10:41:36.545Z</time>
      </trkpt>
      <trkpt lat="46.77076" lon="-1.52044">
        <ele>89</ele>
        <time>2014-05-25T10:41:42.545Z</time>
      </trkpt>
      <trkpt lat="46.77056" lon="-1.52018">
        <ele>88</ele>
        <time>2014-05-25T10:41:52.543Z</time>
      </trkpt>
      <trkpt lat="46.7706" lon="-1.51998">
        <ele>80</ele>
        <time>2014-05-25T10:42:02.545Z</time>
      </trkpt>
      <trkpt lat="46.77096" lon="-1.51962">
        <ele>100</ele>
        <time>2014-05-25T10:42:27.546Z</time>
      </trkpt>
      <trkpt lat="46.77112" lon="-1.51962">
        <ele>93</ele>
        <time>2014-05-25T10:42:38.545Z</time>
      </trkpt>
      <trkpt lat="46.77126" lon="-1.51959">
        <ele>96</ele>
        <time>2014-05-25T10:42:46.546Z</time>
      </trkpt>
      <trkpt lat="46.77121" lon="-1.51939">
        <ele>93</ele>
        <time>2014-05-25T10:42:58.545Z</time>
      </trkpt>
      <trkpt lat="46.77093" lon="-1.51884">
        <ele>97</ele>
        <time>2014-05-25T10:43:22.545Z</time>
      </trkpt>
      <trkpt lat="46.77094" lon="-1.51885">
        <ele>98</ele>
        <time>2014-05-25T10:44:22.549Z</time>
      </trkpt>
      <trkpt lat="46.77107" lon="-1.51877">
        <ele>100</ele>
        <time>2014-05-25T10:44:53.546Z</time>
      </trkpt>
      <trkpt lat="46.77147" lon="-1.51853">
        <ele>102</ele>
        <time>2014-05-25T10:45:09.545Z</time>
      </trkpt>
      <trkpt lat="46.77216" lon="-1.51753">
        <ele>102</ele>
        <time>2014-05-25T10:45:40.545Z</time>
      </trkpt>
      <trkpt lat="46.77214" lon="-1.51731">
        <ele>107</ele>
        <time>2014-05-25T10:45:45.545Z</time>
      </trkpt>
      <trkpt lat="46.77173" lon="-1.51598">
        <ele>110</ele>
        <time>2014-05-25T10:46:18.546Z</time>
      </trkpt>
      <trkpt lat="46.77142" lon="-1.51495">
        <ele>114</ele>
        <time>2014-05-25T10:46:42.546Z</time>
      </trkpt>
      <trkpt lat="46.77111" lon="-1.51403">
        <ele>114</ele>
        <time>2014-05-25T10:47:04.545Z</time>
      </trkpt>
      <trkpt lat="46.77101" lon="-1.51385">
        <ele>114</ele>
        <time>2014-05-25T10:47:10.545Z</time>
      </trkpt>
      <trkpt lat="46.77085" lon="-1.51395">
        <ele>118</ele>
        <time>2014-05-25T10:47:17.546Z</time>
      </trkpt>
      <trkpt lat="46.77061" lon="-1.51402">
        <ele>118</ele>
        <time>2014-05-25T10:47:23.545Z</time>
      </trkpt>
      <trkpt lat="46.77039" lon="-1.51402">
        <ele>118</ele>
        <time>2014-05-25T10:47:29.55Z</time>
      </trkpt>
      <trkpt lat="46.77031" lon="-1.51382">
        <ele>120</ele>
        <time>2014-05-25T10:47:33.545Z</time>
      </trkpt>
      <trkpt lat="46.7703" lon="-1.51356">
        <ele>120</ele>
        <time>2014-05-25T10:47:36.545Z</time>
      </trkpt>
      <trkpt lat="46.7702" lon="-1.51328">
        <ele>120</ele>
        <time>2014-05-25T10:47:40.546Z</time>
      </trkpt>
      <trkpt lat="46.77" lon="-1.51288">
        <ele>113</ele>
        <time>2014-05-25T10:48:40.55Z</time>
      </trkpt>
      <trkpt lat="46.76998" lon="-1.51286">
        <ele>110</ele>
        <time>2014-05-25T10:48:55.55Z</time>
      </trkpt>
    </trkseg>
  </trk>
</gpx>